<?xml version="1.0" encoding="UTF-8" standalone="no" ?>
<gpx xmlns="http://www.topografix.com/GPX/1/1" xmlns:xsi="http://www.w3.org/2001/XMLSchema-instance" xsi:schemaLocation="http://www.topografix.com/GPX/1/1 http://www.topografix.com/GPX/1/1/gpx.xsd" version="1.1" creator="VisuGPX - https://www.visugpx.com">
  <metadata>
    <name>Pignan</name>
  </metadata>
  <trk>
    <name><![CDATA[Pignan_1]]></name>
    <trkseg>
      <trkpt lat="43.57994" lon="3.76145">
        <ele>41</ele>
        <time>2021-03-16T13:36:12+01:00</time>
      </trkpt>
      <trkpt lat="43.57994" lon="3.76145">
        <ele>41</ele>
        <time>2021-03-16T13:36:13+01:00</time>
      </trkpt>
      <trkpt lat="43.57994" lon="3.76145">
        <ele>41</ele>
        <time>2021-03-16T13:36:17+01:00</time>
      </trkpt>
      <trkpt lat="43.57988" lon="3.76139">
        <ele>41</ele>
        <time>2021-03-16T13:36:32+01:00</time>
      </trkpt>
      <trkpt lat="43.57987" lon="3.76139">
        <ele>41</ele>
        <time>2021-03-16T13:36:38+01:00</time>
      </trkpt>
      <trkpt lat="43.57987" lon="3.76118">
        <ele>41</ele>
        <time>2021-03-16T13:36:49+01:00</time>
      </trkpt>
      <trkpt lat="43.57987" lon="3.76118">
        <ele>41</ele>
        <time>2021-03-16T13:36:53+01:00</time>
      </trkpt>
      <trkpt lat="43.57987" lon="3.76112">
        <ele>41</ele>
        <time>2021-03-16T13:37:12+01:00</time>
      </trkpt>
      <trkpt lat="43.57985" lon="3.76107">
        <ele>41</ele>
        <time>2021-03-16T13:37:14+01:00</time>
      </trkpt>
      <trkpt lat="43.57947" lon="3.76057">
        <ele>41</ele>
        <time>2021-03-16T13:37:32+01:00</time>
      </trkpt>
      <trkpt lat="43.57935" lon="3.76039">
        <ele>41</ele>
        <time>2021-03-16T13:37:37+01:00</time>
      </trkpt>
      <trkpt lat="43.57933" lon="3.76034">
        <ele>41</ele>
        <time>2021-03-16T13:37:38+01:00</time>
      </trkpt>
      <trkpt lat="43.57932" lon="3.76028">
        <ele>41</ele>
        <time>2021-03-16T13:37:39+01:00</time>
      </trkpt>
      <trkpt lat="43.57933" lon="3.76023">
        <ele>41</ele>
        <time>2021-03-16T13:37:40+01:00</time>
      </trkpt>
      <trkpt lat="43.57936" lon="3.76017">
        <ele>41</ele>
        <time>2021-03-16T13:37:41+01:00</time>
      </trkpt>
      <trkpt lat="43.5794" lon="3.76012">
        <ele>41</ele>
        <time>2021-03-16T13:37:42+01:00</time>
      </trkpt>
      <trkpt lat="43.57986" lon="3.7596">
        <ele>43</ele>
        <time>2021-03-16T13:37:57+01:00</time>
      </trkpt>
      <trkpt lat="43.58016" lon="3.75931">
        <ele>44</ele>
        <time>2021-03-16T13:38:12+01:00</time>
      </trkpt>
      <trkpt lat="43.58048" lon="3.75906">
        <ele>45</ele>
        <time>2021-03-16T13:38:28+01:00</time>
      </trkpt>
      <trkpt lat="43.5806" lon="3.75887">
        <ele>45</ele>
        <time>2021-03-16T13:38:40+01:00</time>
      </trkpt>
      <trkpt lat="43.58082" lon="3.75856">
        <ele>45</ele>
        <time>2021-03-16T13:38:49+01:00</time>
      </trkpt>
      <trkpt lat="43.58166" lon="3.75772">
        <ele>47</ele>
        <time>2021-03-16T13:39:16+01:00</time>
      </trkpt>
      <trkpt lat="43.58223" lon="3.75728">
        <ele>47</ele>
        <time>2021-03-16T13:39:36+01:00</time>
      </trkpt>
      <trkpt lat="43.58227" lon="3.75726">
        <ele>47</ele>
        <time>2021-03-16T13:39:41+01:00</time>
      </trkpt>
      <trkpt lat="43.58252" lon="3.75731">
        <ele>48</ele>
        <time>2021-03-16T13:39:50+01:00</time>
      </trkpt>
      <trkpt lat="43.58254" lon="3.75727">
        <ele>48</ele>
        <time>2021-03-16T13:39:51+01:00</time>
      </trkpt>
      <trkpt lat="43.58255" lon="3.75723">
        <ele>48</ele>
        <time>2021-03-16T13:39:52+01:00</time>
      </trkpt>
      <trkpt lat="43.58256" lon="3.75719">
        <ele>48</ele>
        <time>2021-03-16T13:39:53+01:00</time>
      </trkpt>
      <trkpt lat="43.58255" lon="3.75715">
        <ele>48</ele>
        <time>2021-03-16T13:39:54+01:00</time>
      </trkpt>
      <trkpt lat="43.58255" lon="3.7571">
        <ele>48</ele>
        <time>2021-03-16T13:39:55+01:00</time>
      </trkpt>
      <trkpt lat="43.58236" lon="3.75618">
        <ele>48</ele>
        <time>2021-03-16T13:40:16+01:00</time>
      </trkpt>
      <trkpt lat="43.58205" lon="3.75541">
        <ele>49</ele>
        <time>2021-03-16T13:40:34+01:00</time>
      </trkpt>
      <trkpt lat="43.58174" lon="3.75444">
        <ele>50</ele>
        <time>2021-03-16T13:40:55+01:00</time>
      </trkpt>
      <trkpt lat="43.58182" lon="3.75341">
        <ele>52</ele>
        <time>2021-03-16T13:41:17+01:00</time>
      </trkpt>
      <trkpt lat="43.58201" lon="3.75282">
        <ele>53</ele>
        <time>2021-03-16T13:41:32+01:00</time>
      </trkpt>
      <trkpt lat="43.5823" lon="3.75244">
        <ele>54</ele>
        <time>2021-03-16T13:41:47+01:00</time>
      </trkpt>
      <trkpt lat="43.58224" lon="3.75212">
        <ele>55</ele>
        <time>2021-03-16T13:41:56+01:00</time>
      </trkpt>
      <trkpt lat="43.58189" lon="3.75133">
        <ele>56</ele>
        <time>2021-03-16T13:42:18+01:00</time>
      </trkpt>
      <trkpt lat="43.58146" lon="3.75031">
        <ele>58</ele>
        <time>2021-03-16T13:42:44+01:00</time>
      </trkpt>
      <trkpt lat="43.58163" lon="3.74983">
        <ele>59</ele>
        <time>2021-03-16T13:42:57+01:00</time>
      </trkpt>
      <trkpt lat="43.5819" lon="3.74911">
        <ele>60</ele>
        <time>2021-03-16T13:43:15+01:00</time>
      </trkpt>
      <trkpt lat="43.58196" lon="3.74898">
        <ele>60</ele>
        <time>2021-03-16T13:43:19+01:00</time>
      </trkpt>
      <trkpt lat="43.58213" lon="3.74856">
        <ele>61</ele>
        <time>2021-03-16T13:43:31+01:00</time>
      </trkpt>
      <trkpt lat="43.58225" lon="3.74804">
        <ele>64</ele>
        <time>2021-03-16T13:43:45+01:00</time>
      </trkpt>
      <trkpt lat="43.58229" lon="3.74751">
        <ele>69</ele>
        <time>2021-03-16T13:43:59+01:00</time>
      </trkpt>
      <trkpt lat="43.5823" lon="3.74723">
        <ele>72</ele>
        <time>2021-03-16T13:44:07+01:00</time>
      </trkpt>
      <trkpt lat="43.5823" lon="3.74665">
        <ele>77</ele>
        <time>2021-03-16T13:44:25+01:00</time>
      </trkpt>
      <trkpt lat="43.58225" lon="3.74637">
        <ele>80</ele>
        <time>2021-03-16T13:44:34+01:00</time>
      </trkpt>
      <trkpt lat="43.58217" lon="3.74607">
        <ele>81</ele>
        <time>2021-03-16T13:44:44+01:00</time>
      </trkpt>
      <trkpt lat="43.58207" lon="3.74569">
        <ele>83</ele>
        <time>2021-03-16T13:44:55+01:00</time>
      </trkpt>
      <trkpt lat="43.58198" lon="3.74497">
        <ele>85</ele>
        <time>2021-03-16T13:45:13+01:00</time>
      </trkpt>
      <trkpt lat="43.58212" lon="3.74426">
        <ele>87</ele>
        <time>2021-03-16T13:45:29+01:00</time>
      </trkpt>
      <trkpt lat="43.58225" lon="3.7439">
        <ele>88</ele>
        <time>2021-03-16T13:45:42+01:00</time>
      </trkpt>
      <trkpt lat="43.58241" lon="3.74344">
        <ele>91</ele>
        <time>2021-03-16T13:45:55+01:00</time>
      </trkpt>
      <trkpt lat="43.58263" lon="3.74287">
        <ele>94</ele>
        <time>2021-03-16T13:46:10+01:00</time>
      </trkpt>
      <trkpt lat="43.58287" lon="3.74225">
        <ele>96</ele>
        <time>2021-03-16T13:46:28+01:00</time>
      </trkpt>
      <trkpt lat="43.58288" lon="3.74188">
        <ele>97</ele>
        <time>2021-03-16T13:46:36+01:00</time>
      </trkpt>
      <trkpt lat="43.58311" lon="3.74148">
        <ele>99</ele>
        <time>2021-03-16T13:46:48+01:00</time>
      </trkpt>
      <trkpt lat="43.58318" lon="3.74132">
        <ele>99</ele>
        <time>2021-03-16T13:46:55+01:00</time>
      </trkpt>
      <trkpt lat="43.58319" lon="3.7413">
        <ele>99</ele>
        <time>2021-03-16T13:47:01+01:00</time>
      </trkpt>
      <trkpt lat="43.58321" lon="3.74124">
        <ele>98</ele>
        <time>2021-03-16T13:48:34+01:00</time>
      </trkpt>
      <trkpt lat="43.58322" lon="3.74122">
        <ele>98</ele>
        <time>2021-03-16T13:48:35+01:00</time>
      </trkpt>
      <trkpt lat="43.58323" lon="3.7412">
        <ele>98</ele>
        <time>2021-03-16T13:48:36+01:00</time>
      </trkpt>
      <trkpt lat="43.58324" lon="3.74118">
        <ele>98</ele>
        <time>2021-03-16T13:48:37+01:00</time>
      </trkpt>
      <trkpt lat="43.58326" lon="3.74116">
        <ele>98</ele>
        <time>2021-03-16T13:48:38+01:00</time>
      </trkpt>
      <trkpt lat="43.58327" lon="3.74114">
        <ele>98</ele>
        <time>2021-03-16T13:48:39+01:00</time>
      </trkpt>
      <trkpt lat="43.58329" lon="3.74112">
        <ele>97</ele>
        <time>2021-03-16T13:48:40+01:00</time>
      </trkpt>
      <trkpt lat="43.58359" lon="3.7408">
        <ele>96</ele>
        <time>2021-03-16T13:48:52+01:00</time>
      </trkpt>
      <trkpt lat="43.58366" lon="3.74067">
        <ele>96</ele>
        <time>2021-03-16T13:48:55+01:00</time>
      </trkpt>
      <trkpt lat="43.58368" lon="3.74062">
        <ele>96</ele>
        <time>2021-03-16T13:48:56+01:00</time>
      </trkpt>
      <trkpt lat="43.58369" lon="3.74056">
        <ele>96</ele>
        <time>2021-03-16T13:48:57+01:00</time>
      </trkpt>
      <trkpt lat="43.58383" lon="3.74025">
        <ele>97</ele>
        <time>2021-03-16T13:49:03+01:00</time>
      </trkpt>
      <trkpt lat="43.58416" lon="3.73951">
        <ele>104</ele>
        <time>2021-03-16T13:49:21+01:00</time>
      </trkpt>
      <trkpt lat="43.5842" lon="3.73916">
        <ele>105</ele>
        <time>2021-03-16T13:49:30+01:00</time>
      </trkpt>
      <trkpt lat="43.58428" lon="3.73857">
        <ele>108</ele>
        <time>2021-03-16T13:49:47+01:00</time>
      </trkpt>
      <trkpt lat="43.5843" lon="3.73822">
        <ele>111</ele>
        <time>2021-03-16T13:49:59+01:00</time>
      </trkpt>
      <trkpt lat="43.58441" lon="3.73776">
        <ele>114</ele>
        <time>2021-03-16T13:50:13+01:00</time>
      </trkpt>
      <trkpt lat="43.58461" lon="3.73745">
        <ele>115</ele>
        <time>2021-03-16T13:50:24+01:00</time>
      </trkpt>
      <trkpt lat="43.58479" lon="3.73712">
        <ele>115</ele>
        <time>2021-03-16T13:50:37+01:00</time>
      </trkpt>
      <trkpt lat="43.58513" lon="3.73653">
        <ele>113</ele>
        <time>2021-03-16T13:50:52+01:00</time>
      </trkpt>
      <trkpt lat="43.58533" lon="3.73617">
        <ele>113</ele>
        <time>2021-03-16T13:50:58+01:00</time>
      </trkpt>
      <trkpt lat="43.58535" lon="3.73611">
        <ele>113</ele>
        <time>2021-03-16T13:50:59+01:00</time>
      </trkpt>
      <trkpt lat="43.58537" lon="3.73605">
        <ele>113</ele>
        <time>2021-03-16T13:51:00+01:00</time>
      </trkpt>
      <trkpt lat="43.5855" lon="3.73545">
        <ele>112</ele>
        <time>2021-03-16T13:51:12+01:00</time>
      </trkpt>
      <trkpt lat="43.58567" lon="3.73479">
        <ele>111</ele>
        <time>2021-03-16T13:51:26+01:00</time>
      </trkpt>
      <trkpt lat="43.58571" lon="3.73468">
        <ele>110</ele>
        <time>2021-03-16T13:51:29+01:00</time>
      </trkpt>
      <trkpt lat="43.58572" lon="3.73467">
        <ele>110</ele>
        <time>2021-03-16T13:51:30+01:00</time>
      </trkpt>
      <trkpt lat="43.58573" lon="3.73465">
        <ele>110</ele>
        <time>2021-03-16T13:51:31+01:00</time>
      </trkpt>
      <trkpt lat="43.58573" lon="3.73463">
        <ele>110</ele>
        <time>2021-03-16T13:51:37+01:00</time>
      </trkpt>
      <trkpt lat="43.58572" lon="3.73455">
        <ele>110</ele>
        <time>2021-03-16T13:52:01+01:00</time>
      </trkpt>
      <trkpt lat="43.58573" lon="3.73451">
        <ele>110</ele>
        <time>2021-03-16T13:52:02+01:00</time>
      </trkpt>
      <trkpt lat="43.58574" lon="3.73446">
        <ele>109</ele>
        <time>2021-03-16T13:52:03+01:00</time>
      </trkpt>
      <trkpt lat="43.58595" lon="3.73378">
        <ele>107</ele>
        <time>2021-03-16T13:52:16+01:00</time>
      </trkpt>
      <trkpt lat="43.58605" lon="3.73353">
        <ele>107</ele>
        <time>2021-03-16T13:52:21+01:00</time>
      </trkpt>
      <trkpt lat="43.58606" lon="3.73347">
        <ele>106</ele>
        <time>2021-03-16T13:52:22+01:00</time>
      </trkpt>
      <trkpt lat="43.58617" lon="3.73288">
        <ele>105</ele>
        <time>2021-03-16T13:52:31+01:00</time>
      </trkpt>
      <trkpt lat="43.5862" lon="3.73283">
        <ele>105</ele>
        <time>2021-03-16T13:52:32+01:00</time>
      </trkpt>
      <trkpt lat="43.58623" lon="3.73278">
        <ele>104</ele>
        <time>2021-03-16T13:52:33+01:00</time>
      </trkpt>
      <trkpt lat="43.58626" lon="3.73273">
        <ele>104</ele>
        <time>2021-03-16T13:52:34+01:00</time>
      </trkpt>
      <trkpt lat="43.5863" lon="3.73269">
        <ele>104</ele>
        <time>2021-03-16T13:52:35+01:00</time>
      </trkpt>
      <trkpt lat="43.58632" lon="3.73264">
        <ele>104</ele>
        <time>2021-03-16T13:52:36+01:00</time>
      </trkpt>
      <trkpt lat="43.58635" lon="3.7326">
        <ele>104</ele>
        <time>2021-03-16T13:52:37+01:00</time>
      </trkpt>
      <trkpt lat="43.58642" lon="3.73248">
        <ele>103</ele>
        <time>2021-03-16T13:52:45+01:00</time>
      </trkpt>
      <trkpt lat="43.58648" lon="3.73243">
        <ele>103</ele>
        <time>2021-03-16T13:52:55+01:00</time>
      </trkpt>
      <trkpt lat="43.58652" lon="3.7324">
        <ele>103</ele>
        <time>2021-03-16T13:52:56+01:00</time>
      </trkpt>
      <trkpt lat="43.58655" lon="3.73236">
        <ele>103</ele>
        <time>2021-03-16T13:52:57+01:00</time>
      </trkpt>
      <trkpt lat="43.58659" lon="3.73231">
        <ele>103</ele>
        <time>2021-03-16T13:52:58+01:00</time>
      </trkpt>
      <trkpt lat="43.58662" lon="3.73225">
        <ele>103</ele>
        <time>2021-03-16T13:52:59+01:00</time>
      </trkpt>
      <trkpt lat="43.58665" lon="3.73219">
        <ele>103</ele>
        <time>2021-03-16T13:53:00+01:00</time>
      </trkpt>
      <trkpt lat="43.58718" lon="3.73125">
        <ele>104</ele>
        <time>2021-03-16T13:53:16+01:00</time>
      </trkpt>
      <trkpt lat="43.5875" lon="3.73054">
        <ele>107</ele>
        <time>2021-03-16T13:53:32+01:00</time>
      </trkpt>
      <trkpt lat="43.58783" lon="3.72986">
        <ele>109</ele>
        <time>2021-03-16T13:53:50+01:00</time>
      </trkpt>
      <trkpt lat="43.58802" lon="3.72936">
        <ele>108</ele>
        <time>2021-03-16T13:54:04+01:00</time>
      </trkpt>
      <trkpt lat="43.58815" lon="3.72867">
        <ele>106</ele>
        <time>2021-03-16T13:54:20+01:00</time>
      </trkpt>
      <trkpt lat="43.58845" lon="3.72775">
        <ele>104</ele>
        <time>2021-03-16T13:54:33+01:00</time>
      </trkpt>
      <trkpt lat="43.58862" lon="3.72729">
        <ele>105</ele>
        <time>2021-03-16T13:54:39+01:00</time>
      </trkpt>
      <trkpt lat="43.58863" lon="3.72723">
        <ele>105</ele>
        <time>2021-03-16T13:54:40+01:00</time>
      </trkpt>
      <trkpt lat="43.58864" lon="3.72716">
        <ele>105</ele>
        <time>2021-03-16T13:54:41+01:00</time>
      </trkpt>
      <trkpt lat="43.5887" lon="3.72657">
        <ele>107</ele>
        <time>2021-03-16T13:54:52+01:00</time>
      </trkpt>
      <trkpt lat="43.58862" lon="3.72574">
        <ele>108</ele>
        <time>2021-03-16T13:55:08+01:00</time>
      </trkpt>
      <trkpt lat="43.58864" lon="3.72493">
        <ele>109</ele>
        <time>2021-03-16T13:55:22+01:00</time>
      </trkpt>
      <trkpt lat="43.58848" lon="3.72403">
        <ele>110</ele>
        <time>2021-03-16T13:55:42+01:00</time>
      </trkpt>
      <trkpt lat="43.58834" lon="3.72392">
        <ele>110</ele>
        <time>2021-03-16T13:55:46+01:00</time>
      </trkpt>
      <trkpt lat="43.58778" lon="3.72364">
        <ele>113</ele>
        <time>2021-03-16T13:55:59+01:00</time>
      </trkpt>
      <trkpt lat="43.58774" lon="3.7236">
        <ele>113</ele>
        <time>2021-03-16T13:56:00+01:00</time>
      </trkpt>
      <trkpt lat="43.58718" lon="3.72323">
        <ele>115</ele>
        <time>2021-03-16T13:56:16+01:00</time>
      </trkpt>
      <trkpt lat="43.58681" lon="3.72306">
        <ele>117</ele>
        <time>2021-03-16T13:56:29+01:00</time>
      </trkpt>
      <trkpt lat="43.58671" lon="3.72298">
        <ele>118</ele>
        <time>2021-03-16T13:56:34+01:00</time>
      </trkpt>
      <trkpt lat="43.58671" lon="3.72296">
        <ele>118</ele>
        <time>2021-03-16T13:56:35+01:00</time>
      </trkpt>
      <trkpt lat="43.58671" lon="3.72293">
        <ele>118</ele>
        <time>2021-03-16T13:56:41+01:00</time>
      </trkpt>
      <trkpt lat="43.58676" lon="3.72285">
        <ele>118</ele>
        <time>2021-03-16T13:56:46+01:00</time>
      </trkpt>
      <trkpt lat="43.58676" lon="3.72282">
        <ele>118</ele>
        <time>2021-03-16T13:56:47+01:00</time>
      </trkpt>
      <trkpt lat="43.5868" lon="3.72279">
        <ele>118</ele>
        <time>2021-03-16T13:56:49+01:00</time>
      </trkpt>
      <trkpt lat="43.58684" lon="3.72264">
        <ele>117</ele>
        <time>2021-03-16T13:56:53+01:00</time>
      </trkpt>
      <trkpt lat="43.58674" lon="3.72221">
        <ele>118</ele>
        <time>2021-03-16T13:57:03+01:00</time>
      </trkpt>
      <trkpt lat="43.58675" lon="3.72183">
        <ele>117</ele>
        <time>2021-03-16T13:57:12+01:00</time>
      </trkpt>
      <trkpt lat="43.58667" lon="3.72119">
        <ele>117</ele>
        <time>2021-03-16T13:57:27+01:00</time>
      </trkpt>
      <trkpt lat="43.58659" lon="3.72069">
        <ele>117</ele>
        <time>2021-03-16T13:57:39+01:00</time>
      </trkpt>
      <trkpt lat="43.58658" lon="3.72004">
        <ele>116</ele>
        <time>2021-03-16T13:57:52+01:00</time>
      </trkpt>
      <trkpt lat="43.58658" lon="3.71987">
        <ele>116</ele>
        <time>2021-03-16T13:57:55+01:00</time>
      </trkpt>
      <trkpt lat="43.58657" lon="3.71982">
        <ele>116</ele>
        <time>2021-03-16T13:57:56+01:00</time>
      </trkpt>
      <trkpt lat="43.58656" lon="3.71976">
        <ele>116</ele>
        <time>2021-03-16T13:57:57+01:00</time>
      </trkpt>
      <trkpt lat="43.58655" lon="3.71971">
        <ele>116</ele>
        <time>2021-03-16T13:57:58+01:00</time>
      </trkpt>
      <trkpt lat="43.58655" lon="3.71965">
        <ele>116</ele>
        <time>2021-03-16T13:57:59+01:00</time>
      </trkpt>
      <trkpt lat="43.58646" lon="3.71891">
        <ele>115</ele>
        <time>2021-03-16T13:58:14+01:00</time>
      </trkpt>
      <trkpt lat="43.58643" lon="3.71874">
        <ele>115</ele>
        <time>2021-03-16T13:58:19+01:00</time>
      </trkpt>
      <trkpt lat="43.58645" lon="3.7187">
        <ele>115</ele>
        <time>2021-03-16T13:58:20+01:00</time>
      </trkpt>
      <trkpt lat="43.58648" lon="3.71868">
        <ele>115</ele>
        <time>2021-03-16T13:58:21+01:00</time>
      </trkpt>
      <trkpt lat="43.58651" lon="3.71868">
        <ele>115</ele>
        <time>2021-03-16T13:58:22+01:00</time>
      </trkpt>
      <trkpt lat="43.58654" lon="3.71869">
        <ele>116</ele>
        <time>2021-03-16T13:58:23+01:00</time>
      </trkpt>
      <trkpt lat="43.58657" lon="3.7187">
        <ele>116</ele>
        <time>2021-03-16T13:58:24+01:00</time>
      </trkpt>
      <trkpt lat="43.58661" lon="3.7187">
        <ele>116</ele>
        <time>2021-03-16T13:58:25+01:00</time>
      </trkpt>
      <trkpt lat="43.58724" lon="3.71896">
        <ele>117</ele>
        <time>2021-03-16T13:58:44+01:00</time>
      </trkpt>
      <trkpt lat="43.58776" lon="3.71941">
        <ele>117</ele>
        <time>2021-03-16T13:59:02+01:00</time>
      </trkpt>
      <trkpt lat="43.58835" lon="3.71993">
        <ele>118</ele>
        <time>2021-03-16T13:59:21+01:00</time>
      </trkpt>
      <trkpt lat="43.58874" lon="3.71969">
        <ele>120</ele>
        <time>2021-03-16T13:59:33+01:00</time>
      </trkpt>
      <trkpt lat="43.58926" lon="3.71933">
        <ele>121</ele>
        <time>2021-03-16T13:59:49+01:00</time>
      </trkpt>
      <trkpt lat="43.58996" lon="3.7188">
        <ele>123</ele>
        <time>2021-03-16T14:00:13+01:00</time>
      </trkpt>
      <trkpt lat="43.59041" lon="3.71828">
        <ele>125</ele>
        <time>2021-03-16T14:00:32+01:00</time>
      </trkpt>
      <trkpt lat="43.59069" lon="3.71759">
        <ele>128</ele>
        <time>2021-03-16T14:00:52+01:00</time>
      </trkpt>
      <trkpt lat="43.59079" lon="3.71687">
        <ele>132</ele>
        <time>2021-03-16T14:01:12+01:00</time>
      </trkpt>
      <trkpt lat="43.59105" lon="3.7169">
        <ele>134</ele>
        <time>2021-03-16T14:01:22+01:00</time>
      </trkpt>
      <trkpt lat="43.59152" lon="3.71693">
        <ele>137</ele>
        <time>2021-03-16T14:01:40+01:00</time>
      </trkpt>
      <trkpt lat="43.59192" lon="3.71703">
        <ele>139</ele>
        <time>2021-03-16T14:01:58+01:00</time>
      </trkpt>
      <trkpt lat="43.59233" lon="3.71713">
        <ele>142</ele>
        <time>2021-03-16T14:02:17+01:00</time>
      </trkpt>
      <trkpt lat="43.59276" lon="3.71734">
        <ele>146</ele>
        <time>2021-03-16T14:02:35+01:00</time>
      </trkpt>
      <trkpt lat="43.59303" lon="3.71736">
        <ele>149</ele>
        <time>2021-03-16T14:02:48+01:00</time>
      </trkpt>
      <trkpt lat="43.59336" lon="3.71734">
        <ele>151</ele>
        <time>2021-03-16T14:03:01+01:00</time>
      </trkpt>
      <trkpt lat="43.59372" lon="3.7173">
        <ele>152</ele>
        <time>2021-03-16T14:03:19+01:00</time>
      </trkpt>
      <trkpt lat="43.59377" lon="3.71765">
        <ele>150</ele>
        <time>2021-03-16T14:03:29+01:00</time>
      </trkpt>
      <trkpt lat="43.59378" lon="3.71767">
        <ele>150</ele>
        <time>2021-03-16T14:03:35+01:00</time>
      </trkpt>
      <trkpt lat="43.59381" lon="3.71765">
        <ele>150</ele>
        <time>2021-03-16T14:05:12+01:00</time>
      </trkpt>
      <trkpt lat="43.59381" lon="3.71768">
        <ele>150</ele>
        <time>2021-03-16T14:05:13+01:00</time>
      </trkpt>
      <trkpt lat="43.59382" lon="3.71772">
        <ele>150</ele>
        <time>2021-03-16T14:05:14+01:00</time>
      </trkpt>
      <trkpt lat="43.59382" lon="3.71777">
        <ele>150</ele>
        <time>2021-03-16T14:05:15+01:00</time>
      </trkpt>
      <trkpt lat="43.59382" lon="3.71859">
        <ele>149</ele>
        <time>2021-03-16T14:05:30+01:00</time>
      </trkpt>
      <trkpt lat="43.59378" lon="3.71923">
        <ele>147</ele>
        <time>2021-03-16T14:05:41+01:00</time>
      </trkpt>
      <trkpt lat="43.59379" lon="3.7193">
        <ele>146</ele>
        <time>2021-03-16T14:05:42+01:00</time>
      </trkpt>
      <trkpt lat="43.5938" lon="3.71937">
        <ele>146</ele>
        <time>2021-03-16T14:05:43+01:00</time>
      </trkpt>
      <trkpt lat="43.59415" lon="3.72026">
        <ele>146</ele>
        <time>2021-03-16T14:05:57+01:00</time>
      </trkpt>
      <trkpt lat="43.59435" lon="3.72076">
        <ele>145</ele>
        <time>2021-03-16T14:06:05+01:00</time>
      </trkpt>
      <trkpt lat="43.59436" lon="3.72082">
        <ele>145</ele>
        <time>2021-03-16T14:06:06+01:00</time>
      </trkpt>
      <trkpt lat="43.59436" lon="3.72089">
        <ele>144</ele>
        <time>2021-03-16T14:06:07+01:00</time>
      </trkpt>
      <trkpt lat="43.59436" lon="3.72095">
        <ele>144</ele>
        <time>2021-03-16T14:06:08+01:00</time>
      </trkpt>
      <trkpt lat="43.59435" lon="3.72101">
        <ele>144</ele>
        <time>2021-03-16T14:06:09+01:00</time>
      </trkpt>
      <trkpt lat="43.59434" lon="3.72106">
        <ele>144</ele>
        <time>2021-03-16T14:06:10+01:00</time>
      </trkpt>
      <trkpt lat="43.59432" lon="3.72113">
        <ele>144</ele>
        <time>2021-03-16T14:06:11+01:00</time>
      </trkpt>
      <trkpt lat="43.5941" lon="3.72174">
        <ele>144</ele>
        <time>2021-03-16T14:06:22+01:00</time>
      </trkpt>
      <trkpt lat="43.5941" lon="3.72181">
        <ele>144</ele>
        <time>2021-03-16T14:06:23+01:00</time>
      </trkpt>
      <trkpt lat="43.59409" lon="3.72201">
        <ele>144</ele>
        <time>2021-03-16T14:06:26+01:00</time>
      </trkpt>
      <trkpt lat="43.59421" lon="3.72305">
        <ele>142</ele>
        <time>2021-03-16T14:06:41+01:00</time>
      </trkpt>
      <trkpt lat="43.59446" lon="3.72435">
        <ele>144</ele>
        <time>2021-03-16T14:07:04+01:00</time>
      </trkpt>
      <trkpt lat="43.59477" lon="3.72522">
        <ele>144</ele>
        <time>2021-03-16T14:07:22+01:00</time>
      </trkpt>
      <trkpt lat="43.59524" lon="3.72609">
        <ele>144</ele>
        <time>2021-03-16T14:07:42+01:00</time>
      </trkpt>
      <trkpt lat="43.59588" lon="3.72663">
        <ele>144</ele>
        <time>2021-03-16T14:08:02+01:00</time>
      </trkpt>
      <trkpt lat="43.59658" lon="3.72671">
        <ele>139</ele>
        <time>2021-03-16T14:08:21+01:00</time>
      </trkpt>
      <trkpt lat="43.59692" lon="3.72665">
        <ele>139</ele>
        <time>2021-03-16T14:08:30+01:00</time>
      </trkpt>
      <trkpt lat="43.59766" lon="3.7262">
        <ele>139</ele>
        <time>2021-03-16T14:08:45+01:00</time>
      </trkpt>
      <trkpt lat="43.59848" lon="3.72594">
        <ele>136</ele>
        <time>2021-03-16T14:09:02+01:00</time>
      </trkpt>
      <trkpt lat="43.59862" lon="3.72585">
        <ele>137</ele>
        <time>2021-03-16T14:09:09+01:00</time>
      </trkpt>
      <trkpt lat="43.59862" lon="3.72582">
        <ele>137</ele>
        <time>2021-03-16T14:09:10+01:00</time>
      </trkpt>
      <trkpt lat="43.59862" lon="3.7258">
        <ele>137</ele>
        <time>2021-03-16T14:09:11+01:00</time>
      </trkpt>
      <trkpt lat="43.59861" lon="3.72577">
        <ele>137</ele>
        <time>2021-03-16T14:09:12+01:00</time>
      </trkpt>
      <trkpt lat="43.5986" lon="3.72574">
        <ele>137</ele>
        <time>2021-03-16T14:09:13+01:00</time>
      </trkpt>
      <trkpt lat="43.59858" lon="3.72571">
        <ele>137</ele>
        <time>2021-03-16T14:09:14+01:00</time>
      </trkpt>
      <trkpt lat="43.59833" lon="3.72526">
        <ele>140</ele>
        <time>2021-03-16T14:09:29+01:00</time>
      </trkpt>
      <trkpt lat="43.59793" lon="3.72467">
        <ele>144</ele>
        <time>2021-03-16T14:09:49+01:00</time>
      </trkpt>
      <trkpt lat="43.59758" lon="3.72427">
        <ele>146</ele>
        <time>2021-03-16T14:10:07+01:00</time>
      </trkpt>
      <trkpt lat="43.59742" lon="3.72384">
        <ele>149</ele>
        <time>2021-03-16T14:10:20+01:00</time>
      </trkpt>
      <trkpt lat="43.5973" lon="3.72311">
        <ele>152</ele>
        <time>2021-03-16T14:10:42+01:00</time>
      </trkpt>
      <trkpt lat="43.59723" lon="3.72218">
        <ele>153</ele>
        <time>2021-03-16T14:11:10+01:00</time>
      </trkpt>
      <trkpt lat="43.59717" lon="3.72154">
        <ele>156</ele>
        <time>2021-03-16T14:11:30+01:00</time>
      </trkpt>
      <trkpt lat="43.59718" lon="3.72108">
        <ele>160</ele>
        <time>2021-03-16T14:11:45+01:00</time>
      </trkpt>
      <trkpt lat="43.59723" lon="3.72083">
        <ele>162</ele>
        <time>2021-03-16T14:11:54+01:00</time>
      </trkpt>
      <trkpt lat="43.59716" lon="3.72036">
        <ele>165</ele>
        <time>2021-03-16T14:12:11+01:00</time>
      </trkpt>
      <trkpt lat="43.59719" lon="3.72005">
        <ele>168</ele>
        <time>2021-03-16T14:12:24+01:00</time>
      </trkpt>
      <trkpt lat="43.59724" lon="3.71975">
        <ele>172</ele>
        <time>2021-03-16T14:12:38+01:00</time>
      </trkpt>
      <trkpt lat="43.59727" lon="3.71948">
        <ele>174</ele>
        <time>2021-03-16T14:12:50+01:00</time>
      </trkpt>
      <trkpt lat="43.59726" lon="3.71915">
        <ele>177</ele>
        <time>2021-03-16T14:13:06+01:00</time>
      </trkpt>
      <trkpt lat="43.59736" lon="3.7187">
        <ele>179</ele>
        <time>2021-03-16T14:13:27+01:00</time>
      </trkpt>
      <trkpt lat="43.59736" lon="3.7187">
        <ele>179</ele>
        <time>2021-03-16T14:13:29+01:00</time>
      </trkpt>
      <trkpt lat="43.59741" lon="3.71864">
        <ele>180</ele>
        <time>2021-03-16T14:14:25+01:00</time>
      </trkpt>
      <trkpt lat="43.5976" lon="3.71817">
        <ele>183</ele>
        <time>2021-03-16T14:14:40+01:00</time>
      </trkpt>
      <trkpt lat="43.59782" lon="3.7177">
        <ele>188</ele>
        <time>2021-03-16T14:14:58+01:00</time>
      </trkpt>
      <trkpt lat="43.59794" lon="3.71758">
        <ele>188</ele>
        <time>2021-03-16T14:15:07+01:00</time>
      </trkpt>
      <trkpt lat="43.59796" lon="3.71756">
        <ele>188</ele>
        <time>2021-03-16T14:15:13+01:00</time>
      </trkpt>
      <trkpt lat="43.59804" lon="3.71755">
        <ele>188</ele>
        <time>2021-03-16T14:16:30+01:00</time>
      </trkpt>
      <trkpt lat="43.59841" lon="3.7176">
        <ele>191</ele>
        <time>2021-03-16T14:16:43+01:00</time>
      </trkpt>
      <trkpt lat="43.59843" lon="3.71758">
        <ele>192</ele>
        <time>2021-03-16T14:16:44+01:00</time>
      </trkpt>
      <trkpt lat="43.59844" lon="3.71755">
        <ele>192</ele>
        <time>2021-03-16T14:16:45+01:00</time>
      </trkpt>
      <trkpt lat="43.5985" lon="3.71749">
        <ele>193</ele>
        <time>2021-03-16T14:16:48+01:00</time>
      </trkpt>
      <trkpt lat="43.59853" lon="3.71749">
        <ele>194</ele>
        <time>2021-03-16T14:16:49+01:00</time>
      </trkpt>
      <trkpt lat="43.59856" lon="3.71748">
        <ele>194</ele>
        <time>2021-03-16T14:16:50+01:00</time>
      </trkpt>
      <trkpt lat="43.59878" lon="3.71744">
        <ele>197</ele>
        <time>2021-03-16T14:16:58+01:00</time>
      </trkpt>
      <trkpt lat="43.5989" lon="3.71751">
        <ele>198</ele>
        <time>2021-03-16T14:17:03+01:00</time>
      </trkpt>
      <trkpt lat="43.59905" lon="3.71754">
        <ele>201</ele>
        <time>2021-03-16T14:17:10+01:00</time>
      </trkpt>
      <trkpt lat="43.59922" lon="3.71745">
        <ele>202</ele>
        <time>2021-03-16T14:17:18+01:00</time>
      </trkpt>
      <trkpt lat="43.59942" lon="3.71748">
        <ele>204</ele>
        <time>2021-03-16T14:17:28+01:00</time>
      </trkpt>
      <trkpt lat="43.59947" lon="3.71749">
        <ele>204</ele>
        <time>2021-03-16T14:17:31+01:00</time>
      </trkpt>
      <trkpt lat="43.59947" lon="3.7175">
        <ele>204</ele>
        <time>2021-03-16T14:17:36+01:00</time>
      </trkpt>
      <trkpt lat="43.5995" lon="3.71755">
        <ele>204</ele>
        <time>2021-03-16T14:18:43+01:00</time>
      </trkpt>
      <trkpt lat="43.59983" lon="3.71793">
        <ele>203</ele>
        <time>2021-03-16T14:19:03+01:00</time>
      </trkpt>
      <trkpt lat="43.60014" lon="3.71822">
        <ele>207</ele>
        <time>2021-03-16T14:19:18+01:00</time>
      </trkpt>
      <trkpt lat="43.60055" lon="3.71842">
        <ele>213</ele>
        <time>2021-03-16T14:19:36+01:00</time>
      </trkpt>
      <trkpt lat="43.60083" lon="3.71857">
        <ele>217</ele>
        <time>2021-03-16T14:19:50+01:00</time>
      </trkpt>
      <trkpt lat="43.6011" lon="3.71883">
        <ele>216</ele>
        <time>2021-03-16T14:20:05+01:00</time>
      </trkpt>
      <trkpt lat="43.60134" lon="3.71941">
        <ele>214</ele>
        <time>2021-03-16T14:20:24+01:00</time>
      </trkpt>
      <trkpt lat="43.60154" lon="3.71999">
        <ele>223</ele>
        <time>2021-03-16T14:20:42+01:00</time>
      </trkpt>
      <trkpt lat="43.60182" lon="3.72029">
        <ele>227</ele>
        <time>2021-03-16T14:20:56+01:00</time>
      </trkpt>
      <trkpt lat="43.60207" lon="3.72016">
        <ele>229</ele>
        <time>2021-03-16T14:21:08+01:00</time>
      </trkpt>
      <trkpt lat="43.60242" lon="3.71998">
        <ele>232</ele>
        <time>2021-03-16T14:21:24+01:00</time>
      </trkpt>
      <trkpt lat="43.60259" lon="3.72025">
        <ele>233</ele>
        <time>2021-03-16T14:21:38+01:00</time>
      </trkpt>
      <trkpt lat="43.60268" lon="3.7203">
        <ele>232</ele>
        <time>2021-03-16T14:21:49+01:00</time>
      </trkpt>
      <trkpt lat="43.60272" lon="3.72025">
        <ele>231</ele>
        <time>2021-03-16T14:23:16+01:00</time>
      </trkpt>
      <trkpt lat="43.60273" lon="3.72023">
        <ele>231</ele>
        <time>2021-03-16T14:23:17+01:00</time>
      </trkpt>
      <trkpt lat="43.60273" lon="3.7202">
        <ele>231</ele>
        <time>2021-03-16T14:23:18+01:00</time>
      </trkpt>
      <trkpt lat="43.60274" lon="3.72018">
        <ele>231</ele>
        <time>2021-03-16T14:23:19+01:00</time>
      </trkpt>
      <trkpt lat="43.60275" lon="3.72015">
        <ele>230</ele>
        <time>2021-03-16T14:23:20+01:00</time>
      </trkpt>
      <trkpt lat="43.60297" lon="3.71975">
        <ele>227</ele>
        <time>2021-03-16T14:23:33+01:00</time>
      </trkpt>
      <trkpt lat="43.60319" lon="3.71942">
        <ele>225</ele>
        <time>2021-03-16T14:23:47+01:00</time>
      </trkpt>
      <trkpt lat="43.60363" lon="3.71873">
        <ele>221</ele>
        <time>2021-03-16T14:24:03+01:00</time>
      </trkpt>
      <trkpt lat="43.60407" lon="3.71805">
        <ele>219</ele>
        <time>2021-03-16T14:24:15+01:00</time>
      </trkpt>
      <trkpt lat="43.60435" lon="3.71775">
        <ele>220</ele>
        <time>2021-03-16T14:24:23+01:00</time>
      </trkpt>
      <trkpt lat="43.60439" lon="3.71773">
        <ele>220</ele>
        <time>2021-03-16T14:24:24+01:00</time>
      </trkpt>
      <trkpt lat="43.60444" lon="3.71772">
        <ele>219</ele>
        <time>2021-03-16T14:24:25+01:00</time>
      </trkpt>
      <trkpt lat="43.6045" lon="3.71772">
        <ele>219</ele>
        <time>2021-03-16T14:24:26+01:00</time>
      </trkpt>
      <trkpt lat="43.60455" lon="3.71771">
        <ele>218</ele>
        <time>2021-03-16T14:24:27+01:00</time>
      </trkpt>
      <trkpt lat="43.60461" lon="3.7177">
        <ele>217</ele>
        <time>2021-03-16T14:24:28+01:00</time>
      </trkpt>
      <trkpt lat="43.60467" lon="3.71768">
        <ele>217</ele>
        <time>2021-03-16T14:24:29+01:00</time>
      </trkpt>
      <trkpt lat="43.60517" lon="3.71753">
        <ele>212</ele>
        <time>2021-03-16T14:24:37+01:00</time>
      </trkpt>
      <trkpt lat="43.60521" lon="3.71754">
        <ele>211</ele>
        <time>2021-03-16T14:24:38+01:00</time>
      </trkpt>
      <trkpt lat="43.60525" lon="3.71755">
        <ele>211</ele>
        <time>2021-03-16T14:24:39+01:00</time>
      </trkpt>
      <trkpt lat="43.60539" lon="3.71763">
        <ele>209</ele>
        <time>2021-03-16T14:24:42+01:00</time>
      </trkpt>
      <trkpt lat="43.60544" lon="3.71767">
        <ele>208</ele>
        <time>2021-03-16T14:24:43+01:00</time>
      </trkpt>
      <trkpt lat="43.60562" lon="3.7178">
        <ele>206</ele>
        <time>2021-03-16T14:24:46+01:00</time>
      </trkpt>
      <trkpt lat="43.60603" lon="3.71806">
        <ele>204</ele>
        <time>2021-03-16T14:24:52+01:00</time>
      </trkpt>
      <trkpt lat="43.60629" lon="3.7182">
        <ele>203</ele>
        <time>2021-03-16T14:24:56+01:00</time>
      </trkpt>
      <trkpt lat="43.60639" lon="3.71824">
        <ele>203</ele>
        <time>2021-03-16T14:24:58+01:00</time>
      </trkpt>
      <trkpt lat="43.60656" lon="3.71827">
        <ele>201</ele>
        <time>2021-03-16T14:25:07+01:00</time>
      </trkpt>
      <trkpt lat="43.60656" lon="3.71827">
        <ele>201</ele>
        <time>2021-03-16T14:25:11+01:00</time>
      </trkpt>
      <trkpt lat="43.60656" lon="3.71817">
        <ele>200</ele>
        <time>2021-03-16T14:25:26+01:00</time>
      </trkpt>
      <trkpt lat="43.60655" lon="3.71815">
        <ele>199</ele>
        <time>2021-03-16T14:25:27+01:00</time>
      </trkpt>
      <trkpt lat="43.60653" lon="3.71812">
        <ele>199</ele>
        <time>2021-03-16T14:25:28+01:00</time>
      </trkpt>
      <trkpt lat="43.60652" lon="3.71809">
        <ele>199</ele>
        <time>2021-03-16T14:25:29+01:00</time>
      </trkpt>
      <trkpt lat="43.60651" lon="3.71806">
        <ele>198</ele>
        <time>2021-03-16T14:25:30+01:00</time>
      </trkpt>
      <trkpt lat="43.60636" lon="3.7177">
        <ele>193</ele>
        <time>2021-03-16T14:25:38+01:00</time>
      </trkpt>
      <trkpt lat="43.60626" lon="3.7175">
        <ele>189</ele>
        <time>2021-03-16T14:25:42+01:00</time>
      </trkpt>
      <trkpt lat="43.60621" lon="3.7174">
        <ele>189</ele>
        <time>2021-03-16T14:25:44+01:00</time>
      </trkpt>
      <trkpt lat="43.6061" lon="3.71721">
        <ele>190</ele>
        <time>2021-03-16T14:25:48+01:00</time>
      </trkpt>
      <trkpt lat="43.6061" lon="3.71715">
        <ele>192</ele>
        <time>2021-03-16T14:25:49+01:00</time>
      </trkpt>
      <trkpt lat="43.60611" lon="3.71708">
        <ele>193</ele>
        <time>2021-03-16T14:25:50+01:00</time>
      </trkpt>
      <trkpt lat="43.60613" lon="3.71703">
        <ele>193</ele>
        <time>2021-03-16T14:25:51+01:00</time>
      </trkpt>
      <trkpt lat="43.60615" lon="3.71698">
        <ele>194</ele>
        <time>2021-03-16T14:25:52+01:00</time>
      </trkpt>
      <trkpt lat="43.60618" lon="3.71694">
        <ele>194</ele>
        <time>2021-03-16T14:25:53+01:00</time>
      </trkpt>
      <trkpt lat="43.60621" lon="3.7169">
        <ele>195</ele>
        <time>2021-03-16T14:25:54+01:00</time>
      </trkpt>
      <trkpt lat="43.60624" lon="3.71687">
        <ele>195</ele>
        <time>2021-03-16T14:25:55+01:00</time>
      </trkpt>
      <trkpt lat="43.60628" lon="3.71683">
        <ele>195</ele>
        <time>2021-03-16T14:25:56+01:00</time>
      </trkpt>
      <trkpt lat="43.60632" lon="3.7168">
        <ele>195</ele>
        <time>2021-03-16T14:25:57+01:00</time>
      </trkpt>
      <trkpt lat="43.60636" lon="3.71678">
        <ele>195</ele>
        <time>2021-03-16T14:25:58+01:00</time>
      </trkpt>
      <trkpt lat="43.60641" lon="3.71676">
        <ele>195</ele>
        <time>2021-03-16T14:25:59+01:00</time>
      </trkpt>
      <trkpt lat="43.60687" lon="3.71658">
        <ele>189</ele>
        <time>2021-03-16T14:26:08+01:00</time>
      </trkpt>
      <trkpt lat="43.6069" lon="3.71654">
        <ele>188</ele>
        <time>2021-03-16T14:26:09+01:00</time>
      </trkpt>
      <trkpt lat="43.60694" lon="3.7165">
        <ele>187</ele>
        <time>2021-03-16T14:26:10+01:00</time>
      </trkpt>
      <trkpt lat="43.60706" lon="3.71635">
        <ele>182</ele>
        <time>2021-03-16T14:26:13+01:00</time>
      </trkpt>
      <trkpt lat="43.60709" lon="3.71628">
        <ele>181</ele>
        <time>2021-03-16T14:26:14+01:00</time>
      </trkpt>
      <trkpt lat="43.60711" lon="3.71621">
        <ele>180</ele>
        <time>2021-03-16T14:26:15+01:00</time>
      </trkpt>
      <trkpt lat="43.60712" lon="3.71613">
        <ele>180</ele>
        <time>2021-03-16T14:26:16+01:00</time>
      </trkpt>
      <trkpt lat="43.60713" lon="3.71606">
        <ele>180</ele>
        <time>2021-03-16T14:26:17+01:00</time>
      </trkpt>
      <trkpt lat="43.60713" lon="3.71598">
        <ele>179</ele>
        <time>2021-03-16T14:26:18+01:00</time>
      </trkpt>
      <trkpt lat="43.60714" lon="3.71567">
        <ele>179</ele>
        <time>2021-03-16T14:26:22+01:00</time>
      </trkpt>
      <trkpt lat="43.60713" lon="3.71561">
        <ele>179</ele>
        <time>2021-03-16T14:26:23+01:00</time>
      </trkpt>
      <trkpt lat="43.60706" lon="3.71521">
        <ele>177</ele>
        <time>2021-03-16T14:26:31+01:00</time>
      </trkpt>
      <trkpt lat="43.60699" lon="3.71499">
        <ele>174</ele>
        <time>2021-03-16T14:26:39+01:00</time>
      </trkpt>
      <trkpt lat="43.60693" lon="3.71476">
        <ele>172</ele>
        <time>2021-03-16T14:26:45+01:00</time>
      </trkpt>
      <trkpt lat="43.60685" lon="3.71438">
        <ele>170</ele>
        <time>2021-03-16T14:26:52+01:00</time>
      </trkpt>
      <trkpt lat="43.60683" lon="3.71429">
        <ele>170</ele>
        <time>2021-03-16T14:26:54+01:00</time>
      </trkpt>
      <trkpt lat="43.60682" lon="3.71413">
        <ele>170</ele>
        <time>2021-03-16T14:27:05+01:00</time>
      </trkpt>
      <trkpt lat="43.6069" lon="3.71415">
        <ele>170</ele>
        <time>2021-03-16T14:27:51+01:00</time>
      </trkpt>
      <trkpt lat="43.60698" lon="3.71433">
        <ele>168</ele>
        <time>2021-03-16T14:27:55+01:00</time>
      </trkpt>
      <trkpt lat="43.60731" lon="3.71465">
        <ele>164</ele>
        <time>2021-03-16T14:28:04+01:00</time>
      </trkpt>
      <trkpt lat="43.60753" lon="3.71468">
        <ele>163</ele>
        <time>2021-03-16T14:28:09+01:00</time>
      </trkpt>
      <trkpt lat="43.60775" lon="3.71485">
        <ele>161</ele>
        <time>2021-03-16T14:28:15+01:00</time>
      </trkpt>
      <trkpt lat="43.60781" lon="3.71497">
        <ele>161</ele>
        <time>2021-03-16T14:28:17+01:00</time>
      </trkpt>
      <trkpt lat="43.60783" lon="3.71522">
        <ele>161</ele>
        <time>2021-03-16T14:28:21+01:00</time>
      </trkpt>
      <trkpt lat="43.60767" lon="3.71573">
        <ele>164</ele>
        <time>2021-03-16T14:28:31+01:00</time>
      </trkpt>
      <trkpt lat="43.60779" lon="3.71571">
        <ele>163</ele>
        <time>2021-03-16T14:28:40+01:00</time>
      </trkpt>
      <trkpt lat="43.6078" lon="3.71566">
        <ele>162</ele>
        <time>2021-03-16T14:28:41+01:00</time>
      </trkpt>
      <trkpt lat="43.60794" lon="3.71507">
        <ele>161</ele>
        <time>2021-03-16T14:28:52+01:00</time>
      </trkpt>
      <trkpt lat="43.60788" lon="3.71459">
        <ele>160</ele>
        <time>2021-03-16T14:28:59+01:00</time>
      </trkpt>
      <trkpt lat="43.60799" lon="3.71337">
        <ele>158</ele>
        <time>2021-03-16T14:29:17+01:00</time>
      </trkpt>
      <trkpt lat="43.60799" lon="3.71232">
        <ele>156</ele>
        <time>2021-03-16T14:29:31+01:00</time>
      </trkpt>
      <trkpt lat="43.60789" lon="3.71129">
        <ele>154</ele>
        <time>2021-03-16T14:29:45+01:00</time>
      </trkpt>
      <trkpt lat="43.60774" lon="3.71055">
        <ele>150</ele>
        <time>2021-03-16T14:29:56+01:00</time>
      </trkpt>
      <trkpt lat="43.60771" lon="3.71049">
        <ele>150</ele>
        <time>2021-03-16T14:29:58+01:00</time>
      </trkpt>
      <trkpt lat="43.60763" lon="3.71041">
        <ele>150</ele>
        <time>2021-03-16T14:30:04+01:00</time>
      </trkpt>
      <trkpt lat="43.60767" lon="3.71036">
        <ele>150</ele>
        <time>2021-03-16T14:30:07+01:00</time>
      </trkpt>
      <trkpt lat="43.60768" lon="3.71037">
        <ele>150</ele>
        <time>2021-03-16T14:30:08+01:00</time>
      </trkpt>
      <trkpt lat="43.60768" lon="3.71039">
        <ele>150</ele>
        <time>2021-03-16T14:30:09+01:00</time>
      </trkpt>
      <trkpt lat="43.60769" lon="3.7104">
        <ele>150</ele>
        <time>2021-03-16T14:30:10+01:00</time>
      </trkpt>
      <trkpt lat="43.60772" lon="3.71039">
        <ele>150</ele>
        <time>2021-03-16T14:30:16+01:00</time>
      </trkpt>
      <trkpt lat="43.60778" lon="3.71037">
        <ele>150</ele>
        <time>2021-03-16T14:30:26+01:00</time>
      </trkpt>
      <trkpt lat="43.60778" lon="3.71033">
        <ele>150</ele>
        <time>2021-03-16T14:35:03+01:00</time>
      </trkpt>
      <trkpt lat="43.60779" lon="3.71031">
        <ele>150</ele>
        <time>2021-03-16T14:35:04+01:00</time>
      </trkpt>
      <trkpt lat="43.60781" lon="3.7103">
        <ele>150</ele>
        <time>2021-03-16T14:35:05+01:00</time>
      </trkpt>
      <trkpt lat="43.60823" lon="3.70999">
        <ele>150</ele>
        <time>2021-03-16T14:35:20+01:00</time>
      </trkpt>
      <trkpt lat="43.6087" lon="3.70976">
        <ele>151</ele>
        <time>2021-03-16T14:35:36+01:00</time>
      </trkpt>
      <trkpt lat="43.60915" lon="3.70956">
        <ele>155</ele>
        <time>2021-03-16T14:35:51+01:00</time>
      </trkpt>
      <trkpt lat="43.60969" lon="3.70936">
        <ele>156</ele>
        <time>2021-03-16T14:36:10+01:00</time>
      </trkpt>
      <trkpt lat="43.61028" lon="3.70933">
        <ele>158</ele>
        <time>2021-03-16T14:36:30+01:00</time>
      </trkpt>
      <trkpt lat="43.61101" lon="3.70953">
        <ele>161</ele>
        <time>2021-03-16T14:36:55+01:00</time>
      </trkpt>
      <trkpt lat="43.61156" lon="3.70966">
        <ele>167</ele>
        <time>2021-03-16T14:37:16+01:00</time>
      </trkpt>
      <trkpt lat="43.61217" lon="3.70964">
        <ele>173</ele>
        <time>2021-03-16T14:37:37+01:00</time>
      </trkpt>
      <trkpt lat="43.61257" lon="3.70969">
        <ele>174</ele>
        <time>2021-03-16T14:37:56+01:00</time>
      </trkpt>
      <trkpt lat="43.61298" lon="3.7095">
        <ele>176</ele>
        <time>2021-03-16T14:38:17+01:00</time>
      </trkpt>
      <trkpt lat="43.6132" lon="3.70899">
        <ele>179</ele>
        <time>2021-03-16T14:38:38+01:00</time>
      </trkpt>
      <trkpt lat="43.61329" lon="3.70873">
        <ele>181</ele>
        <time>2021-03-16T14:38:52+01:00</time>
      </trkpt>
      <trkpt lat="43.61333" lon="3.70875">
        <ele>180</ele>
        <time>2021-03-16T14:38:54+01:00</time>
      </trkpt>
      <trkpt lat="43.61335" lon="3.70877">
        <ele>181</ele>
        <time>2021-03-16T14:38:55+01:00</time>
      </trkpt>
      <trkpt lat="43.61337" lon="3.70879">
        <ele>181</ele>
        <time>2021-03-16T14:38:56+01:00</time>
      </trkpt>
      <trkpt lat="43.61351" lon="3.70928">
        <ele>180</ele>
        <time>2021-03-16T14:39:12+01:00</time>
      </trkpt>
      <trkpt lat="43.61353" lon="3.71">
        <ele>184</ele>
        <time>2021-03-16T14:39:34+01:00</time>
      </trkpt>
      <trkpt lat="43.61348" lon="3.71072">
        <ele>186</ele>
        <time>2021-03-16T14:39:59+01:00</time>
      </trkpt>
      <trkpt lat="43.61348" lon="3.71104">
        <ele>187</ele>
        <time>2021-03-16T14:40:14+01:00</time>
      </trkpt>
      <trkpt lat="43.61349" lon="3.71105">
        <ele>187</ele>
        <time>2021-03-16T14:40:15+01:00</time>
      </trkpt>
      <trkpt lat="43.61351" lon="3.71105">
        <ele>187</ele>
        <time>2021-03-16T14:40:16+01:00</time>
      </trkpt>
      <trkpt lat="43.61352" lon="3.71104">
        <ele>187</ele>
        <time>2021-03-16T14:40:17+01:00</time>
      </trkpt>
      <trkpt lat="43.61353" lon="3.71103">
        <ele>187</ele>
        <time>2021-03-16T14:40:18+01:00</time>
      </trkpt>
      <trkpt lat="43.61355" lon="3.71101">
        <ele>187</ele>
        <time>2021-03-16T14:40:20+01:00</time>
      </trkpt>
      <trkpt lat="43.61356" lon="3.71099">
        <ele>187</ele>
        <time>2021-03-16T14:40:21+01:00</time>
      </trkpt>
      <trkpt lat="43.61356" lon="3.71098">
        <ele>187</ele>
        <time>2021-03-16T14:40:27+01:00</time>
      </trkpt>
      <trkpt lat="43.6136" lon="3.71091">
        <ele>187</ele>
        <time>2021-03-16T14:40:45+01:00</time>
      </trkpt>
      <trkpt lat="43.61363" lon="3.71089">
        <ele>187</ele>
        <time>2021-03-16T14:40:46+01:00</time>
      </trkpt>
      <trkpt lat="43.61365" lon="3.71087">
        <ele>187</ele>
        <time>2021-03-16T14:40:47+01:00</time>
      </trkpt>
      <trkpt lat="43.61368" lon="3.71085">
        <ele>187</ele>
        <time>2021-03-16T14:40:48+01:00</time>
      </trkpt>
      <trkpt lat="43.61371" lon="3.71084">
        <ele>187</ele>
        <time>2021-03-16T14:40:49+01:00</time>
      </trkpt>
      <trkpt lat="43.61411" lon="3.71053">
        <ele>189</ele>
        <time>2021-03-16T14:41:06+01:00</time>
      </trkpt>
      <trkpt lat="43.61436" lon="3.71031">
        <ele>190</ele>
        <time>2021-03-16T14:41:18+01:00</time>
      </trkpt>
      <trkpt lat="43.61474" lon="3.7096">
        <ele>190</ele>
        <time>2021-03-16T14:41:38+01:00</time>
      </trkpt>
      <trkpt lat="43.61503" lon="3.70929">
        <ele>191</ele>
        <time>2021-03-16T14:41:51+01:00</time>
      </trkpt>
      <trkpt lat="43.61542" lon="3.70885">
        <ele>191</ele>
        <time>2021-03-16T14:42:06+01:00</time>
      </trkpt>
      <trkpt lat="43.61576" lon="3.70844">
        <ele>189</ele>
        <time>2021-03-16T14:42:20+01:00</time>
      </trkpt>
      <trkpt lat="43.6158" lon="3.70804">
        <ele>190</ele>
        <time>2021-03-16T14:42:31+01:00</time>
      </trkpt>
      <trkpt lat="43.61585" lon="3.70767">
        <ele>191</ele>
        <time>2021-03-16T14:42:45+01:00</time>
      </trkpt>
      <trkpt lat="43.61592" lon="3.70683">
        <ele>194</ele>
        <time>2021-03-16T14:43:09+01:00</time>
      </trkpt>
      <trkpt lat="43.61602" lon="3.70603">
        <ele>191</ele>
        <time>2021-03-16T14:43:27+01:00</time>
      </trkpt>
      <trkpt lat="43.61624" lon="3.70544">
        <ele>190</ele>
        <time>2021-03-16T14:43:41+01:00</time>
      </trkpt>
      <trkpt lat="43.61686" lon="3.70511">
        <ele>191</ele>
        <time>2021-03-16T14:44:01+01:00</time>
      </trkpt>
      <trkpt lat="43.61747" lon="3.70472">
        <ele>191</ele>
        <time>2021-03-16T14:44:22+01:00</time>
      </trkpt>
      <trkpt lat="43.61805" lon="3.70431">
        <ele>191</ele>
        <time>2021-03-16T14:44:42+01:00</time>
      </trkpt>
      <trkpt lat="43.6185" lon="3.7037">
        <ele>189</ele>
        <time>2021-03-16T14:45:01+01:00</time>
      </trkpt>
      <trkpt lat="43.61884" lon="3.703">
        <ele>184</ele>
        <time>2021-03-16T14:45:20+01:00</time>
      </trkpt>
      <trkpt lat="43.61905" lon="3.70253">
        <ele>182</ele>
        <time>2021-03-16T14:45:33+01:00</time>
      </trkpt>
      <trkpt lat="43.6192" lon="3.70217">
        <ele>181</ele>
        <time>2021-03-16T14:45:43+01:00</time>
      </trkpt>
      <trkpt lat="43.61948" lon="3.70154">
        <ele>177</ele>
        <time>2021-03-16T14:45:57+01:00</time>
      </trkpt>
      <trkpt lat="43.6197" lon="3.70098">
        <ele>175</ele>
        <time>2021-03-16T14:46:12+01:00</time>
      </trkpt>
      <trkpt lat="43.61991" lon="3.70057">
        <ele>172</ele>
        <time>2021-03-16T14:46:24+01:00</time>
      </trkpt>
      <trkpt lat="43.61992" lon="3.70013">
        <ele>173</ele>
        <time>2021-03-16T14:46:35+01:00</time>
      </trkpt>
      <trkpt lat="43.61995" lon="3.70002">
        <ele>173</ele>
        <time>2021-03-16T14:46:37+01:00</time>
      </trkpt>
      <trkpt lat="43.61998" lon="3.69997">
        <ele>173</ele>
        <time>2021-03-16T14:46:38+01:00</time>
      </trkpt>
      <trkpt lat="43.62001" lon="3.69992">
        <ele>173</ele>
        <time>2021-03-16T14:46:39+01:00</time>
      </trkpt>
      <trkpt lat="43.62005" lon="3.69987">
        <ele>173</ele>
        <time>2021-03-16T14:46:40+01:00</time>
      </trkpt>
      <trkpt lat="43.62008" lon="3.69983">
        <ele>173</ele>
        <time>2021-03-16T14:46:41+01:00</time>
      </trkpt>
      <trkpt lat="43.62038" lon="3.69932">
        <ele>172</ele>
        <time>2021-03-16T14:46:55+01:00</time>
      </trkpt>
      <trkpt lat="43.62061" lon="3.69875">
        <ele>170</ele>
        <time>2021-03-16T14:47:13+01:00</time>
      </trkpt>
      <trkpt lat="43.62098" lon="3.69799">
        <ele>167</ele>
        <time>2021-03-16T14:47:30+01:00</time>
      </trkpt>
      <trkpt lat="43.62113" lon="3.6977">
        <ele>166</ele>
        <time>2021-03-16T14:47:36+01:00</time>
      </trkpt>
      <trkpt lat="43.62152" lon="3.69704">
        <ele>164</ele>
        <time>2021-03-16T14:47:53+01:00</time>
      </trkpt>
      <trkpt lat="43.62179" lon="3.69654">
        <ele>161</ele>
        <time>2021-03-16T14:48:06+01:00</time>
      </trkpt>
      <trkpt lat="43.62206" lon="3.6959">
        <ele>163</ele>
        <time>2021-03-16T14:48:22+01:00</time>
      </trkpt>
      <trkpt lat="43.62236" lon="3.69546">
        <ele>163</ele>
        <time>2021-03-16T14:48:38+01:00</time>
      </trkpt>
      <trkpt lat="43.62259" lon="3.69488">
        <ele>158</ele>
        <time>2021-03-16T14:48:53+01:00</time>
      </trkpt>
      <trkpt lat="43.62291" lon="3.69433">
        <ele>156</ele>
        <time>2021-03-16T14:49:06+01:00</time>
      </trkpt>
      <trkpt lat="43.62315" lon="3.69393">
        <ele>152</ele>
        <time>2021-03-16T14:49:18+01:00</time>
      </trkpt>
      <trkpt lat="43.62339" lon="3.69349">
        <ele>149</ele>
        <time>2021-03-16T14:49:30+01:00</time>
      </trkpt>
      <trkpt lat="43.62351" lon="3.69327">
        <ele>148</ele>
        <time>2021-03-16T14:49:35+01:00</time>
      </trkpt>
      <trkpt lat="43.62388" lon="3.69244">
        <ele>146</ele>
        <time>2021-03-16T14:49:50+01:00</time>
      </trkpt>
      <trkpt lat="43.62407" lon="3.69202">
        <ele>143</ele>
        <time>2021-03-16T14:49:58+01:00</time>
      </trkpt>
      <trkpt lat="43.62422" lon="3.69162">
        <ele>141</ele>
        <time>2021-03-16T14:50:08+01:00</time>
      </trkpt>
      <trkpt lat="43.62423" lon="3.69155">
        <ele>141</ele>
        <time>2021-03-16T14:50:16+01:00</time>
      </trkpt>
      <trkpt lat="43.62423" lon="3.69149">
        <ele>140</ele>
        <time>2021-03-16T14:50:30+01:00</time>
      </trkpt>
      <trkpt lat="43.62424" lon="3.69146">
        <ele>140</ele>
        <time>2021-03-16T14:50:31+01:00</time>
      </trkpt>
      <trkpt lat="43.62425" lon="3.69143">
        <ele>140</ele>
        <time>2021-03-16T14:50:32+01:00</time>
      </trkpt>
      <trkpt lat="43.62426" lon="3.69139">
        <ele>139</ele>
        <time>2021-03-16T14:50:33+01:00</time>
      </trkpt>
      <trkpt lat="43.62453" lon="3.6908">
        <ele>135</ele>
        <time>2021-03-16T14:50:44+01:00</time>
      </trkpt>
      <trkpt lat="43.62475" lon="3.69039">
        <ele>134</ele>
        <time>2021-03-16T14:50:51+01:00</time>
      </trkpt>
      <trkpt lat="43.62483" lon="3.69018">
        <ele>134</ele>
        <time>2021-03-16T14:51:00+01:00</time>
      </trkpt>
      <trkpt lat="43.6249" lon="3.68978">
        <ele>134</ele>
        <time>2021-03-16T14:51:15+01:00</time>
      </trkpt>
      <trkpt lat="43.62505" lon="3.68886">
        <ele>136</ele>
        <time>2021-03-16T14:51:32+01:00</time>
      </trkpt>
      <trkpt lat="43.62497" lon="3.68863">
        <ele>136</ele>
        <time>2021-03-16T14:51:42+01:00</time>
      </trkpt>
      <trkpt lat="43.62497" lon="3.68863">
        <ele>136</ele>
        <time>2021-03-16T14:51:47+01:00</time>
      </trkpt>
      <trkpt lat="43.62491" lon="3.6886">
        <ele>136</ele>
        <time>2021-03-16T14:52:20+01:00</time>
      </trkpt>
      <trkpt lat="43.62488" lon="3.68858">
        <ele>136</ele>
        <time>2021-03-16T14:52:21+01:00</time>
      </trkpt>
      <trkpt lat="43.62485" lon="3.68855">
        <ele>136</ele>
        <time>2021-03-16T14:52:22+01:00</time>
      </trkpt>
      <trkpt lat="43.62482" lon="3.68852">
        <ele>136</ele>
        <time>2021-03-16T14:52:23+01:00</time>
      </trkpt>
      <trkpt lat="43.62478" lon="3.68849">
        <ele>136</ele>
        <time>2021-03-16T14:52:24+01:00</time>
      </trkpt>
      <trkpt lat="43.62427" lon="3.68781">
        <ele>135</ele>
        <time>2021-03-16T14:52:39+01:00</time>
      </trkpt>
      <trkpt lat="43.62382" lon="3.68703">
        <ele>134</ele>
        <time>2021-03-16T14:52:56+01:00</time>
      </trkpt>
      <trkpt lat="43.62326" lon="3.68604">
        <ele>133</ele>
        <time>2021-03-16T14:53:18+01:00</time>
      </trkpt>
      <trkpt lat="43.62275" lon="3.68535">
        <ele>135</ele>
        <time>2021-03-16T14:53:38+01:00</time>
      </trkpt>
      <trkpt lat="43.62225" lon="3.68469">
        <ele>135</ele>
        <time>2021-03-16T14:53:58+01:00</time>
      </trkpt>
      <trkpt lat="43.622" lon="3.6843">
        <ele>135</ele>
        <time>2021-03-16T14:54:14+01:00</time>
      </trkpt>
      <trkpt lat="43.62194" lon="3.68424">
        <ele>134</ele>
        <time>2021-03-16T14:54:19+01:00</time>
      </trkpt>
      <trkpt lat="43.62191" lon="3.68423">
        <ele>134</ele>
        <time>2021-03-16T14:54:20+01:00</time>
      </trkpt>
      <trkpt lat="43.62188" lon="3.6842">
        <ele>134</ele>
        <time>2021-03-16T14:54:21+01:00</time>
      </trkpt>
      <trkpt lat="43.62185" lon="3.68417">
        <ele>134</ele>
        <time>2021-03-16T14:54:22+01:00</time>
      </trkpt>
      <trkpt lat="43.62183" lon="3.68412">
        <ele>134</ele>
        <time>2021-03-16T14:54:23+01:00</time>
      </trkpt>
      <trkpt lat="43.62183" lon="3.68408">
        <ele>134</ele>
        <time>2021-03-16T14:54:24+01:00</time>
      </trkpt>
      <trkpt lat="43.62183" lon="3.68404">
        <ele>134</ele>
        <time>2021-03-16T14:54:25+01:00</time>
      </trkpt>
      <trkpt lat="43.62183" lon="3.684">
        <ele>134</ele>
        <time>2021-03-16T14:54:26+01:00</time>
      </trkpt>
      <trkpt lat="43.62184" lon="3.68396">
        <ele>134</ele>
        <time>2021-03-16T14:54:27+01:00</time>
      </trkpt>
      <trkpt lat="43.62174" lon="3.68343">
        <ele>136</ele>
        <time>2021-03-16T14:54:41+01:00</time>
      </trkpt>
      <trkpt lat="43.62133" lon="3.68294">
        <ele>135</ele>
        <time>2021-03-16T14:54:56+01:00</time>
      </trkpt>
      <trkpt lat="43.62118" lon="3.68274">
        <ele>134</ele>
        <time>2021-03-16T14:55:01+01:00</time>
      </trkpt>
      <trkpt lat="43.62116" lon="3.68269">
        <ele>134</ele>
        <time>2021-03-16T14:55:02+01:00</time>
      </trkpt>
      <trkpt lat="43.621" lon="3.68212">
        <ele>135</ele>
        <time>2021-03-16T14:55:14+01:00</time>
      </trkpt>
      <trkpt lat="43.62077" lon="3.68158">
        <ele>135</ele>
        <time>2021-03-16T14:55:26+01:00</time>
      </trkpt>
      <trkpt lat="43.62046" lon="3.68105">
        <ele>133</ele>
        <time>2021-03-16T14:55:39+01:00</time>
      </trkpt>
      <trkpt lat="43.61999" lon="3.68021">
        <ele>132</ele>
        <time>2021-03-16T14:55:58+01:00</time>
      </trkpt>
      <trkpt lat="43.6198" lon="3.67964">
        <ele>129</ele>
        <time>2021-03-16T14:56:13+01:00</time>
      </trkpt>
      <trkpt lat="43.61962" lon="3.67911">
        <ele>125</ele>
        <time>2021-03-16T14:56:24+01:00</time>
      </trkpt>
      <trkpt lat="43.61961" lon="3.67905">
        <ele>125</ele>
        <time>2021-03-16T14:56:25+01:00</time>
      </trkpt>
      <trkpt lat="43.6195" lon="3.67853">
        <ele>118</ele>
        <time>2021-03-16T14:56:36+01:00</time>
      </trkpt>
      <trkpt lat="43.61946" lon="3.67824">
        <ele>114</ele>
        <time>2021-03-16T14:56:42+01:00</time>
      </trkpt>
      <trkpt lat="43.61942" lon="3.6782">
        <ele>114</ele>
        <time>2021-03-16T14:56:43+01:00</time>
      </trkpt>
      <trkpt lat="43.61938" lon="3.67817">
        <ele>114</ele>
        <time>2021-03-16T14:56:44+01:00</time>
      </trkpt>
      <trkpt lat="43.61933" lon="3.67815">
        <ele>114</ele>
        <time>2021-03-16T14:56:45+01:00</time>
      </trkpt>
      <trkpt lat="43.61927" lon="3.67814">
        <ele>114</ele>
        <time>2021-03-16T14:56:46+01:00</time>
      </trkpt>
      <trkpt lat="43.61922" lon="3.67813">
        <ele>114</ele>
        <time>2021-03-16T14:56:47+01:00</time>
      </trkpt>
      <trkpt lat="43.61877" lon="3.67817">
        <ele>112</ele>
        <time>2021-03-16T14:56:55+01:00</time>
      </trkpt>
      <trkpt lat="43.61843" lon="3.67822">
        <ele>111</ele>
        <time>2021-03-16T14:57:05+01:00</time>
      </trkpt>
      <trkpt lat="43.61839" lon="3.6782">
        <ele>111</ele>
        <time>2021-03-16T14:57:06+01:00</time>
      </trkpt>
      <trkpt lat="43.61838" lon="3.67817">
        <ele>111</ele>
        <time>2021-03-16T14:57:07+01:00</time>
      </trkpt>
      <trkpt lat="43.61838" lon="3.67813">
        <ele>111</ele>
        <time>2021-03-16T14:57:08+01:00</time>
      </trkpt>
      <trkpt lat="43.61839" lon="3.6781">
        <ele>111</ele>
        <time>2021-03-16T14:57:09+01:00</time>
      </trkpt>
      <trkpt lat="43.6184" lon="3.67807">
        <ele>111</ele>
        <time>2021-03-16T14:57:10+01:00</time>
      </trkpt>
      <trkpt lat="43.6183" lon="3.67778">
        <ele>113</ele>
        <time>2021-03-16T14:57:19+01:00</time>
      </trkpt>
      <trkpt lat="43.61802" lon="3.67748">
        <ele>118</ele>
        <time>2021-03-16T14:57:33+01:00</time>
      </trkpt>
      <trkpt lat="43.6179" lon="3.6773">
        <ele>119</ele>
        <time>2021-03-16T14:57:43+01:00</time>
      </trkpt>
      <trkpt lat="43.61791" lon="3.67728">
        <ele>119</ele>
        <time>2021-03-16T14:57:44+01:00</time>
      </trkpt>
      <trkpt lat="43.61792" lon="3.67727">
        <ele>119</ele>
        <time>2021-03-16T14:57:45+01:00</time>
      </trkpt>
      <trkpt lat="43.61793" lon="3.67722">
        <ele>119</ele>
        <time>2021-03-16T14:57:47+01:00</time>
      </trkpt>
      <trkpt lat="43.61793" lon="3.6772">
        <ele>120</ele>
        <time>2021-03-16T14:57:48+01:00</time>
      </trkpt>
      <trkpt lat="43.61791" lon="3.6772">
        <ele>120</ele>
        <time>2021-03-16T14:57:49+01:00</time>
      </trkpt>
      <trkpt lat="43.61789" lon="3.6772">
        <ele>120</ele>
        <time>2021-03-16T14:57:50+01:00</time>
      </trkpt>
      <trkpt lat="43.61787" lon="3.67721">
        <ele>120</ele>
        <time>2021-03-16T14:57:51+01:00</time>
      </trkpt>
      <trkpt lat="43.61745" lon="3.67715">
        <ele>121</ele>
        <time>2021-03-16T14:58:05+01:00</time>
      </trkpt>
      <trkpt lat="43.61689" lon="3.67681">
        <ele>123</ele>
        <time>2021-03-16T14:58:22+01:00</time>
      </trkpt>
      <trkpt lat="43.61626" lon="3.67648">
        <ele>126</ele>
        <time>2021-03-16T14:58:43+01:00</time>
      </trkpt>
      <trkpt lat="43.6157" lon="3.67632">
        <ele>129</ele>
        <time>2021-03-16T14:59:03+01:00</time>
      </trkpt>
      <trkpt lat="43.61527" lon="3.67609">
        <ele>130</ele>
        <time>2021-03-16T14:59:18+01:00</time>
      </trkpt>
      <trkpt lat="43.61498" lon="3.67584">
        <ele>131</ele>
        <time>2021-03-16T14:59:32+01:00</time>
      </trkpt>
      <trkpt lat="43.61458" lon="3.67543">
        <ele>134</ele>
        <time>2021-03-16T14:59:50+01:00</time>
      </trkpt>
      <trkpt lat="43.61412" lon="3.67517">
        <ele>135</ele>
        <time>2021-03-16T15:00:07+01:00</time>
      </trkpt>
      <trkpt lat="43.61356" lon="3.67514">
        <ele>136</ele>
        <time>2021-03-16T15:00:24+01:00</time>
      </trkpt>
      <trkpt lat="43.61322" lon="3.67529">
        <ele>137</ele>
        <time>2021-03-16T15:00:39+01:00</time>
      </trkpt>
      <trkpt lat="43.61276" lon="3.67545">
        <ele>137</ele>
        <time>2021-03-16T15:00:53+01:00</time>
      </trkpt>
      <trkpt lat="43.61252" lon="3.6754">
        <ele>136</ele>
        <time>2021-03-16T15:01:00+01:00</time>
      </trkpt>
      <trkpt lat="43.61248" lon="3.67536">
        <ele>136</ele>
        <time>2021-03-16T15:01:01+01:00</time>
      </trkpt>
      <trkpt lat="43.61245" lon="3.67532">
        <ele>136</ele>
        <time>2021-03-16T15:01:02+01:00</time>
      </trkpt>
      <trkpt lat="43.61242" lon="3.67527">
        <ele>136</ele>
        <time>2021-03-16T15:01:03+01:00</time>
      </trkpt>
      <trkpt lat="43.61239" lon="3.67522">
        <ele>136</ele>
        <time>2021-03-16T15:01:04+01:00</time>
      </trkpt>
      <trkpt lat="43.61234" lon="3.67518">
        <ele>136</ele>
        <time>2021-03-16T15:01:05+01:00</time>
      </trkpt>
      <trkpt lat="43.61229" lon="3.67516">
        <ele>135</ele>
        <time>2021-03-16T15:01:06+01:00</time>
      </trkpt>
      <trkpt lat="43.61222" lon="3.67517">
        <ele>135</ele>
        <time>2021-03-16T15:01:07+01:00</time>
      </trkpt>
      <trkpt lat="43.61217" lon="3.67521">
        <ele>134</ele>
        <time>2021-03-16T15:01:08+01:00</time>
      </trkpt>
      <trkpt lat="43.61211" lon="3.67525">
        <ele>133</ele>
        <time>2021-03-16T15:01:09+01:00</time>
      </trkpt>
      <trkpt lat="43.61207" lon="3.67529">
        <ele>133</ele>
        <time>2021-03-16T15:01:10+01:00</time>
      </trkpt>
      <trkpt lat="43.61202" lon="3.67533">
        <ele>132</ele>
        <time>2021-03-16T15:01:11+01:00</time>
      </trkpt>
      <trkpt lat="43.61198" lon="3.67536">
        <ele>131</ele>
        <time>2021-03-16T15:01:12+01:00</time>
      </trkpt>
      <trkpt lat="43.61193" lon="3.67537">
        <ele>131</ele>
        <time>2021-03-16T15:01:13+01:00</time>
      </trkpt>
      <trkpt lat="43.61188" lon="3.67536">
        <ele>130</ele>
        <time>2021-03-16T15:01:14+01:00</time>
      </trkpt>
      <trkpt lat="43.61183" lon="3.67534">
        <ele>130</ele>
        <time>2021-03-16T15:01:15+01:00</time>
      </trkpt>
      <trkpt lat="43.61178" lon="3.67529">
        <ele>130</ele>
        <time>2021-03-16T15:01:16+01:00</time>
      </trkpt>
      <trkpt lat="43.61174" lon="3.67524">
        <ele>130</ele>
        <time>2021-03-16T15:01:17+01:00</time>
      </trkpt>
      <trkpt lat="43.61171" lon="3.67519">
        <ele>130</ele>
        <time>2021-03-16T15:01:18+01:00</time>
      </trkpt>
      <trkpt lat="43.61167" lon="3.67513">
        <ele>131</ele>
        <time>2021-03-16T15:01:19+01:00</time>
      </trkpt>
      <trkpt lat="43.61138" lon="3.67462">
        <ele>127</ele>
        <time>2021-03-16T15:01:27+01:00</time>
      </trkpt>
      <trkpt lat="43.61135" lon="3.67454">
        <ele>128</ele>
        <time>2021-03-16T15:01:28+01:00</time>
      </trkpt>
      <trkpt lat="43.61133" lon="3.67445">
        <ele>128</ele>
        <time>2021-03-16T15:01:29+01:00</time>
      </trkpt>
      <trkpt lat="43.61132" lon="3.67437">
        <ele>128</ele>
        <time>2021-03-16T15:01:30+01:00</time>
      </trkpt>
      <trkpt lat="43.61131" lon="3.6743">
        <ele>128</ele>
        <time>2021-03-16T15:01:31+01:00</time>
      </trkpt>
      <trkpt lat="43.61129" lon="3.67424">
        <ele>128</ele>
        <time>2021-03-16T15:01:32+01:00</time>
      </trkpt>
      <trkpt lat="43.61126" lon="3.6742">
        <ele>128</ele>
        <time>2021-03-16T15:01:33+01:00</time>
      </trkpt>
      <trkpt lat="43.61121" lon="3.67419">
        <ele>129</ele>
        <time>2021-03-16T15:01:34+01:00</time>
      </trkpt>
      <trkpt lat="43.61117" lon="3.67422">
        <ele>129</ele>
        <time>2021-03-16T15:01:35+01:00</time>
      </trkpt>
      <trkpt lat="43.61114" lon="3.67427">
        <ele>129</ele>
        <time>2021-03-16T15:01:36+01:00</time>
      </trkpt>
      <trkpt lat="43.61113" lon="3.67433">
        <ele>129</ele>
        <time>2021-03-16T15:01:37+01:00</time>
      </trkpt>
      <trkpt lat="43.61112" lon="3.67439">
        <ele>129</ele>
        <time>2021-03-16T15:01:38+01:00</time>
      </trkpt>
      <trkpt lat="43.61111" lon="3.67446">
        <ele>129</ele>
        <time>2021-03-16T15:01:39+01:00</time>
      </trkpt>
      <trkpt lat="43.61105" lon="3.67504">
        <ele>133</ele>
        <time>2021-03-16T15:01:51+01:00</time>
      </trkpt>
      <trkpt lat="43.61112" lon="3.67556">
        <ele>136</ele>
        <time>2021-03-16T15:02:03+01:00</time>
      </trkpt>
      <trkpt lat="43.61117" lon="3.67593">
        <ele>138</ele>
        <time>2021-03-16T15:02:10+01:00</time>
      </trkpt>
      <trkpt lat="43.6112" lon="3.67629">
        <ele>142</ele>
        <time>2021-03-16T15:02:18+01:00</time>
      </trkpt>
      <trkpt lat="43.61122" lon="3.67652">
        <ele>143</ele>
        <time>2021-03-16T15:02:23+01:00</time>
      </trkpt>
      <trkpt lat="43.61117" lon="3.67703">
        <ele>146</ele>
        <time>2021-03-16T15:02:35+01:00</time>
      </trkpt>
      <trkpt lat="43.61109" lon="3.67717">
        <ele>147</ele>
        <time>2021-03-16T15:02:39+01:00</time>
      </trkpt>
      <trkpt lat="43.61106" lon="3.67718">
        <ele>148</ele>
        <time>2021-03-16T15:02:40+01:00</time>
      </trkpt>
      <trkpt lat="43.61103" lon="3.67716">
        <ele>148</ele>
        <time>2021-03-16T15:02:41+01:00</time>
      </trkpt>
      <trkpt lat="43.61101" lon="3.67714">
        <ele>149</ele>
        <time>2021-03-16T15:02:42+01:00</time>
      </trkpt>
      <trkpt lat="43.61099" lon="3.67711">
        <ele>149</ele>
        <time>2021-03-16T15:02:43+01:00</time>
      </trkpt>
      <trkpt lat="43.61098" lon="3.67708">
        <ele>149</ele>
        <time>2021-03-16T15:02:44+01:00</time>
      </trkpt>
      <trkpt lat="43.61079" lon="3.67677">
        <ele>152</ele>
        <time>2021-03-16T15:02:55+01:00</time>
      </trkpt>
      <trkpt lat="43.61061" lon="3.67653">
        <ele>154</ele>
        <time>2021-03-16T15:03:05+01:00</time>
      </trkpt>
      <trkpt lat="43.61039" lon="3.67626">
        <ele>157</ele>
        <time>2021-03-16T15:03:16+01:00</time>
      </trkpt>
      <trkpt lat="43.61018" lon="3.67607">
        <ele>159</ele>
        <time>2021-03-16T15:03:26+01:00</time>
      </trkpt>
      <trkpt lat="43.60989" lon="3.6759">
        <ele>162</ele>
        <time>2021-03-16T15:03:39+01:00</time>
      </trkpt>
      <trkpt lat="43.60963" lon="3.6758">
        <ele>163</ele>
        <time>2021-03-16T15:03:55+01:00</time>
      </trkpt>
      <trkpt lat="43.60963" lon="3.6758">
        <ele>163</ele>
        <time>2021-03-16T15:03:57+01:00</time>
      </trkpt>
      <trkpt lat="43.60954" lon="3.67571">
        <ele>163</ele>
        <time>2021-03-16T15:14:26+01:00</time>
      </trkpt>
      <trkpt lat="43.60953" lon="3.67569">
        <ele>163</ele>
        <time>2021-03-16T15:14:27+01:00</time>
      </trkpt>
      <trkpt lat="43.60952" lon="3.67566">
        <ele>163</ele>
        <time>2021-03-16T15:14:28+01:00</time>
      </trkpt>
      <trkpt lat="43.60951" lon="3.67562">
        <ele>163</ele>
        <time>2021-03-16T15:14:29+01:00</time>
      </trkpt>
      <trkpt lat="43.60925" lon="3.67517">
        <ele>163</ele>
        <time>2021-03-16T15:14:44+01:00</time>
      </trkpt>
      <trkpt lat="43.60909" lon="3.67455">
        <ele>162</ele>
        <time>2021-03-16T15:14:58+01:00</time>
      </trkpt>
      <trkpt lat="43.60922" lon="3.67367">
        <ele>166</ele>
        <time>2021-03-16T15:15:19+01:00</time>
      </trkpt>
      <trkpt lat="43.60935" lon="3.67274">
        <ele>168</ele>
        <time>2021-03-16T15:15:38+01:00</time>
      </trkpt>
      <trkpt lat="43.60934" lon="3.67222">
        <ele>170</ele>
        <time>2021-03-16T15:15:53+01:00</time>
      </trkpt>
      <trkpt lat="43.60932" lon="3.67218">
        <ele>170</ele>
        <time>2021-03-16T15:16:00+01:00</time>
      </trkpt>
      <trkpt lat="43.6093" lon="3.67209">
        <ele>171</ele>
        <time>2021-03-16T15:16:17+01:00</time>
      </trkpt>
      <trkpt lat="43.60928" lon="3.67206">
        <ele>171</ele>
        <time>2021-03-16T15:16:18+01:00</time>
      </trkpt>
      <trkpt lat="43.60926" lon="3.67203">
        <ele>171</ele>
        <time>2021-03-16T15:16:19+01:00</time>
      </trkpt>
      <trkpt lat="43.60918" lon="3.67189">
        <ele>170</ele>
        <time>2021-03-16T15:16:22+01:00</time>
      </trkpt>
      <trkpt lat="43.60873" lon="3.67111">
        <ele>166</ele>
        <time>2021-03-16T15:16:35+01:00</time>
      </trkpt>
      <trkpt lat="43.60846" lon="3.67065">
        <ele>166</ele>
        <time>2021-03-16T15:16:43+01:00</time>
      </trkpt>
      <trkpt lat="43.60839" lon="3.67057">
        <ele>165</ele>
        <time>2021-03-16T15:16:45+01:00</time>
      </trkpt>
      <trkpt lat="43.60834" lon="3.67054">
        <ele>165</ele>
        <time>2021-03-16T15:16:46+01:00</time>
      </trkpt>
      <trkpt lat="43.6083" lon="3.67052">
        <ele>165</ele>
        <time>2021-03-16T15:16:47+01:00</time>
      </trkpt>
      <trkpt lat="43.60825" lon="3.6705">
        <ele>165</ele>
        <time>2021-03-16T15:16:48+01:00</time>
      </trkpt>
      <trkpt lat="43.60821" lon="3.67048">
        <ele>164</ele>
        <time>2021-03-16T15:16:49+01:00</time>
      </trkpt>
      <trkpt lat="43.60816" lon="3.67047">
        <ele>164</ele>
        <time>2021-03-16T15:16:50+01:00</time>
      </trkpt>
      <trkpt lat="43.60773" lon="3.67028">
        <ele>166</ele>
        <time>2021-03-16T15:17:03+01:00</time>
      </trkpt>
      <trkpt lat="43.6072" lon="3.67028">
        <ele>172</ele>
        <time>2021-03-16T15:17:19+01:00</time>
      </trkpt>
      <trkpt lat="43.60693" lon="3.67051">
        <ele>174</ele>
        <time>2021-03-16T15:17:31+01:00</time>
      </trkpt>
      <trkpt lat="43.60664" lon="3.67103">
        <ele>177</ele>
        <time>2021-03-16T15:17:48+01:00</time>
      </trkpt>
      <trkpt lat="43.6066" lon="3.67105">
        <ele>178</ele>
        <time>2021-03-16T15:17:50+01:00</time>
      </trkpt>
      <trkpt lat="43.60657" lon="3.67104">
        <ele>179</ele>
        <time>2021-03-16T15:17:51+01:00</time>
      </trkpt>
      <trkpt lat="43.60656" lon="3.67101">
        <ele>179</ele>
        <time>2021-03-16T15:17:52+01:00</time>
      </trkpt>
      <trkpt lat="43.60656" lon="3.67098">
        <ele>180</ele>
        <time>2021-03-16T15:17:53+01:00</time>
      </trkpt>
      <trkpt lat="43.60656" lon="3.67094">
        <ele>180</ele>
        <time>2021-03-16T15:17:54+01:00</time>
      </trkpt>
      <trkpt lat="43.60656" lon="3.67091">
        <ele>180</ele>
        <time>2021-03-16T15:17:55+01:00</time>
      </trkpt>
      <trkpt lat="43.60656" lon="3.67089">
        <ele>180</ele>
        <time>2021-03-16T15:17:56+01:00</time>
      </trkpt>
      <trkpt lat="43.6065" lon="3.67059">
        <ele>183</ele>
        <time>2021-03-16T15:18:06+01:00</time>
      </trkpt>
      <trkpt lat="43.60639" lon="3.67016">
        <ele>183</ele>
        <time>2021-03-16T15:18:19+01:00</time>
      </trkpt>
      <trkpt lat="43.60621" lon="3.66986">
        <ele>183</ele>
        <time>2021-03-16T15:18:32+01:00</time>
      </trkpt>
      <trkpt lat="43.60599" lon="3.66956">
        <ele>182</ele>
        <time>2021-03-16T15:18:44+01:00</time>
      </trkpt>
      <trkpt lat="43.60563" lon="3.6693">
        <ele>186</ele>
        <time>2021-03-16T15:19:01+01:00</time>
      </trkpt>
      <trkpt lat="43.60526" lon="3.66919">
        <ele>191</ele>
        <time>2021-03-16T15:19:17+01:00</time>
      </trkpt>
      <trkpt lat="43.6049" lon="3.6693">
        <ele>194</ele>
        <time>2021-03-16T15:19:32+01:00</time>
      </trkpt>
      <trkpt lat="43.60482" lon="3.66929">
        <ele>194</ele>
        <time>2021-03-16T15:19:34+01:00</time>
      </trkpt>
      <trkpt lat="43.60477" lon="3.66927">
        <ele>194</ele>
        <time>2021-03-16T15:19:35+01:00</time>
      </trkpt>
      <trkpt lat="43.60473" lon="3.66926">
        <ele>194</ele>
        <time>2021-03-16T15:19:36+01:00</time>
      </trkpt>
      <trkpt lat="43.6042" lon="3.66897">
        <ele>186</ele>
        <time>2021-03-16T15:19:48+01:00</time>
      </trkpt>
      <trkpt lat="43.60397" lon="3.6687">
        <ele>183</ele>
        <time>2021-03-16T15:19:54+01:00</time>
      </trkpt>
      <trkpt lat="43.60369" lon="3.6682">
        <ele>180</ele>
        <time>2021-03-16T15:20:01+01:00</time>
      </trkpt>
      <trkpt lat="43.60366" lon="3.66811">
        <ele>180</ele>
        <time>2021-03-16T15:20:02+01:00</time>
      </trkpt>
      <trkpt lat="43.60354" lon="3.66775">
        <ele>181</ele>
        <time>2021-03-16T15:20:06+01:00</time>
      </trkpt>
      <trkpt lat="43.60327" lon="3.66705">
        <ele>181</ele>
        <time>2021-03-16T15:20:15+01:00</time>
      </trkpt>
      <trkpt lat="43.60323" lon="3.66699">
        <ele>182</ele>
        <time>2021-03-16T15:20:16+01:00</time>
      </trkpt>
      <trkpt lat="43.60319" lon="3.66695">
        <ele>182</ele>
        <time>2021-03-16T15:20:17+01:00</time>
      </trkpt>
      <trkpt lat="43.60315" lon="3.66695">
        <ele>183</ele>
        <time>2021-03-16T15:20:18+01:00</time>
      </trkpt>
      <trkpt lat="43.60312" lon="3.66697">
        <ele>183</ele>
        <time>2021-03-16T15:20:19+01:00</time>
      </trkpt>
      <trkpt lat="43.6031" lon="3.66699">
        <ele>182</ele>
        <time>2021-03-16T15:20:20+01:00</time>
      </trkpt>
      <trkpt lat="43.60307" lon="3.66702">
        <ele>182</ele>
        <time>2021-03-16T15:20:21+01:00</time>
      </trkpt>
      <trkpt lat="43.60305" lon="3.66705">
        <ele>182</ele>
        <time>2021-03-16T15:20:22+01:00</time>
      </trkpt>
      <trkpt lat="43.60295" lon="3.66743">
        <ele>184</ele>
        <time>2021-03-16T15:20:31+01:00</time>
      </trkpt>
      <trkpt lat="43.60287" lon="3.66789">
        <ele>188</ele>
        <time>2021-03-16T15:20:41+01:00</time>
      </trkpt>
      <trkpt lat="43.60277" lon="3.66824">
        <ele>192</ele>
        <time>2021-03-16T15:20:49+01:00</time>
      </trkpt>
      <trkpt lat="43.60272" lon="3.66829">
        <ele>192</ele>
        <time>2021-03-16T15:20:51+01:00</time>
      </trkpt>
      <trkpt lat="43.60268" lon="3.66828">
        <ele>192</ele>
        <time>2021-03-16T15:20:52+01:00</time>
      </trkpt>
      <trkpt lat="43.60265" lon="3.66826">
        <ele>192</ele>
        <time>2021-03-16T15:20:53+01:00</time>
      </trkpt>
      <trkpt lat="43.60262" lon="3.66823">
        <ele>193</ele>
        <time>2021-03-16T15:20:54+01:00</time>
      </trkpt>
      <trkpt lat="43.6026" lon="3.66821">
        <ele>193</ele>
        <time>2021-03-16T15:20:55+01:00</time>
      </trkpt>
      <trkpt lat="43.60259" lon="3.66818">
        <ele>193</ele>
        <time>2021-03-16T15:20:56+01:00</time>
      </trkpt>
      <trkpt lat="43.60258" lon="3.66815">
        <ele>193</ele>
        <time>2021-03-16T15:20:57+01:00</time>
      </trkpt>
      <trkpt lat="43.60252" lon="3.668">
        <ele>193</ele>
        <time>2021-03-16T15:21:09+01:00</time>
      </trkpt>
      <trkpt lat="43.60251" lon="3.66791">
        <ele>193</ele>
        <time>2021-03-16T15:22:06+01:00</time>
      </trkpt>
      <trkpt lat="43.60251" lon="3.66788">
        <ele>194</ele>
        <time>2021-03-16T15:22:07+01:00</time>
      </trkpt>
      <trkpt lat="43.60251" lon="3.66786">
        <ele>194</ele>
        <time>2021-03-16T15:22:08+01:00</time>
      </trkpt>
      <trkpt lat="43.60235" lon="3.66733">
        <ele>194</ele>
        <time>2021-03-16T15:22:22+01:00</time>
      </trkpt>
      <trkpt lat="43.60218" lon="3.66741">
        <ele>193</ele>
        <time>2021-03-16T15:22:27+01:00</time>
      </trkpt>
      <trkpt lat="43.60215" lon="3.66746">
        <ele>193</ele>
        <time>2021-03-16T15:22:28+01:00</time>
      </trkpt>
      <trkpt lat="43.60212" lon="3.66751">
        <ele>193</ele>
        <time>2021-03-16T15:22:29+01:00</time>
      </trkpt>
      <trkpt lat="43.60173" lon="3.66802">
        <ele>190</ele>
        <time>2021-03-16T15:22:40+01:00</time>
      </trkpt>
      <trkpt lat="43.60157" lon="3.66816">
        <ele>190</ele>
        <time>2021-03-16T15:22:44+01:00</time>
      </trkpt>
      <trkpt lat="43.60153" lon="3.6682">
        <ele>190</ele>
        <time>2021-03-16T15:22:45+01:00</time>
      </trkpt>
      <trkpt lat="43.60151" lon="3.66835">
        <ele>189</ele>
        <time>2021-03-16T15:22:47+01:00</time>
      </trkpt>
      <trkpt lat="43.60152" lon="3.66842">
        <ele>189</ele>
        <time>2021-03-16T15:22:48+01:00</time>
      </trkpt>
      <trkpt lat="43.60146" lon="3.66969">
        <ele>189</ele>
        <time>2021-03-16T15:23:04+01:00</time>
      </trkpt>
      <trkpt lat="43.6011" lon="3.67076">
        <ele>190</ele>
        <time>2021-03-16T15:23:19+01:00</time>
      </trkpt>
      <trkpt lat="43.60085" lon="3.67123">
        <ele>189</ele>
        <time>2021-03-16T15:23:26+01:00</time>
      </trkpt>
      <trkpt lat="43.6008" lon="3.67127">
        <ele>189</ele>
        <time>2021-03-16T15:23:27+01:00</time>
      </trkpt>
      <trkpt lat="43.60075" lon="3.6713">
        <ele>189</ele>
        <time>2021-03-16T15:23:28+01:00</time>
      </trkpt>
      <trkpt lat="43.6007" lon="3.67133">
        <ele>190</ele>
        <time>2021-03-16T15:23:29+01:00</time>
      </trkpt>
      <trkpt lat="43.60064" lon="3.67136">
        <ele>190</ele>
        <time>2021-03-16T15:23:30+01:00</time>
      </trkpt>
      <trkpt lat="43.60024" lon="3.67149">
        <ele>185</ele>
        <time>2021-03-16T15:23:38+01:00</time>
      </trkpt>
      <trkpt lat="43.6002" lon="3.67148">
        <ele>184</ele>
        <time>2021-03-16T15:23:39+01:00</time>
      </trkpt>
      <trkpt lat="43.60015" lon="3.67147">
        <ele>184</ele>
        <time>2021-03-16T15:23:40+01:00</time>
      </trkpt>
      <trkpt lat="43.60011" lon="3.67145">
        <ele>183</ele>
        <time>2021-03-16T15:23:41+01:00</time>
      </trkpt>
      <trkpt lat="43.60007" lon="3.67142">
        <ele>182</ele>
        <time>2021-03-16T15:23:42+01:00</time>
      </trkpt>
      <trkpt lat="43.60003" lon="3.67138">
        <ele>182</ele>
        <time>2021-03-16T15:23:43+01:00</time>
      </trkpt>
      <trkpt lat="43.6" lon="3.67133">
        <ele>183</ele>
        <time>2021-03-16T15:23:44+01:00</time>
      </trkpt>
      <trkpt lat="43.59996" lon="3.67127">
        <ele>184</ele>
        <time>2021-03-16T15:23:45+01:00</time>
      </trkpt>
      <trkpt lat="43.59994" lon="3.67121">
        <ele>185</ele>
        <time>2021-03-16T15:23:46+01:00</time>
      </trkpt>
      <trkpt lat="43.59991" lon="3.67115">
        <ele>186</ele>
        <time>2021-03-16T15:23:47+01:00</time>
      </trkpt>
      <trkpt lat="43.59987" lon="3.67104">
        <ele>188</ele>
        <time>2021-03-16T15:23:49+01:00</time>
      </trkpt>
      <trkpt lat="43.59985" lon="3.671">
        <ele>188</ele>
        <time>2021-03-16T15:23:50+01:00</time>
      </trkpt>
      <trkpt lat="43.59982" lon="3.67095">
        <ele>189</ele>
        <time>2021-03-16T15:23:51+01:00</time>
      </trkpt>
      <trkpt lat="43.59979" lon="3.67092">
        <ele>189</ele>
        <time>2021-03-16T15:23:52+01:00</time>
      </trkpt>
      <trkpt lat="43.59975" lon="3.6709">
        <ele>188</ele>
        <time>2021-03-16T15:23:53+01:00</time>
      </trkpt>
      <trkpt lat="43.59971" lon="3.67092">
        <ele>187</ele>
        <time>2021-03-16T15:23:54+01:00</time>
      </trkpt>
      <trkpt lat="43.59968" lon="3.67098">
        <ele>188</ele>
        <time>2021-03-16T15:23:55+01:00</time>
      </trkpt>
      <trkpt lat="43.59965" lon="3.67105">
        <ele>188</ele>
        <time>2021-03-16T15:23:56+01:00</time>
      </trkpt>
      <trkpt lat="43.59965" lon="3.67111">
        <ele>187</ele>
        <time>2021-03-16T15:23:57+01:00</time>
      </trkpt>
      <trkpt lat="43.59964" lon="3.67119">
        <ele>186</ele>
        <time>2021-03-16T15:23:58+01:00</time>
      </trkpt>
      <trkpt lat="43.59959" lon="3.67152">
        <ele>183</ele>
        <time>2021-03-16T15:24:03+01:00</time>
      </trkpt>
      <trkpt lat="43.59956" lon="3.67159">
        <ele>183</ele>
        <time>2021-03-16T15:24:04+01:00</time>
      </trkpt>
      <trkpt lat="43.59954" lon="3.67165">
        <ele>183</ele>
        <time>2021-03-16T15:24:05+01:00</time>
      </trkpt>
      <trkpt lat="43.59948" lon="3.67177">
        <ele>183</ele>
        <time>2021-03-16T15:24:07+01:00</time>
      </trkpt>
      <trkpt lat="43.59945" lon="3.67182">
        <ele>183</ele>
        <time>2021-03-16T15:24:08+01:00</time>
      </trkpt>
      <trkpt lat="43.59929" lon="3.67199">
        <ele>181</ele>
        <time>2021-03-16T15:24:12+01:00</time>
      </trkpt>
      <trkpt lat="43.59916" lon="3.67209">
        <ele>180</ele>
        <time>2021-03-16T15:24:15+01:00</time>
      </trkpt>
      <trkpt lat="43.59911" lon="3.67212">
        <ele>180</ele>
        <time>2021-03-16T15:24:16+01:00</time>
      </trkpt>
      <trkpt lat="43.59905" lon="3.67213">
        <ele>179</ele>
        <time>2021-03-16T15:24:17+01:00</time>
      </trkpt>
      <trkpt lat="43.599" lon="3.67215">
        <ele>178</ele>
        <time>2021-03-16T15:24:18+01:00</time>
      </trkpt>
      <trkpt lat="43.59893" lon="3.67214">
        <ele>178</ele>
        <time>2021-03-16T15:24:19+01:00</time>
      </trkpt>
      <trkpt lat="43.59887" lon="3.67213">
        <ele>178</ele>
        <time>2021-03-16T15:24:20+01:00</time>
      </trkpt>
      <trkpt lat="43.59881" lon="3.67211">
        <ele>178</ele>
        <time>2021-03-16T15:24:21+01:00</time>
      </trkpt>
      <trkpt lat="43.59874" lon="3.67207">
        <ele>177</ele>
        <time>2021-03-16T15:24:22+01:00</time>
      </trkpt>
      <trkpt lat="43.59868" lon="3.67203">
        <ele>177</ele>
        <time>2021-03-16T15:24:23+01:00</time>
      </trkpt>
      <trkpt lat="43.5981" lon="3.67154">
        <ele>173</ele>
        <time>2021-03-16T15:24:32+01:00</time>
      </trkpt>
      <trkpt lat="43.59769" lon="3.6711">
        <ele>171</ele>
        <time>2021-03-16T15:24:38+01:00</time>
      </trkpt>
      <trkpt lat="43.59745" lon="3.67092">
        <ele>171</ele>
        <time>2021-03-16T15:24:42+01:00</time>
      </trkpt>
      <trkpt lat="43.5974" lon="3.6709">
        <ele>171</ele>
        <time>2021-03-16T15:24:43+01:00</time>
      </trkpt>
      <trkpt lat="43.59735" lon="3.67091">
        <ele>170</ele>
        <time>2021-03-16T15:24:44+01:00</time>
      </trkpt>
      <trkpt lat="43.59731" lon="3.67095">
        <ele>170</ele>
        <time>2021-03-16T15:24:45+01:00</time>
      </trkpt>
      <trkpt lat="43.59729" lon="3.67101">
        <ele>169</ele>
        <time>2021-03-16T15:24:46+01:00</time>
      </trkpt>
      <trkpt lat="43.59729" lon="3.67108">
        <ele>169</ele>
        <time>2021-03-16T15:24:47+01:00</time>
      </trkpt>
      <trkpt lat="43.59731" lon="3.67114">
        <ele>169</ele>
        <time>2021-03-16T15:24:48+01:00</time>
      </trkpt>
      <trkpt lat="43.59734" lon="3.67119">
        <ele>169</ele>
        <time>2021-03-16T15:24:49+01:00</time>
      </trkpt>
      <trkpt lat="43.59738" lon="3.67125">
        <ele>169</ele>
        <time>2021-03-16T15:24:50+01:00</time>
      </trkpt>
      <trkpt lat="43.59741" lon="3.6713">
        <ele>168</ele>
        <time>2021-03-16T15:24:51+01:00</time>
      </trkpt>
      <trkpt lat="43.5975" lon="3.67149">
        <ele>167</ele>
        <time>2021-03-16T15:24:54+01:00</time>
      </trkpt>
      <trkpt lat="43.59752" lon="3.67156">
        <ele>167</ele>
        <time>2021-03-16T15:24:55+01:00</time>
      </trkpt>
      <trkpt lat="43.59764" lon="3.67216">
        <ele>169</ele>
        <time>2021-03-16T15:25:04+01:00</time>
      </trkpt>
      <trkpt lat="43.59766" lon="3.67223">
        <ele>169</ele>
        <time>2021-03-16T15:25:05+01:00</time>
      </trkpt>
      <trkpt lat="43.5977" lon="3.67235">
        <ele>169</ele>
        <time>2021-03-16T15:25:07+01:00</time>
      </trkpt>
      <trkpt lat="43.59773" lon="3.6724">
        <ele>169</ele>
        <time>2021-03-16T15:25:08+01:00</time>
      </trkpt>
      <trkpt lat="43.59805" lon="3.67318">
        <ele>172</ele>
        <time>2021-03-16T15:25:23+01:00</time>
      </trkpt>
      <trkpt lat="43.59816" lon="3.6739">
        <ele>177</ele>
        <time>2021-03-16T15:25:38+01:00</time>
      </trkpt>
      <trkpt lat="43.59803" lon="3.67435">
        <ele>179</ele>
        <time>2021-03-16T15:25:50+01:00</time>
      </trkpt>
      <trkpt lat="43.59762" lon="3.67491">
        <ele>182</ele>
        <time>2021-03-16T15:26:09+01:00</time>
      </trkpt>
      <trkpt lat="43.5974" lon="3.67548">
        <ele>182</ele>
        <time>2021-03-16T15:26:23+01:00</time>
      </trkpt>
      <trkpt lat="43.5977" lon="3.67584">
        <ele>181</ele>
        <time>2021-03-16T15:26:34+01:00</time>
      </trkpt>
      <trkpt lat="43.5983" lon="3.67624">
        <ele>184</ele>
        <time>2021-03-16T15:26:52+01:00</time>
      </trkpt>
      <trkpt lat="43.59826" lon="3.67671">
        <ele>186</ele>
        <time>2021-03-16T15:27:02+01:00</time>
      </trkpt>
      <trkpt lat="43.59776" lon="3.67706">
        <ele>188</ele>
        <time>2021-03-16T15:27:18+01:00</time>
      </trkpt>
      <trkpt lat="43.59763" lon="3.6772">
        <ele>188</ele>
        <time>2021-03-16T15:27:22+01:00</time>
      </trkpt>
      <trkpt lat="43.59741" lon="3.67786">
        <ele>189</ele>
        <time>2021-03-16T15:27:37+01:00</time>
      </trkpt>
      <trkpt lat="43.5972" lon="3.6788">
        <ele>192</ele>
        <time>2021-03-16T15:27:57+01:00</time>
      </trkpt>
      <trkpt lat="43.59703" lon="3.67924">
        <ele>194</ele>
        <time>2021-03-16T15:28:07+01:00</time>
      </trkpt>
      <trkpt lat="43.59684" lon="3.67965">
        <ele>198</ele>
        <time>2021-03-16T15:28:18+01:00</time>
      </trkpt>
      <trkpt lat="43.59657" lon="3.68015">
        <ele>203</ele>
        <time>2021-03-16T15:28:32+01:00</time>
      </trkpt>
      <trkpt lat="43.59632" lon="3.68089">
        <ele>204</ele>
        <time>2021-03-16T15:28:49+01:00</time>
      </trkpt>
      <trkpt lat="43.59628" lon="3.68187">
        <ele>204</ele>
        <time>2021-03-16T15:29:08+01:00</time>
      </trkpt>
      <trkpt lat="43.59628" lon="3.68204">
        <ele>204</ele>
        <time>2021-03-16T15:29:11+01:00</time>
      </trkpt>
      <trkpt lat="43.59627" lon="3.6821">
        <ele>204</ele>
        <time>2021-03-16T15:29:12+01:00</time>
      </trkpt>
      <trkpt lat="43.59626" lon="3.68215">
        <ele>203</ele>
        <time>2021-03-16T15:29:13+01:00</time>
      </trkpt>
      <trkpt lat="43.59625" lon="3.68221">
        <ele>203</ele>
        <time>2021-03-16T15:29:14+01:00</time>
      </trkpt>
      <trkpt lat="43.59622" lon="3.68225">
        <ele>203</ele>
        <time>2021-03-16T15:29:15+01:00</time>
      </trkpt>
      <trkpt lat="43.59619" lon="3.68229">
        <ele>203</ele>
        <time>2021-03-16T15:29:16+01:00</time>
      </trkpt>
      <trkpt lat="43.59616" lon="3.68233">
        <ele>203</ele>
        <time>2021-03-16T15:29:17+01:00</time>
      </trkpt>
      <trkpt lat="43.59612" lon="3.68236">
        <ele>202</ele>
        <time>2021-03-16T15:29:18+01:00</time>
      </trkpt>
      <trkpt lat="43.59607" lon="3.68237">
        <ele>203</ele>
        <time>2021-03-16T15:29:19+01:00</time>
      </trkpt>
      <trkpt lat="43.59603" lon="3.68238">
        <ele>203</ele>
        <time>2021-03-16T15:29:20+01:00</time>
      </trkpt>
      <trkpt lat="43.59598" lon="3.68238">
        <ele>202</ele>
        <time>2021-03-16T15:29:21+01:00</time>
      </trkpt>
      <trkpt lat="43.59594" lon="3.68237">
        <ele>202</ele>
        <time>2021-03-16T15:29:22+01:00</time>
      </trkpt>
      <trkpt lat="43.5959" lon="3.68236">
        <ele>202</ele>
        <time>2021-03-16T15:29:23+01:00</time>
      </trkpt>
      <trkpt lat="43.59585" lon="3.68234">
        <ele>202</ele>
        <time>2021-03-16T15:29:24+01:00</time>
      </trkpt>
      <trkpt lat="43.59523" lon="3.68208">
        <ele>201</ele>
        <time>2021-03-16T15:29:37+01:00</time>
      </trkpt>
      <trkpt lat="43.59518" lon="3.68208">
        <ele>201</ele>
        <time>2021-03-16T15:29:38+01:00</time>
      </trkpt>
      <trkpt lat="43.59473" lon="3.68222">
        <ele>201</ele>
        <time>2021-03-16T15:29:46+01:00</time>
      </trkpt>
      <trkpt lat="43.59468" lon="3.68227">
        <ele>200</ele>
        <time>2021-03-16T15:29:47+01:00</time>
      </trkpt>
      <trkpt lat="43.59465" lon="3.68233">
        <ele>200</ele>
        <time>2021-03-16T15:29:48+01:00</time>
      </trkpt>
      <trkpt lat="43.59462" lon="3.68241">
        <ele>200</ele>
        <time>2021-03-16T15:29:49+01:00</time>
      </trkpt>
      <trkpt lat="43.5946" lon="3.68248">
        <ele>200</ele>
        <time>2021-03-16T15:29:50+01:00</time>
      </trkpt>
      <trkpt lat="43.59457" lon="3.68256">
        <ele>199</ele>
        <time>2021-03-16T15:29:51+01:00</time>
      </trkpt>
      <trkpt lat="43.59429" lon="3.68332">
        <ele>197</ele>
        <time>2021-03-16T15:30:00+01:00</time>
      </trkpt>
      <trkpt lat="43.59414" lon="3.68382">
        <ele>194</ele>
        <time>2021-03-16T15:30:05+01:00</time>
      </trkpt>
      <trkpt lat="43.59413" lon="3.68392">
        <ele>194</ele>
        <time>2021-03-16T15:30:06+01:00</time>
      </trkpt>
      <trkpt lat="43.59413" lon="3.68401">
        <ele>193</ele>
        <time>2021-03-16T15:30:07+01:00</time>
      </trkpt>
      <trkpt lat="43.59414" lon="3.68409">
        <ele>192</ele>
        <time>2021-03-16T15:30:08+01:00</time>
      </trkpt>
      <trkpt lat="43.59416" lon="3.68417">
        <ele>192</ele>
        <time>2021-03-16T15:30:09+01:00</time>
      </trkpt>
      <trkpt lat="43.59419" lon="3.68424">
        <ele>191</ele>
        <time>2021-03-16T15:30:10+01:00</time>
      </trkpt>
      <trkpt lat="43.59423" lon="3.68431">
        <ele>191</ele>
        <time>2021-03-16T15:30:11+01:00</time>
      </trkpt>
      <trkpt lat="43.59428" lon="3.68438">
        <ele>191</ele>
        <time>2021-03-16T15:30:12+01:00</time>
      </trkpt>
      <trkpt lat="43.59434" lon="3.68444">
        <ele>191</ele>
        <time>2021-03-16T15:30:13+01:00</time>
      </trkpt>
      <trkpt lat="43.59454" lon="3.68475">
        <ele>189</ele>
        <time>2021-03-16T15:30:17+01:00</time>
      </trkpt>
      <trkpt lat="43.5947" lon="3.68522">
        <ele>186</ele>
        <time>2021-03-16T15:30:22+01:00</time>
      </trkpt>
      <trkpt lat="43.59471" lon="3.6853">
        <ele>186</ele>
        <time>2021-03-16T15:30:23+01:00</time>
      </trkpt>
      <trkpt lat="43.5947" lon="3.68538">
        <ele>185</ele>
        <time>2021-03-16T15:30:24+01:00</time>
      </trkpt>
      <trkpt lat="43.59467" lon="3.68546">
        <ele>185</ele>
        <time>2021-03-16T15:30:25+01:00</time>
      </trkpt>
      <trkpt lat="43.59463" lon="3.68551">
        <ele>184</ele>
        <time>2021-03-16T15:30:26+01:00</time>
      </trkpt>
      <trkpt lat="43.59458" lon="3.68554">
        <ele>183</ele>
        <time>2021-03-16T15:30:27+01:00</time>
      </trkpt>
      <trkpt lat="43.59453" lon="3.68556">
        <ele>182</ele>
        <time>2021-03-16T15:30:28+01:00</time>
      </trkpt>
      <trkpt lat="43.59447" lon="3.68557">
        <ele>182</ele>
        <time>2021-03-16T15:30:29+01:00</time>
      </trkpt>
      <trkpt lat="43.59442" lon="3.68558">
        <ele>181</ele>
        <time>2021-03-16T15:30:30+01:00</time>
      </trkpt>
      <trkpt lat="43.59389" lon="3.68557">
        <ele>177</ele>
        <time>2021-03-16T15:30:38+01:00</time>
      </trkpt>
      <trkpt lat="43.59363" lon="3.68556">
        <ele>175</ele>
        <time>2021-03-16T15:30:42+01:00</time>
      </trkpt>
      <trkpt lat="43.59357" lon="3.68558">
        <ele>174</ele>
        <time>2021-03-16T15:30:43+01:00</time>
      </trkpt>
      <trkpt lat="43.59352" lon="3.68561">
        <ele>174</ele>
        <time>2021-03-16T15:30:44+01:00</time>
      </trkpt>
      <trkpt lat="43.59347" lon="3.68565">
        <ele>173</ele>
        <time>2021-03-16T15:30:45+01:00</time>
      </trkpt>
      <trkpt lat="43.59341" lon="3.6857">
        <ele>173</ele>
        <time>2021-03-16T15:30:46+01:00</time>
      </trkpt>
      <trkpt lat="43.59336" lon="3.68576">
        <ele>173</ele>
        <time>2021-03-16T15:30:47+01:00</time>
      </trkpt>
      <trkpt lat="43.59332" lon="3.68583">
        <ele>173</ele>
        <time>2021-03-16T15:30:48+01:00</time>
      </trkpt>
      <trkpt lat="43.59327" lon="3.6859">
        <ele>172</ele>
        <time>2021-03-16T15:30:49+01:00</time>
      </trkpt>
      <trkpt lat="43.59296" lon="3.68628">
        <ele>169</ele>
        <time>2021-03-16T15:30:55+01:00</time>
      </trkpt>
      <trkpt lat="43.5929" lon="3.68632">
        <ele>168</ele>
        <time>2021-03-16T15:30:56+01:00</time>
      </trkpt>
      <trkpt lat="43.59283" lon="3.68636">
        <ele>167</ele>
        <time>2021-03-16T15:30:57+01:00</time>
      </trkpt>
      <trkpt lat="43.59252" lon="3.68663">
        <ele>164</ele>
        <time>2021-03-16T15:31:02+01:00</time>
      </trkpt>
      <trkpt lat="43.59246" lon="3.6867">
        <ele>164</ele>
        <time>2021-03-16T15:31:03+01:00</time>
      </trkpt>
      <trkpt lat="43.59242" lon="3.68679">
        <ele>163</ele>
        <time>2021-03-16T15:31:04+01:00</time>
      </trkpt>
      <trkpt lat="43.59238" lon="3.68688">
        <ele>163</ele>
        <time>2021-03-16T15:31:05+01:00</time>
      </trkpt>
      <trkpt lat="43.59234" lon="3.68697">
        <ele>163</ele>
        <time>2021-03-16T15:31:06+01:00</time>
      </trkpt>
      <trkpt lat="43.59231" lon="3.68707">
        <ele>162</ele>
        <time>2021-03-16T15:31:07+01:00</time>
      </trkpt>
      <trkpt lat="43.59229" lon="3.68717">
        <ele>162</ele>
        <time>2021-03-16T15:31:08+01:00</time>
      </trkpt>
      <trkpt lat="43.59227" lon="3.68728">
        <ele>162</ele>
        <time>2021-03-16T15:31:09+01:00</time>
      </trkpt>
      <trkpt lat="43.59225" lon="3.68739">
        <ele>161</ele>
        <time>2021-03-16T15:31:10+01:00</time>
      </trkpt>
      <trkpt lat="43.59223" lon="3.68783">
        <ele>158</ele>
        <time>2021-03-16T15:31:14+01:00</time>
      </trkpt>
      <trkpt lat="43.59223" lon="3.68823">
        <ele>154</ele>
        <time>2021-03-16T15:31:19+01:00</time>
      </trkpt>
      <trkpt lat="43.5922" lon="3.68827">
        <ele>153</ele>
        <time>2021-03-16T15:31:20+01:00</time>
      </trkpt>
      <trkpt lat="43.59216" lon="3.6883">
        <ele>153</ele>
        <time>2021-03-16T15:31:21+01:00</time>
      </trkpt>
      <trkpt lat="43.59212" lon="3.6883">
        <ele>152</ele>
        <time>2021-03-16T15:31:22+01:00</time>
      </trkpt>
      <trkpt lat="43.59208" lon="3.68828">
        <ele>152</ele>
        <time>2021-03-16T15:31:23+01:00</time>
      </trkpt>
      <trkpt lat="43.59204" lon="3.68823">
        <ele>151</ele>
        <time>2021-03-16T15:31:24+01:00</time>
      </trkpt>
      <trkpt lat="43.59201" lon="3.68818">
        <ele>151</ele>
        <time>2021-03-16T15:31:25+01:00</time>
      </trkpt>
      <trkpt lat="43.592" lon="3.68811">
        <ele>151</ele>
        <time>2021-03-16T15:31:26+01:00</time>
      </trkpt>
      <trkpt lat="43.5918" lon="3.6875">
        <ele>149</ele>
        <time>2021-03-16T15:31:33+01:00</time>
      </trkpt>
      <trkpt lat="43.59159" lon="3.68702">
        <ele>146</ele>
        <time>2021-03-16T15:31:38+01:00</time>
      </trkpt>
      <trkpt lat="43.59153" lon="3.68684">
        <ele>145</ele>
        <time>2021-03-16T15:31:40+01:00</time>
      </trkpt>
      <trkpt lat="43.59151" lon="3.68674">
        <ele>144</ele>
        <time>2021-03-16T15:31:41+01:00</time>
      </trkpt>
      <trkpt lat="43.59151" lon="3.68666">
        <ele>144</ele>
        <time>2021-03-16T15:31:42+01:00</time>
      </trkpt>
      <trkpt lat="43.59152" lon="3.68659">
        <ele>144</ele>
        <time>2021-03-16T15:31:43+01:00</time>
      </trkpt>
      <trkpt lat="43.59152" lon="3.68653">
        <ele>144</ele>
        <time>2021-03-16T15:31:44+01:00</time>
      </trkpt>
      <trkpt lat="43.59153" lon="3.68646">
        <ele>144</ele>
        <time>2021-03-16T15:31:45+01:00</time>
      </trkpt>
      <trkpt lat="43.59151" lon="3.6864">
        <ele>143</ele>
        <time>2021-03-16T15:31:46+01:00</time>
      </trkpt>
      <trkpt lat="43.59147" lon="3.68634">
        <ele>143</ele>
        <time>2021-03-16T15:31:47+01:00</time>
      </trkpt>
      <trkpt lat="43.59142" lon="3.6863">
        <ele>142</ele>
        <time>2021-03-16T15:31:48+01:00</time>
      </trkpt>
      <trkpt lat="43.59136" lon="3.68627">
        <ele>142</ele>
        <time>2021-03-16T15:31:49+01:00</time>
      </trkpt>
      <trkpt lat="43.5913" lon="3.68624">
        <ele>142</ele>
        <time>2021-03-16T15:31:50+01:00</time>
      </trkpt>
      <trkpt lat="43.59083" lon="3.68583">
        <ele>138</ele>
        <time>2021-03-16T15:31:58+01:00</time>
      </trkpt>
      <trkpt lat="43.59078" lon="3.68575">
        <ele>138</ele>
        <time>2021-03-16T15:31:59+01:00</time>
      </trkpt>
      <trkpt lat="43.59054" lon="3.6855">
        <ele>136</ele>
        <time>2021-03-16T15:32:03+01:00</time>
      </trkpt>
      <trkpt lat="43.59047" lon="3.68546">
        <ele>135</ele>
        <time>2021-03-16T15:32:04+01:00</time>
      </trkpt>
      <trkpt lat="43.59039" lon="3.68544">
        <ele>134</ele>
        <time>2021-03-16T15:32:05+01:00</time>
      </trkpt>
      <trkpt lat="43.59032" lon="3.68542">
        <ele>133</ele>
        <time>2021-03-16T15:32:06+01:00</time>
      </trkpt>
      <trkpt lat="43.59024" lon="3.68541">
        <ele>133</ele>
        <time>2021-03-16T15:32:07+01:00</time>
      </trkpt>
      <trkpt lat="43.58984" lon="3.68541">
        <ele>129</ele>
        <time>2021-03-16T15:32:12+01:00</time>
      </trkpt>
      <trkpt lat="43.58976" lon="3.68544">
        <ele>128</ele>
        <time>2021-03-16T15:32:13+01:00</time>
      </trkpt>
      <trkpt lat="43.58968" lon="3.68548">
        <ele>127</ele>
        <time>2021-03-16T15:32:14+01:00</time>
      </trkpt>
      <trkpt lat="43.5896" lon="3.68552">
        <ele>126</ele>
        <time>2021-03-16T15:32:15+01:00</time>
      </trkpt>
      <trkpt lat="43.58953" lon="3.68557">
        <ele>126</ele>
        <time>2021-03-16T15:32:16+01:00</time>
      </trkpt>
      <trkpt lat="43.58912" lon="3.68582">
        <ele>123</ele>
        <time>2021-03-16T15:32:21+01:00</time>
      </trkpt>
      <trkpt lat="43.58868" lon="3.68598">
        <ele>122</ele>
        <time>2021-03-16T15:32:26+01:00</time>
      </trkpt>
      <trkpt lat="43.58822" lon="3.68608">
        <ele>119</ele>
        <time>2021-03-16T15:32:32+01:00</time>
      </trkpt>
      <trkpt lat="43.58816" lon="3.68605">
        <ele>119</ele>
        <time>2021-03-16T15:32:33+01:00</time>
      </trkpt>
      <trkpt lat="43.58811" lon="3.68601">
        <ele>119</ele>
        <time>2021-03-16T15:32:34+01:00</time>
      </trkpt>
      <trkpt lat="43.58808" lon="3.68595">
        <ele>119</ele>
        <time>2021-03-16T15:32:35+01:00</time>
      </trkpt>
      <trkpt lat="43.58805" lon="3.68588">
        <ele>119</ele>
        <time>2021-03-16T15:32:36+01:00</time>
      </trkpt>
      <trkpt lat="43.58804" lon="3.68579">
        <ele>118</ele>
        <time>2021-03-16T15:32:37+01:00</time>
      </trkpt>
      <trkpt lat="43.58803" lon="3.6857">
        <ele>118</ele>
        <time>2021-03-16T15:32:38+01:00</time>
      </trkpt>
      <trkpt lat="43.58803" lon="3.68561">
        <ele>118</ele>
        <time>2021-03-16T15:32:39+01:00</time>
      </trkpt>
      <trkpt lat="43.58802" lon="3.68486">
        <ele>116</ele>
        <time>2021-03-16T15:32:47+01:00</time>
      </trkpt>
      <trkpt lat="43.58799" lon="3.68429">
        <ele>114</ele>
        <time>2021-03-16T15:32:54+01:00</time>
      </trkpt>
      <trkpt lat="43.58797" lon="3.68409">
        <ele>112</ele>
        <time>2021-03-16T15:32:59+01:00</time>
      </trkpt>
      <trkpt lat="43.58796" lon="3.68408">
        <ele>112</ele>
        <time>2021-03-16T15:33:00+01:00</time>
      </trkpt>
      <trkpt lat="43.58794" lon="3.68407">
        <ele>112</ele>
        <time>2021-03-16T15:33:01+01:00</time>
      </trkpt>
      <trkpt lat="43.58793" lon="3.68407">
        <ele>112</ele>
        <time>2021-03-16T15:33:02+01:00</time>
      </trkpt>
      <trkpt lat="43.58792" lon="3.68409">
        <ele>112</ele>
        <time>2021-03-16T15:33:09+01:00</time>
      </trkpt>
      <trkpt lat="43.58791" lon="3.6842">
        <ele>112</ele>
        <time>2021-03-16T15:34:09+01:00</time>
      </trkpt>
      <trkpt lat="43.58789" lon="3.6843">
        <ele>112</ele>
        <time>2021-03-16T15:34:11+01:00</time>
      </trkpt>
      <trkpt lat="43.58789" lon="3.68437">
        <ele>112</ele>
        <time>2021-03-16T15:34:12+01:00</time>
      </trkpt>
      <trkpt lat="43.58789" lon="3.68471">
        <ele>112</ele>
        <time>2021-03-16T15:34:18+01:00</time>
      </trkpt>
      <trkpt lat="43.5878" lon="3.68566">
        <ele>110</ele>
        <time>2021-03-16T15:34:34+01:00</time>
      </trkpt>
      <trkpt lat="43.58756" lon="3.68669">
        <ele>106</ele>
        <time>2021-03-16T15:34:49+01:00</time>
      </trkpt>
      <trkpt lat="43.58756" lon="3.68677">
        <ele>105</ele>
        <time>2021-03-16T15:34:50+01:00</time>
      </trkpt>
      <trkpt lat="43.58758" lon="3.68684">
        <ele>105</ele>
        <time>2021-03-16T15:34:51+01:00</time>
      </trkpt>
      <trkpt lat="43.5876" lon="3.68691">
        <ele>105</ele>
        <time>2021-03-16T15:34:52+01:00</time>
      </trkpt>
      <trkpt lat="43.58764" lon="3.68697">
        <ele>105</ele>
        <time>2021-03-16T15:34:53+01:00</time>
      </trkpt>
      <trkpt lat="43.58768" lon="3.68701">
        <ele>105</ele>
        <time>2021-03-16T15:34:54+01:00</time>
      </trkpt>
      <trkpt lat="43.58772" lon="3.68706">
        <ele>105</ele>
        <time>2021-03-16T15:34:55+01:00</time>
      </trkpt>
      <trkpt lat="43.58776" lon="3.68712">
        <ele>104</ele>
        <time>2021-03-16T15:34:56+01:00</time>
      </trkpt>
      <trkpt lat="43.58779" lon="3.68718">
        <ele>104</ele>
        <time>2021-03-16T15:34:57+01:00</time>
      </trkpt>
      <trkpt lat="43.58783" lon="3.68724">
        <ele>104</ele>
        <time>2021-03-16T15:34:58+01:00</time>
      </trkpt>
      <trkpt lat="43.58806" lon="3.68771">
        <ele>106</ele>
        <time>2021-03-16T15:35:08+01:00</time>
      </trkpt>
      <trkpt lat="43.58825" lon="3.68813">
        <ele>108</ele>
        <time>2021-03-16T15:35:20+01:00</time>
      </trkpt>
      <trkpt lat="43.58852" lon="3.68849">
        <ele>111</ele>
        <time>2021-03-16T15:35:35+01:00</time>
      </trkpt>
      <trkpt lat="43.58868" lon="3.68883">
        <ele>113</ele>
        <time>2021-03-16T15:35:48+01:00</time>
      </trkpt>
      <trkpt lat="43.58901" lon="3.68926">
        <ele>119</ele>
        <time>2021-03-16T15:36:02+01:00</time>
      </trkpt>
      <trkpt lat="43.5893" lon="3.68952">
        <ele>122</ele>
        <time>2021-03-16T15:36:14+01:00</time>
      </trkpt>
      <trkpt lat="43.58964" lon="3.68979">
        <ele>124</ele>
        <time>2021-03-16T15:36:27+01:00</time>
      </trkpt>
      <trkpt lat="43.59023" lon="3.69024">
        <ele>125</ele>
        <time>2021-03-16T15:36:48+01:00</time>
      </trkpt>
      <trkpt lat="43.59056" lon="3.6907">
        <ele>127</ele>
        <time>2021-03-16T15:37:02+01:00</time>
      </trkpt>
      <trkpt lat="43.59069" lon="3.69117">
        <ele>130</ele>
        <time>2021-03-16T15:37:14+01:00</time>
      </trkpt>
      <trkpt lat="43.59087" lon="3.69164">
        <ele>132</ele>
        <time>2021-03-16T15:37:27+01:00</time>
      </trkpt>
      <trkpt lat="43.59118" lon="3.69211">
        <ele>134</ele>
        <time>2021-03-16T15:37:43+01:00</time>
      </trkpt>
      <trkpt lat="43.59161" lon="3.69255">
        <ele>135</ele>
        <time>2021-03-16T15:38:01+01:00</time>
      </trkpt>
      <trkpt lat="43.59194" lon="3.6928">
        <ele>134</ele>
        <time>2021-03-16T15:38:17+01:00</time>
      </trkpt>
      <trkpt lat="43.59206" lon="3.69273">
        <ele>134</ele>
        <time>2021-03-16T15:38:26+01:00</time>
      </trkpt>
      <trkpt lat="43.59207" lon="3.69274">
        <ele>134</ele>
        <time>2021-03-16T15:38:27+01:00</time>
      </trkpt>
      <trkpt lat="43.59208" lon="3.69275">
        <ele>134</ele>
        <time>2021-03-16T15:38:28+01:00</time>
      </trkpt>
      <trkpt lat="43.59209" lon="3.69275">
        <ele>134</ele>
        <time>2021-03-16T15:38:29+01:00</time>
      </trkpt>
      <trkpt lat="43.5921" lon="3.69276">
        <ele>134</ele>
        <time>2021-03-16T15:38:30+01:00</time>
      </trkpt>
      <trkpt lat="43.59211" lon="3.69277">
        <ele>133</ele>
        <time>2021-03-16T15:38:31+01:00</time>
      </trkpt>
      <trkpt lat="43.59212" lon="3.69279">
        <ele>133</ele>
        <time>2021-03-16T15:38:32+01:00</time>
      </trkpt>
      <trkpt lat="43.59217" lon="3.69315">
        <ele>130</ele>
        <time>2021-03-16T15:38:43+01:00</time>
      </trkpt>
      <trkpt lat="43.5922" lon="3.69327">
        <ele>130</ele>
        <time>2021-03-16T15:38:45+01:00</time>
      </trkpt>
      <trkpt lat="43.59222" lon="3.69332">
        <ele>129</ele>
        <time>2021-03-16T15:38:46+01:00</time>
      </trkpt>
      <trkpt lat="43.59255" lon="3.69396">
        <ele>124</ele>
        <time>2021-03-16T15:38:58+01:00</time>
      </trkpt>
      <trkpt lat="43.59256" lon="3.69401">
        <ele>124</ele>
        <time>2021-03-16T15:38:59+01:00</time>
      </trkpt>
      <trkpt lat="43.59257" lon="3.69407">
        <ele>124</ele>
        <time>2021-03-16T15:39:00+01:00</time>
      </trkpt>
      <trkpt lat="43.59257" lon="3.69413">
        <ele>125</ele>
        <time>2021-03-16T15:39:01+01:00</time>
      </trkpt>
      <trkpt lat="43.59257" lon="3.69418">
        <ele>125</ele>
        <time>2021-03-16T15:39:02+01:00</time>
      </trkpt>
      <trkpt lat="43.59256" lon="3.69425">
        <ele>126</ele>
        <time>2021-03-16T15:39:03+01:00</time>
      </trkpt>
      <trkpt lat="43.59255" lon="3.6947">
        <ele>125</ele>
        <time>2021-03-16T15:39:09+01:00</time>
      </trkpt>
      <trkpt lat="43.59269" lon="3.69556">
        <ele>119</ele>
        <time>2021-03-16T15:39:17+01:00</time>
      </trkpt>
      <trkpt lat="43.5928" lon="3.69588">
        <ele>115</ele>
        <time>2021-03-16T15:39:20+01:00</time>
      </trkpt>
      <trkpt lat="43.59299" lon="3.69629">
        <ele>111</ele>
        <time>2021-03-16T15:39:24+01:00</time>
      </trkpt>
      <trkpt lat="43.59326" lon="3.69674">
        <ele>107</ele>
        <time>2021-03-16T15:39:29+01:00</time>
      </trkpt>
      <trkpt lat="43.59334" lon="3.69691">
        <ele>107</ele>
        <time>2021-03-16T15:39:31+01:00</time>
      </trkpt>
      <trkpt lat="43.59336" lon="3.69701">
        <ele>107</ele>
        <time>2021-03-16T15:39:32+01:00</time>
      </trkpt>
      <trkpt lat="43.59338" lon="3.69711">
        <ele>106</ele>
        <time>2021-03-16T15:39:33+01:00</time>
      </trkpt>
      <trkpt lat="43.59338" lon="3.69722">
        <ele>106</ele>
        <time>2021-03-16T15:39:34+01:00</time>
      </trkpt>
      <trkpt lat="43.59339" lon="3.69734">
        <ele>106</ele>
        <time>2021-03-16T15:39:35+01:00</time>
      </trkpt>
      <trkpt lat="43.59338" lon="3.69745">
        <ele>105</ele>
        <time>2021-03-16T15:39:36+01:00</time>
      </trkpt>
      <trkpt lat="43.59337" lon="3.69757">
        <ele>105</ele>
        <time>2021-03-16T15:39:37+01:00</time>
      </trkpt>
      <trkpt lat="43.59335" lon="3.69768">
        <ele>104</ele>
        <time>2021-03-16T15:39:38+01:00</time>
      </trkpt>
      <trkpt lat="43.59333" lon="3.69779">
        <ele>104</ele>
        <time>2021-03-16T15:39:39+01:00</time>
      </trkpt>
      <trkpt lat="43.59329" lon="3.6979">
        <ele>104</ele>
        <time>2021-03-16T15:39:40+01:00</time>
      </trkpt>
      <trkpt lat="43.59325" lon="3.698">
        <ele>104</ele>
        <time>2021-03-16T15:39:41+01:00</time>
      </trkpt>
      <trkpt lat="43.59308" lon="3.69846">
        <ele>101</ele>
        <time>2021-03-16T15:39:46+01:00</time>
      </trkpt>
      <trkpt lat="43.59304" lon="3.69854">
        <ele>100</ele>
        <time>2021-03-16T15:39:47+01:00</time>
      </trkpt>
      <trkpt lat="43.59299" lon="3.69861">
        <ele>99</ele>
        <time>2021-03-16T15:39:48+01:00</time>
      </trkpt>
      <trkpt lat="43.59293" lon="3.69869">
        <ele>98</ele>
        <time>2021-03-16T15:39:49+01:00</time>
      </trkpt>
      <trkpt lat="43.59269" lon="3.69894">
        <ele>96</ele>
        <time>2021-03-16T15:39:53+01:00</time>
      </trkpt>
      <trkpt lat="43.59262" lon="3.69898">
        <ele>95</ele>
        <time>2021-03-16T15:39:54+01:00</time>
      </trkpt>
      <trkpt lat="43.59255" lon="3.69901">
        <ele>95</ele>
        <time>2021-03-16T15:39:55+01:00</time>
      </trkpt>
      <trkpt lat="43.59247" lon="3.69902">
        <ele>95</ele>
        <time>2021-03-16T15:39:56+01:00</time>
      </trkpt>
      <trkpt lat="43.59239" lon="3.69902">
        <ele>95</ele>
        <time>2021-03-16T15:39:57+01:00</time>
      </trkpt>
      <trkpt lat="43.5923" lon="3.69901">
        <ele>95</ele>
        <time>2021-03-16T15:39:58+01:00</time>
      </trkpt>
      <trkpt lat="43.59222" lon="3.69899">
        <ele>96</ele>
        <time>2021-03-16T15:39:59+01:00</time>
      </trkpt>
      <trkpt lat="43.59213" lon="3.69895">
        <ele>95</ele>
        <time>2021-03-16T15:40:00+01:00</time>
      </trkpt>
      <trkpt lat="43.59205" lon="3.69892">
        <ele>95</ele>
        <time>2021-03-16T15:40:01+01:00</time>
      </trkpt>
      <trkpt lat="43.59156" lon="3.69859">
        <ele>93</ele>
        <time>2021-03-16T15:40:07+01:00</time>
      </trkpt>
      <trkpt lat="43.59109" lon="3.69829">
        <ele>87</ele>
        <time>2021-03-16T15:40:13+01:00</time>
      </trkpt>
      <trkpt lat="43.59095" lon="3.69816">
        <ele>85</ele>
        <time>2021-03-16T15:40:16+01:00</time>
      </trkpt>
      <trkpt lat="43.59091" lon="3.69811">
        <ele>85</ele>
        <time>2021-03-16T15:40:17+01:00</time>
      </trkpt>
      <trkpt lat="43.59059" lon="3.69762">
        <ele>83</ele>
        <time>2021-03-16T15:40:24+01:00</time>
      </trkpt>
      <trkpt lat="43.59053" lon="3.69756">
        <ele>83</ele>
        <time>2021-03-16T15:40:25+01:00</time>
      </trkpt>
      <trkpt lat="43.59046" lon="3.6975">
        <ele>83</ele>
        <time>2021-03-16T15:40:26+01:00</time>
      </trkpt>
      <trkpt lat="43.59039" lon="3.69745">
        <ele>82</ele>
        <time>2021-03-16T15:40:27+01:00</time>
      </trkpt>
      <trkpt lat="43.59031" lon="3.69741">
        <ele>82</ele>
        <time>2021-03-16T15:40:28+01:00</time>
      </trkpt>
      <trkpt lat="43.59022" lon="3.69737">
        <ele>82</ele>
        <time>2021-03-16T15:40:29+01:00</time>
      </trkpt>
      <trkpt lat="43.58999" lon="3.69728">
        <ele>80</ele>
        <time>2021-03-16T15:40:32+01:00</time>
      </trkpt>
      <trkpt lat="43.58987" lon="3.69725">
        <ele>80</ele>
        <time>2021-03-16T15:40:34+01:00</time>
      </trkpt>
      <trkpt lat="43.58983" lon="3.69725">
        <ele>80</ele>
        <time>2021-03-16T15:40:35+01:00</time>
      </trkpt>
      <trkpt lat="43.58978" lon="3.69726">
        <ele>80</ele>
        <time>2021-03-16T15:40:36+01:00</time>
      </trkpt>
      <trkpt lat="43.58947" lon="3.69736">
        <ele>81</ele>
        <time>2021-03-16T15:40:46+01:00</time>
      </trkpt>
      <trkpt lat="43.58926" lon="3.69752">
        <ele>81</ele>
        <time>2021-03-16T15:40:55+01:00</time>
      </trkpt>
      <trkpt lat="43.58924" lon="3.69755">
        <ele>81</ele>
        <time>2021-03-16T15:40:56+01:00</time>
      </trkpt>
      <trkpt lat="43.58906" lon="3.69793">
        <ele>84</ele>
        <time>2021-03-16T15:41:06+01:00</time>
      </trkpt>
      <trkpt lat="43.58892" lon="3.69833">
        <ele>87</ele>
        <time>2021-03-16T15:41:17+01:00</time>
      </trkpt>
      <trkpt lat="43.58888" lon="3.69869">
        <ele>91</ele>
        <time>2021-03-16T15:41:27+01:00</time>
      </trkpt>
      <trkpt lat="43.5889" lon="3.6987">
        <ele>91</ele>
        <time>2021-03-16T15:41:28+01:00</time>
      </trkpt>
      <trkpt lat="43.58892" lon="3.69869">
        <ele>92</ele>
        <time>2021-03-16T15:41:29+01:00</time>
      </trkpt>
      <trkpt lat="43.58893" lon="3.69866">
        <ele>91</ele>
        <time>2021-03-16T15:41:30+01:00</time>
      </trkpt>
      <trkpt lat="43.58894" lon="3.69863">
        <ele>91</ele>
        <time>2021-03-16T15:41:31+01:00</time>
      </trkpt>
      <trkpt lat="43.58895" lon="3.69859">
        <ele>90</ele>
        <time>2021-03-16T15:41:32+01:00</time>
      </trkpt>
      <trkpt lat="43.58926" lon="3.69831">
        <ele>90</ele>
        <time>2021-03-16T15:41:44+01:00</time>
      </trkpt>
      <trkpt lat="43.58952" lon="3.6986">
        <ele>96</ele>
        <time>2021-03-16T15:41:56+01:00</time>
      </trkpt>
      <trkpt lat="43.58964" lon="3.69892">
        <ele>102</ele>
        <time>2021-03-16T15:42:05+01:00</time>
      </trkpt>
      <trkpt lat="43.58992" lon="3.69872">
        <ele>102</ele>
        <time>2021-03-16T15:42:14+01:00</time>
      </trkpt>
      <trkpt lat="43.59005" lon="3.69878">
        <ele>102</ele>
        <time>2021-03-16T15:42:18+01:00</time>
      </trkpt>
      <trkpt lat="43.59006" lon="3.69884">
        <ele>103</ele>
        <time>2021-03-16T15:42:19+01:00</time>
      </trkpt>
      <trkpt lat="43.59005" lon="3.69889">
        <ele>103</ele>
        <time>2021-03-16T15:42:20+01:00</time>
      </trkpt>
      <trkpt lat="43.59004" lon="3.69895">
        <ele>104</ele>
        <time>2021-03-16T15:42:21+01:00</time>
      </trkpt>
      <trkpt lat="43.59002" lon="3.699">
        <ele>105</ele>
        <time>2021-03-16T15:42:22+01:00</time>
      </trkpt>
      <trkpt lat="43.59" lon="3.69936">
        <ele>109</ele>
        <time>2021-03-16T15:42:30+01:00</time>
      </trkpt>
      <trkpt lat="43.59013" lon="3.69965">
        <ele>112</ele>
        <time>2021-03-16T15:42:39+01:00</time>
      </trkpt>
      <trkpt lat="43.59037" lon="3.69998">
        <ele>115</ele>
        <time>2021-03-16T15:42:51+01:00</time>
      </trkpt>
      <trkpt lat="43.59079" lon="3.70049">
        <ele>117</ele>
        <time>2021-03-16T15:43:10+01:00</time>
      </trkpt>
      <trkpt lat="43.59117" lon="3.7011">
        <ele>122</ele>
        <time>2021-03-16T15:43:30+01:00</time>
      </trkpt>
      <trkpt lat="43.59127" lon="3.70142">
        <ele>125</ele>
        <time>2021-03-16T15:43:40+01:00</time>
      </trkpt>
      <trkpt lat="43.59153" lon="3.70194">
        <ele>125</ele>
        <time>2021-03-16T15:43:56+01:00</time>
      </trkpt>
      <trkpt lat="43.59207" lon="3.70234">
        <ele>128</ele>
        <time>2021-03-16T15:44:18+01:00</time>
      </trkpt>
      <trkpt lat="43.59265" lon="3.70251">
        <ele>128</ele>
        <time>2021-03-16T15:44:39+01:00</time>
      </trkpt>
      <trkpt lat="43.59302" lon="3.70291">
        <ele>129</ele>
        <time>2021-03-16T15:44:55+01:00</time>
      </trkpt>
      <trkpt lat="43.59337" lon="3.70313">
        <ele>129</ele>
        <time>2021-03-16T15:45:13+01:00</time>
      </trkpt>
      <trkpt lat="43.59338" lon="3.70312">
        <ele>129</ele>
        <time>2021-03-16T15:45:16+01:00</time>
      </trkpt>
      <trkpt lat="43.59343" lon="3.70313">
        <ele>129</ele>
        <time>2021-03-16T15:47:20+01:00</time>
      </trkpt>
      <trkpt lat="43.59384" lon="3.7033">
        <ele>130</ele>
        <time>2021-03-16T15:47:34+01:00</time>
      </trkpt>
      <trkpt lat="43.5944" lon="3.70352">
        <ele>130</ele>
        <time>2021-03-16T15:47:51+01:00</time>
      </trkpt>
      <trkpt lat="43.59466" lon="3.70389">
        <ele>130</ele>
        <time>2021-03-16T15:48:04+01:00</time>
      </trkpt>
      <trkpt lat="43.5946" lon="3.70458">
        <ele>134</ele>
        <time>2021-03-16T15:48:20+01:00</time>
      </trkpt>
      <trkpt lat="43.59445" lon="3.70551">
        <ele>135</ele>
        <time>2021-03-16T15:48:38+01:00</time>
      </trkpt>
      <trkpt lat="43.59422" lon="3.70577">
        <ele>133</ele>
        <time>2021-03-16T15:48:49+01:00</time>
      </trkpt>
      <trkpt lat="43.59408" lon="3.70624">
        <ele>131</ele>
        <time>2021-03-16T15:48:59+01:00</time>
      </trkpt>
      <trkpt lat="43.59398" lon="3.70655">
        <ele>128</ele>
        <time>2021-03-16T15:49:04+01:00</time>
      </trkpt>
      <trkpt lat="43.59395" lon="3.7066">
        <ele>128</ele>
        <time>2021-03-16T15:49:05+01:00</time>
      </trkpt>
      <trkpt lat="43.5939" lon="3.70664">
        <ele>127</ele>
        <time>2021-03-16T15:49:06+01:00</time>
      </trkpt>
      <trkpt lat="43.59385" lon="3.70666">
        <ele>127</ele>
        <time>2021-03-16T15:49:07+01:00</time>
      </trkpt>
      <trkpt lat="43.59379" lon="3.70666">
        <ele>126</ele>
        <time>2021-03-16T15:49:08+01:00</time>
      </trkpt>
      <trkpt lat="43.59374" lon="3.70664">
        <ele>126</ele>
        <time>2021-03-16T15:49:09+01:00</time>
      </trkpt>
      <trkpt lat="43.59369" lon="3.70661">
        <ele>126</ele>
        <time>2021-03-16T15:49:10+01:00</time>
      </trkpt>
      <trkpt lat="43.59364" lon="3.70658">
        <ele>126</ele>
        <time>2021-03-16T15:49:11+01:00</time>
      </trkpt>
      <trkpt lat="43.5936" lon="3.70654">
        <ele>125</ele>
        <time>2021-03-16T15:49:12+01:00</time>
      </trkpt>
      <trkpt lat="43.59316" lon="3.70625">
        <ele>126</ele>
        <time>2021-03-16T15:49:21+01:00</time>
      </trkpt>
      <trkpt lat="43.59312" lon="3.70621">
        <ele>126</ele>
        <time>2021-03-16T15:49:22+01:00</time>
      </trkpt>
      <trkpt lat="43.59251" lon="3.70571">
        <ele>124</ele>
        <time>2021-03-16T15:49:37+01:00</time>
      </trkpt>
      <trkpt lat="43.59202" lon="3.70539">
        <ele>125</ele>
        <time>2021-03-16T15:49:48+01:00</time>
      </trkpt>
      <trkpt lat="43.59168" lon="3.70521">
        <ele>125</ele>
        <time>2021-03-16T15:49:56+01:00</time>
      </trkpt>
      <trkpt lat="43.59163" lon="3.70521">
        <ele>125</ele>
        <time>2021-03-16T15:49:57+01:00</time>
      </trkpt>
      <trkpt lat="43.59158" lon="3.70522">
        <ele>125</ele>
        <time>2021-03-16T15:49:58+01:00</time>
      </trkpt>
      <trkpt lat="43.59154" lon="3.70523">
        <ele>125</ele>
        <time>2021-03-16T15:49:59+01:00</time>
      </trkpt>
      <trkpt lat="43.59149" lon="3.70525">
        <ele>126</ele>
        <time>2021-03-16T15:50:00+01:00</time>
      </trkpt>
      <trkpt lat="43.59145" lon="3.70527">
        <ele>126</ele>
        <time>2021-03-16T15:50:01+01:00</time>
      </trkpt>
      <trkpt lat="43.5914" lon="3.70529">
        <ele>126</ele>
        <time>2021-03-16T15:50:02+01:00</time>
      </trkpt>
      <trkpt lat="43.59108" lon="3.70554">
        <ele>126</ele>
        <time>2021-03-16T15:50:09+01:00</time>
      </trkpt>
      <trkpt lat="43.59104" lon="3.70559">
        <ele>126</ele>
        <time>2021-03-16T15:50:10+01:00</time>
      </trkpt>
      <trkpt lat="43.59097" lon="3.7057">
        <ele>126</ele>
        <time>2021-03-16T15:50:12+01:00</time>
      </trkpt>
      <trkpt lat="43.59094" lon="3.70575">
        <ele>126</ele>
        <time>2021-03-16T15:50:13+01:00</time>
      </trkpt>
      <trkpt lat="43.59085" lon="3.70599">
        <ele>126</ele>
        <time>2021-03-16T15:50:17+01:00</time>
      </trkpt>
      <trkpt lat="43.59082" lon="3.70611">
        <ele>126</ele>
        <time>2021-03-16T15:50:19+01:00</time>
      </trkpt>
      <trkpt lat="43.59082" lon="3.70617">
        <ele>125</ele>
        <time>2021-03-16T15:50:20+01:00</time>
      </trkpt>
      <trkpt lat="43.59082" lon="3.70623">
        <ele>125</ele>
        <time>2021-03-16T15:50:21+01:00</time>
      </trkpt>
      <trkpt lat="43.59082" lon="3.70629">
        <ele>125</ele>
        <time>2021-03-16T15:50:22+01:00</time>
      </trkpt>
      <trkpt lat="43.59082" lon="3.70636">
        <ele>125</ele>
        <time>2021-03-16T15:50:23+01:00</time>
      </trkpt>
      <trkpt lat="43.59083" lon="3.70641">
        <ele>125</ele>
        <time>2021-03-16T15:50:24+01:00</time>
      </trkpt>
      <trkpt lat="43.59091" lon="3.70685">
        <ele>120</ele>
        <time>2021-03-16T15:50:30+01:00</time>
      </trkpt>
      <trkpt lat="43.591" lon="3.70758">
        <ele>116</ele>
        <time>2021-03-16T15:50:38+01:00</time>
      </trkpt>
      <trkpt lat="43.59104" lon="3.70767">
        <ele>116</ele>
        <time>2021-03-16T15:50:39+01:00</time>
      </trkpt>
      <trkpt lat="43.59123" lon="3.70811">
        <ele>114</ele>
        <time>2021-03-16T15:50:44+01:00</time>
      </trkpt>
      <trkpt lat="43.59131" lon="3.70826">
        <ele>113</ele>
        <time>2021-03-16T15:50:46+01:00</time>
      </trkpt>
      <trkpt lat="43.59136" lon="3.70831">
        <ele>112</ele>
        <time>2021-03-16T15:50:47+01:00</time>
      </trkpt>
      <trkpt lat="43.59141" lon="3.70836">
        <ele>112</ele>
        <time>2021-03-16T15:50:48+01:00</time>
      </trkpt>
      <trkpt lat="43.59146" lon="3.70839">
        <ele>111</ele>
        <time>2021-03-16T15:50:49+01:00</time>
      </trkpt>
      <trkpt lat="43.59152" lon="3.70842">
        <ele>111</ele>
        <time>2021-03-16T15:50:50+01:00</time>
      </trkpt>
      <trkpt lat="43.59158" lon="3.70843">
        <ele>110</ele>
        <time>2021-03-16T15:50:51+01:00</time>
      </trkpt>
      <trkpt lat="43.59164" lon="3.70843">
        <ele>110</ele>
        <time>2021-03-16T15:50:52+01:00</time>
      </trkpt>
      <trkpt lat="43.59171" lon="3.70842">
        <ele>110</ele>
        <time>2021-03-16T15:50:53+01:00</time>
      </trkpt>
      <trkpt lat="43.59177" lon="3.70841">
        <ele>110</ele>
        <time>2021-03-16T15:50:54+01:00</time>
      </trkpt>
      <trkpt lat="43.59214" lon="3.70831">
        <ele>108</ele>
        <time>2021-03-16T15:51:00+01:00</time>
      </trkpt>
      <trkpt lat="43.59219" lon="3.70831">
        <ele>108</ele>
        <time>2021-03-16T15:51:01+01:00</time>
      </trkpt>
      <trkpt lat="43.59224" lon="3.70832">
        <ele>107</ele>
        <time>2021-03-16T15:51:02+01:00</time>
      </trkpt>
      <trkpt lat="43.59227" lon="3.70836">
        <ele>106</ele>
        <time>2021-03-16T15:51:03+01:00</time>
      </trkpt>
      <trkpt lat="43.59229" lon="3.7084">
        <ele>106</ele>
        <time>2021-03-16T15:51:04+01:00</time>
      </trkpt>
      <trkpt lat="43.59229" lon="3.70845">
        <ele>105</ele>
        <time>2021-03-16T15:51:05+01:00</time>
      </trkpt>
      <trkpt lat="43.59228" lon="3.7085">
        <ele>104</ele>
        <time>2021-03-16T15:51:06+01:00</time>
      </trkpt>
      <trkpt lat="43.59226" lon="3.70854">
        <ele>103</ele>
        <time>2021-03-16T15:51:07+01:00</time>
      </trkpt>
      <trkpt lat="43.59224" lon="3.70858">
        <ele>103</ele>
        <time>2021-03-16T15:51:08+01:00</time>
      </trkpt>
      <trkpt lat="43.59221" lon="3.7086">
        <ele>102</ele>
        <time>2021-03-16T15:51:09+01:00</time>
      </trkpt>
      <trkpt lat="43.59218" lon="3.70864">
        <ele>102</ele>
        <time>2021-03-16T15:51:10+01:00</time>
      </trkpt>
      <trkpt lat="43.59216" lon="3.70868">
        <ele>102</ele>
        <time>2021-03-16T15:51:11+01:00</time>
      </trkpt>
      <trkpt lat="43.59165" lon="3.70932">
        <ele>103</ele>
        <time>2021-03-16T15:51:30+01:00</time>
      </trkpt>
      <trkpt lat="43.59116" lon="3.70968">
        <ele>105</ele>
        <time>2021-03-16T15:51:48+01:00</time>
      </trkpt>
      <trkpt lat="43.5909" lon="3.71005">
        <ele>109</ele>
        <time>2021-03-16T15:52:01+01:00</time>
      </trkpt>
      <trkpt lat="43.59065" lon="3.70996">
        <ele>108</ele>
        <time>2021-03-16T15:52:12+01:00</time>
      </trkpt>
      <trkpt lat="43.59013" lon="3.70989">
        <ele>113</ele>
        <time>2021-03-16T15:52:32+01:00</time>
      </trkpt>
      <trkpt lat="43.58988" lon="3.70955">
        <ele>114</ele>
        <time>2021-03-16T15:52:46+01:00</time>
      </trkpt>
      <trkpt lat="43.58969" lon="3.70893">
        <ele>115</ele>
        <time>2021-03-16T15:53:05+01:00</time>
      </trkpt>
      <trkpt lat="43.58942" lon="3.70819">
        <ele>120</ele>
        <time>2021-03-16T15:53:28+01:00</time>
      </trkpt>
      <trkpt lat="43.58931" lon="3.70752">
        <ele>121</ele>
        <time>2021-03-16T15:53:48+01:00</time>
      </trkpt>
      <trkpt lat="43.589" lon="3.70704">
        <ele>122</ele>
        <time>2021-03-16T15:54:05+01:00</time>
      </trkpt>
      <trkpt lat="43.5886" lon="3.70662">
        <ele>121</ele>
        <time>2021-03-16T15:54:25+01:00</time>
      </trkpt>
      <trkpt lat="43.58804" lon="3.70626">
        <ele>124</ele>
        <time>2021-03-16T15:54:41+01:00</time>
      </trkpt>
      <trkpt lat="43.58744" lon="3.70564">
        <ele>126</ele>
        <time>2021-03-16T15:54:57+01:00</time>
      </trkpt>
      <trkpt lat="43.58653" lon="3.70495">
        <ele>125</ele>
        <time>2021-03-16T15:55:18+01:00</time>
      </trkpt>
      <trkpt lat="43.58648" lon="3.70494">
        <ele>125</ele>
        <time>2021-03-16T15:55:19+01:00</time>
      </trkpt>
      <trkpt lat="43.58643" lon="3.70494">
        <ele>125</ele>
        <time>2021-03-16T15:55:20+01:00</time>
      </trkpt>
      <trkpt lat="43.58638" lon="3.70497">
        <ele>125</ele>
        <time>2021-03-16T15:55:21+01:00</time>
      </trkpt>
      <trkpt lat="43.58635" lon="3.70501">
        <ele>125</ele>
        <time>2021-03-16T15:55:22+01:00</time>
      </trkpt>
      <trkpt lat="43.58631" lon="3.70505">
        <ele>125</ele>
        <time>2021-03-16T15:55:23+01:00</time>
      </trkpt>
      <trkpt lat="43.58629" lon="3.70511">
        <ele>126</ele>
        <time>2021-03-16T15:55:24+01:00</time>
      </trkpt>
      <trkpt lat="43.58629" lon="3.70518">
        <ele>126</ele>
        <time>2021-03-16T15:55:25+01:00</time>
      </trkpt>
      <trkpt lat="43.58629" lon="3.70524">
        <ele>126</ele>
        <time>2021-03-16T15:55:26+01:00</time>
      </trkpt>
      <trkpt lat="43.5863" lon="3.7053">
        <ele>127</ele>
        <time>2021-03-16T15:55:27+01:00</time>
      </trkpt>
      <trkpt lat="43.5863" lon="3.70536">
        <ele>127</ele>
        <time>2021-03-16T15:55:28+01:00</time>
      </trkpt>
      <trkpt lat="43.58628" lon="3.70543">
        <ele>127</ele>
        <time>2021-03-16T15:55:29+01:00</time>
      </trkpt>
      <trkpt lat="43.58612" lon="3.70609">
        <ele>129</ele>
        <time>2021-03-16T15:55:40+01:00</time>
      </trkpt>
      <trkpt lat="43.5861" lon="3.70694">
        <ele>130</ele>
        <time>2021-03-16T15:55:53+01:00</time>
      </trkpt>
      <trkpt lat="43.5861" lon="3.70701">
        <ele>130</ele>
        <time>2021-03-16T15:55:54+01:00</time>
      </trkpt>
      <trkpt lat="43.58607" lon="3.70718">
        <ele>131</ele>
        <time>2021-03-16T15:55:57+01:00</time>
      </trkpt>
      <trkpt lat="43.58608" lon="3.70758">
        <ele>130</ele>
        <time>2021-03-16T15:56:09+01:00</time>
      </trkpt>
      <trkpt lat="43.58608" lon="3.70758">
        <ele>130</ele>
        <time>2021-03-16T15:56:11+01:00</time>
      </trkpt>
      <trkpt lat="43.58605" lon="3.70768">
        <ele>130</ele>
        <time>2021-03-16T15:57:34+01:00</time>
      </trkpt>
      <trkpt lat="43.58605" lon="3.70772">
        <ele>129</ele>
        <time>2021-03-16T15:57:35+01:00</time>
      </trkpt>
      <trkpt lat="43.58601" lon="3.7086">
        <ele>125</ele>
        <time>2021-03-16T15:57:49+01:00</time>
      </trkpt>
      <trkpt lat="43.586" lon="3.70954">
        <ele>122</ele>
        <time>2021-03-16T15:58:00+01:00</time>
      </trkpt>
      <trkpt lat="43.58604" lon="3.71014">
        <ele>120</ele>
        <time>2021-03-16T15:58:06+01:00</time>
      </trkpt>
      <trkpt lat="43.58604" lon="3.71023">
        <ele>120</ele>
        <time>2021-03-16T15:58:07+01:00</time>
      </trkpt>
      <trkpt lat="43.58599" lon="3.7113">
        <ele>119</ele>
        <time>2021-03-16T15:58:19+01:00</time>
      </trkpt>
      <trkpt lat="43.58601" lon="3.71209">
        <ele>119</ele>
        <time>2021-03-16T15:58:30+01:00</time>
      </trkpt>
      <trkpt lat="43.586" lon="3.71215">
        <ele>119</ele>
        <time>2021-03-16T15:58:31+01:00</time>
      </trkpt>
      <trkpt lat="43.58598" lon="3.7122">
        <ele>119</ele>
        <time>2021-03-16T15:58:32+01:00</time>
      </trkpt>
      <trkpt lat="43.58596" lon="3.71223">
        <ele>118</ele>
        <time>2021-03-16T15:58:33+01:00</time>
      </trkpt>
      <trkpt lat="43.58593" lon="3.71225">
        <ele>118</ele>
        <time>2021-03-16T15:58:34+01:00</time>
      </trkpt>
      <trkpt lat="43.58592" lon="3.71226">
        <ele>118</ele>
        <time>2021-03-16T15:58:35+01:00</time>
      </trkpt>
      <trkpt lat="43.58591" lon="3.71227">
        <ele>118</ele>
        <time>2021-03-16T15:58:36+01:00</time>
      </trkpt>
      <trkpt lat="43.58589" lon="3.71227">
        <ele>118</ele>
        <time>2021-03-16T15:58:37+01:00</time>
      </trkpt>
      <trkpt lat="43.5858" lon="3.71231">
        <ele>118</ele>
        <time>2021-03-16T15:58:45+01:00</time>
      </trkpt>
      <trkpt lat="43.5858" lon="3.71233">
        <ele>118</ele>
        <time>2021-03-16T15:58:46+01:00</time>
      </trkpt>
      <trkpt lat="43.5858" lon="3.71233">
        <ele>118</ele>
        <time>2021-03-16T15:58:51+01:00</time>
      </trkpt>
      <trkpt lat="43.58582" lon="3.71243">
        <ele>118</ele>
        <time>2021-03-16T16:00:19+01:00</time>
      </trkpt>
      <trkpt lat="43.5858" lon="3.71261">
        <ele>118</ele>
        <time>2021-03-16T16:00:24+01:00</time>
      </trkpt>
      <trkpt lat="43.58576" lon="3.71295">
        <ele>118</ele>
        <time>2021-03-16T16:00:35+01:00</time>
      </trkpt>
      <trkpt lat="43.5859" lon="3.71309">
        <ele>118</ele>
        <time>2021-03-16T16:00:41+01:00</time>
      </trkpt>
      <trkpt lat="43.58619" lon="3.71328">
        <ele>118</ele>
        <time>2021-03-16T16:00:50+01:00</time>
      </trkpt>
      <trkpt lat="43.58618" lon="3.71333">
        <ele>118</ele>
        <time>2021-03-16T16:00:51+01:00</time>
      </trkpt>
      <trkpt lat="43.58618" lon="3.71348">
        <ele>118</ele>
        <time>2021-03-16T16:00:54+01:00</time>
      </trkpt>
      <trkpt lat="43.58607" lon="3.71421">
        <ele>118</ele>
        <time>2021-03-16T16:01:07+01:00</time>
      </trkpt>
      <trkpt lat="43.58603" lon="3.71526">
        <ele>117</ele>
        <time>2021-03-16T16:01:23+01:00</time>
      </trkpt>
      <trkpt lat="43.58608" lon="3.71616">
        <ele>116</ele>
        <time>2021-03-16T16:01:37+01:00</time>
      </trkpt>
      <trkpt lat="43.58609" lon="3.7162">
        <ele>116</ele>
        <time>2021-03-16T16:01:38+01:00</time>
      </trkpt>
      <trkpt lat="43.58611" lon="3.71624">
        <ele>116</ele>
        <time>2021-03-16T16:01:39+01:00</time>
      </trkpt>
      <trkpt lat="43.58612" lon="3.71629">
        <ele>116</ele>
        <time>2021-03-16T16:01:40+01:00</time>
      </trkpt>
      <trkpt lat="43.58612" lon="3.71635">
        <ele>116</ele>
        <time>2021-03-16T16:01:41+01:00</time>
      </trkpt>
      <trkpt lat="43.58612" lon="3.71642">
        <ele>116</ele>
        <time>2021-03-16T16:01:42+01:00</time>
      </trkpt>
      <trkpt lat="43.58613" lon="3.71649">
        <ele>116</ele>
        <time>2021-03-16T16:01:43+01:00</time>
      </trkpt>
      <trkpt lat="43.58619" lon="3.71754">
        <ele>115</ele>
        <time>2021-03-16T16:01:58+01:00</time>
      </trkpt>
      <trkpt lat="43.58621" lon="3.71768">
        <ele>115</ele>
        <time>2021-03-16T16:02:00+01:00</time>
      </trkpt>
      <trkpt lat="43.58641" lon="3.7187">
        <ele>115</ele>
        <time>2021-03-16T16:02:16+01:00</time>
      </trkpt>
      <trkpt lat="43.5865" lon="3.71913">
        <ele>115</ele>
        <time>2021-03-16T16:02:25+01:00</time>
      </trkpt>
      <trkpt lat="43.58658" lon="3.71982">
        <ele>116</ele>
        <time>2021-03-16T16:02:40+01:00</time>
      </trkpt>
      <trkpt lat="43.58659" lon="3.72033">
        <ele>116</ele>
        <time>2021-03-16T16:02:52+01:00</time>
      </trkpt>
      <trkpt lat="43.58663" lon="3.72097">
        <ele>117</ele>
        <time>2021-03-16T16:03:06+01:00</time>
      </trkpt>
      <trkpt lat="43.58672" lon="3.72148">
        <ele>117</ele>
        <time>2021-03-16T16:03:17+01:00</time>
      </trkpt>
      <trkpt lat="43.58678" lon="3.72195">
        <ele>118</ele>
        <time>2021-03-16T16:03:26+01:00</time>
      </trkpt>
      <trkpt lat="43.58676" lon="3.7223">
        <ele>118</ele>
        <time>2021-03-16T16:03:33+01:00</time>
      </trkpt>
      <trkpt lat="43.58679" lon="3.72241">
        <ele>118</ele>
        <time>2021-03-16T16:03:35+01:00</time>
      </trkpt>
      <trkpt lat="43.58682" lon="3.72289">
        <ele>117</ele>
        <time>2021-03-16T16:03:45+01:00</time>
      </trkpt>
      <trkpt lat="43.58685" lon="3.72301">
        <ele>117</ele>
        <time>2021-03-16T16:03:56+01:00</time>
      </trkpt>
      <trkpt lat="43.58688" lon="3.72306">
        <ele>117</ele>
        <time>2021-03-16T16:04:06+01:00</time>
      </trkpt>
      <trkpt lat="43.58689" lon="3.72308">
        <ele>117</ele>
        <time>2021-03-16T16:04:07+01:00</time>
      </trkpt>
      <trkpt lat="43.58691" lon="3.72309">
        <ele>117</ele>
        <time>2021-03-16T16:04:08+01:00</time>
      </trkpt>
      <trkpt lat="43.58694" lon="3.72311">
        <ele>117</ele>
        <time>2021-03-16T16:04:09+01:00</time>
      </trkpt>
      <trkpt lat="43.58697" lon="3.72313">
        <ele>117</ele>
        <time>2021-03-16T16:04:10+01:00</time>
      </trkpt>
      <trkpt lat="43.587" lon="3.72315">
        <ele>116</ele>
        <time>2021-03-16T16:04:11+01:00</time>
      </trkpt>
      <trkpt lat="43.5876" lon="3.7235">
        <ele>113</ele>
        <time>2021-03-16T16:04:23+01:00</time>
      </trkpt>
      <trkpt lat="43.58808" lon="3.72377">
        <ele>111</ele>
        <time>2021-03-16T16:04:31+01:00</time>
      </trkpt>
      <trkpt lat="43.58873" lon="3.72405">
        <ele>111</ele>
        <time>2021-03-16T16:04:45+01:00</time>
      </trkpt>
      <trkpt lat="43.58917" lon="3.7242">
        <ele>112</ele>
        <time>2021-03-16T16:05:00+01:00</time>
      </trkpt>
      <trkpt lat="43.58982" lon="3.72448">
        <ele>113</ele>
        <time>2021-03-16T16:05:21+01:00</time>
      </trkpt>
      <trkpt lat="43.59028" lon="3.72467">
        <ele>114</ele>
        <time>2021-03-16T16:05:36+01:00</time>
      </trkpt>
      <trkpt lat="43.59053" lon="3.72464">
        <ele>115</ele>
        <time>2021-03-16T16:05:45+01:00</time>
      </trkpt>
      <trkpt lat="43.59055" lon="3.72465">
        <ele>115</ele>
        <time>2021-03-16T16:05:46+01:00</time>
      </trkpt>
      <trkpt lat="43.59097" lon="3.72472">
        <ele>115</ele>
        <time>2021-03-16T16:06:01+01:00</time>
      </trkpt>
      <trkpt lat="43.59158" lon="3.72498">
        <ele>118</ele>
        <time>2021-03-16T16:06:21+01:00</time>
      </trkpt>
      <trkpt lat="43.59213" lon="3.72544">
        <ele>119</ele>
        <time>2021-03-16T16:06:39+01:00</time>
      </trkpt>
      <trkpt lat="43.59276" lon="3.72591">
        <ele>121</ele>
        <time>2021-03-16T16:06:52+01:00</time>
      </trkpt>
      <trkpt lat="43.59332" lon="3.7262">
        <ele>124</ele>
        <time>2021-03-16T16:07:02+01:00</time>
      </trkpt>
      <trkpt lat="43.59422" lon="3.7267">
        <ele>128</ele>
        <time>2021-03-16T16:07:19+01:00</time>
      </trkpt>
      <trkpt lat="43.59468" lon="3.72708">
        <ele>129</ele>
        <time>2021-03-16T16:07:29+01:00</time>
      </trkpt>
      <trkpt lat="43.59498" lon="3.72729">
        <ele>131</ele>
        <time>2021-03-16T16:07:37+01:00</time>
      </trkpt>
      <trkpt lat="43.59516" lon="3.72747">
        <ele>132</ele>
        <time>2021-03-16T16:07:44+01:00</time>
      </trkpt>
      <trkpt lat="43.59515" lon="3.72752">
        <ele>131</ele>
        <time>2021-03-16T16:07:45+01:00</time>
      </trkpt>
      <trkpt lat="43.59514" lon="3.72757">
        <ele>131</ele>
        <time>2021-03-16T16:07:46+01:00</time>
      </trkpt>
      <trkpt lat="43.59512" lon="3.72763">
        <ele>130</ele>
        <time>2021-03-16T16:07:47+01:00</time>
      </trkpt>
      <trkpt lat="43.5951" lon="3.72769">
        <ele>130</ele>
        <time>2021-03-16T16:07:48+01:00</time>
      </trkpt>
      <trkpt lat="43.59479" lon="3.72866">
        <ele>134</ele>
        <time>2021-03-16T16:08:04+01:00</time>
      </trkpt>
      <trkpt lat="43.59457" lon="3.72919">
        <ele>134</ele>
        <time>2021-03-16T16:08:19+01:00</time>
      </trkpt>
      <trkpt lat="43.59458" lon="3.72982">
        <ele>138</ele>
        <time>2021-03-16T16:08:35+01:00</time>
      </trkpt>
      <trkpt lat="43.59485" lon="3.73">
        <ele>140</ele>
        <time>2021-03-16T16:08:45+01:00</time>
      </trkpt>
      <trkpt lat="43.59528" lon="3.73016">
        <ele>143</ele>
        <time>2021-03-16T16:09:00+01:00</time>
      </trkpt>
      <trkpt lat="43.59536" lon="3.73034">
        <ele>143</ele>
        <time>2021-03-16T16:09:06+01:00</time>
      </trkpt>
      <trkpt lat="43.59534" lon="3.73037">
        <ele>143</ele>
        <time>2021-03-16T16:09:07+01:00</time>
      </trkpt>
      <trkpt lat="43.59533" lon="3.7304">
        <ele>143</ele>
        <time>2021-03-16T16:09:08+01:00</time>
      </trkpt>
      <trkpt lat="43.59531" lon="3.73042">
        <ele>143</ele>
        <time>2021-03-16T16:09:09+01:00</time>
      </trkpt>
      <trkpt lat="43.59529" lon="3.73044">
        <ele>143</ele>
        <time>2021-03-16T16:09:10+01:00</time>
      </trkpt>
      <trkpt lat="43.59528" lon="3.73045">
        <ele>143</ele>
        <time>2021-03-16T16:09:11+01:00</time>
      </trkpt>
      <trkpt lat="43.59527" lon="3.73045">
        <ele>143</ele>
        <time>2021-03-16T16:09:12+01:00</time>
      </trkpt>
      <trkpt lat="43.59527" lon="3.73045">
        <ele>143</ele>
        <time>2021-03-16T16:09:16+01:00</time>
      </trkpt>
      <trkpt lat="43.59523" lon="3.73047">
        <ele>143</ele>
        <time>2021-03-16T16:11:06+01:00</time>
      </trkpt>
      <trkpt lat="43.59488" lon="3.7307">
        <ele>144</ele>
        <time>2021-03-16T16:11:19+01:00</time>
      </trkpt>
      <trkpt lat="43.59443" lon="3.73094">
        <ele>144</ele>
        <time>2021-03-16T16:11:35+01:00</time>
      </trkpt>
      <trkpt lat="43.59392" lon="3.73115">
        <ele>143</ele>
        <time>2021-03-16T16:11:49+01:00</time>
      </trkpt>
      <trkpt lat="43.59329" lon="3.73133">
        <ele>145</ele>
        <time>2021-03-16T16:12:06+01:00</time>
      </trkpt>
      <trkpt lat="43.59298" lon="3.73153">
        <ele>146</ele>
        <time>2021-03-16T16:12:19+01:00</time>
      </trkpt>
      <trkpt lat="43.59278" lon="3.73199">
        <ele>146</ele>
        <time>2021-03-16T16:12:31+01:00</time>
      </trkpt>
      <trkpt lat="43.59262" lon="3.73236">
        <ele>145</ele>
        <time>2021-03-16T16:12:45+01:00</time>
      </trkpt>
      <trkpt lat="43.59247" lon="3.73263">
        <ele>143</ele>
        <time>2021-03-16T16:12:57+01:00</time>
      </trkpt>
      <trkpt lat="43.59235" lon="3.73287">
        <ele>139</ele>
        <time>2021-03-16T16:13:08+01:00</time>
      </trkpt>
      <trkpt lat="43.59221" lon="3.73311">
        <ele>136</ele>
        <time>2021-03-16T16:13:17+01:00</time>
      </trkpt>
      <trkpt lat="43.59212" lon="3.73327">
        <ele>133</ele>
        <time>2021-03-16T16:13:22+01:00</time>
      </trkpt>
      <trkpt lat="43.59176" lon="3.73355">
        <ele>131</ele>
        <time>2021-03-16T16:13:34+01:00</time>
      </trkpt>
      <trkpt lat="43.59148" lon="3.73376">
        <ele>130</ele>
        <time>2021-03-16T16:13:43+01:00</time>
      </trkpt>
      <trkpt lat="43.59111" lon="3.73397">
        <ele>128</ele>
        <time>2021-03-16T16:13:58+01:00</time>
      </trkpt>
      <trkpt lat="43.59089" lon="3.7341">
        <ele>126</ele>
        <time>2021-03-16T16:14:07+01:00</time>
      </trkpt>
      <trkpt lat="43.59056" lon="3.73427">
        <ele>125</ele>
        <time>2021-03-16T16:14:17+01:00</time>
      </trkpt>
      <trkpt lat="43.59036" lon="3.73435">
        <ele>124</ele>
        <time>2021-03-16T16:14:22+01:00</time>
      </trkpt>
      <trkpt lat="43.59002" lon="3.73434">
        <ele>122</ele>
        <time>2021-03-16T16:14:30+01:00</time>
      </trkpt>
      <trkpt lat="43.58993" lon="3.73432">
        <ele>122</ele>
        <time>2021-03-16T16:14:32+01:00</time>
      </trkpt>
      <trkpt lat="43.58989" lon="3.73432">
        <ele>122</ele>
        <time>2021-03-16T16:14:33+01:00</time>
      </trkpt>
      <trkpt lat="43.58964" lon="3.73442">
        <ele>122</ele>
        <time>2021-03-16T16:14:43+01:00</time>
      </trkpt>
      <trkpt lat="43.5894" lon="3.73472">
        <ele>124</ele>
        <time>2021-03-16T16:14:56+01:00</time>
      </trkpt>
      <trkpt lat="43.58901" lon="3.73539">
        <ele>126</ele>
        <time>2021-03-16T16:15:14+01:00</time>
      </trkpt>
      <trkpt lat="43.58879" lon="3.73578">
        <ele>126</ele>
        <time>2021-03-16T16:15:28+01:00</time>
      </trkpt>
      <trkpt lat="43.58851" lon="3.73617">
        <ele>123</ele>
        <time>2021-03-16T16:15:40+01:00</time>
      </trkpt>
      <trkpt lat="43.5883" lon="3.73643">
        <ele>121</ele>
        <time>2021-03-16T16:15:48+01:00</time>
      </trkpt>
      <trkpt lat="43.5882" lon="3.73651">
        <ele>121</ele>
        <time>2021-03-16T16:15:51+01:00</time>
      </trkpt>
      <trkpt lat="43.58796" lon="3.73662">
        <ele>119</ele>
        <time>2021-03-16T16:15:57+01:00</time>
      </trkpt>
      <trkpt lat="43.58766" lon="3.73685">
        <ele>116</ele>
        <time>2021-03-16T16:16:07+01:00</time>
      </trkpt>
      <trkpt lat="43.58735" lon="3.73723">
        <ele>112</ele>
        <time>2021-03-16T16:16:17+01:00</time>
      </trkpt>
      <trkpt lat="43.58722" lon="3.73741">
        <ele>110</ele>
        <time>2021-03-16T16:16:21+01:00</time>
      </trkpt>
      <trkpt lat="43.58695" lon="3.73778">
        <ele>108</ele>
        <time>2021-03-16T16:16:30+01:00</time>
      </trkpt>
      <trkpt lat="43.58678" lon="3.73798">
        <ele>106</ele>
        <time>2021-03-16T16:16:41+01:00</time>
      </trkpt>
      <trkpt lat="43.58678" lon="3.73798">
        <ele>106</ele>
        <time>2021-03-16T16:16:45+01:00</time>
      </trkpt>
      <trkpt lat="43.58674" lon="3.7381">
        <ele>106</ele>
        <time>2021-03-16T16:17:07+01:00</time>
      </trkpt>
      <trkpt lat="43.58675" lon="3.73816">
        <ele>106</ele>
        <time>2021-03-16T16:17:08+01:00</time>
      </trkpt>
      <trkpt lat="43.58675" lon="3.73822">
        <ele>106</ele>
        <time>2021-03-16T16:17:09+01:00</time>
      </trkpt>
      <trkpt lat="43.58676" lon="3.73827">
        <ele>106</ele>
        <time>2021-03-16T16:17:10+01:00</time>
      </trkpt>
      <trkpt lat="43.5869" lon="3.73891">
        <ele>107</ele>
        <time>2021-03-16T16:17:27+01:00</time>
      </trkpt>
      <trkpt lat="43.58702" lon="3.73935">
        <ele>106</ele>
        <time>2021-03-16T16:17:40+01:00</time>
      </trkpt>
      <trkpt lat="43.58711" lon="3.7396">
        <ele>104</ele>
        <time>2021-03-16T16:17:47+01:00</time>
      </trkpt>
      <trkpt lat="43.58713" lon="3.73961">
        <ele>103</ele>
        <time>2021-03-16T16:17:48+01:00</time>
      </trkpt>
      <trkpt lat="43.58715" lon="3.73962">
        <ele>103</ele>
        <time>2021-03-16T16:17:49+01:00</time>
      </trkpt>
      <trkpt lat="43.58717" lon="3.73961">
        <ele>103</ele>
        <time>2021-03-16T16:17:50+01:00</time>
      </trkpt>
      <trkpt lat="43.58719" lon="3.7396">
        <ele>103</ele>
        <time>2021-03-16T16:17:51+01:00</time>
      </trkpt>
      <trkpt lat="43.58722" lon="3.73958">
        <ele>104</ele>
        <time>2021-03-16T16:17:52+01:00</time>
      </trkpt>
      <trkpt lat="43.58724" lon="3.73956">
        <ele>104</ele>
        <time>2021-03-16T16:17:53+01:00</time>
      </trkpt>
      <trkpt lat="43.58754" lon="3.73931">
        <ele>106</ele>
        <time>2021-03-16T16:18:04+01:00</time>
      </trkpt>
      <trkpt lat="43.58782" lon="3.7395">
        <ele>104</ele>
        <time>2021-03-16T16:18:13+01:00</time>
      </trkpt>
      <trkpt lat="43.58833" lon="3.74013">
        <ele>102</ele>
        <time>2021-03-16T16:18:29+01:00</time>
      </trkpt>
      <trkpt lat="43.58878" lon="3.74039">
        <ele>105</ele>
        <time>2021-03-16T16:18:43+01:00</time>
      </trkpt>
      <trkpt lat="43.58923" lon="3.74069">
        <ele>106</ele>
        <time>2021-03-16T16:18:59+01:00</time>
      </trkpt>
      <trkpt lat="43.58935" lon="3.74085">
        <ele>106</ele>
        <time>2021-03-16T16:19:08+01:00</time>
      </trkpt>
      <trkpt lat="43.58934" lon="3.74088">
        <ele>106</ele>
        <time>2021-03-16T16:19:09+01:00</time>
      </trkpt>
      <trkpt lat="43.58904" lon="3.74141">
        <ele>105</ele>
        <time>2021-03-16T16:19:21+01:00</time>
      </trkpt>
      <trkpt lat="43.58891" lon="3.74161">
        <ele>105</ele>
        <time>2021-03-16T16:19:25+01:00</time>
      </trkpt>
      <trkpt lat="43.58886" lon="3.74165">
        <ele>105</ele>
        <time>2021-03-16T16:19:26+01:00</time>
      </trkpt>
      <trkpt lat="43.58882" lon="3.74168">
        <ele>105</ele>
        <time>2021-03-16T16:19:27+01:00</time>
      </trkpt>
      <trkpt lat="43.58877" lon="3.74171">
        <ele>105</ele>
        <time>2021-03-16T16:19:28+01:00</time>
      </trkpt>
      <trkpt lat="43.58873" lon="3.74173">
        <ele>105</ele>
        <time>2021-03-16T16:19:29+01:00</time>
      </trkpt>
      <trkpt lat="43.58869" lon="3.74175">
        <ele>104</ele>
        <time>2021-03-16T16:19:30+01:00</time>
      </trkpt>
      <trkpt lat="43.58842" lon="3.74192">
        <ele>105</ele>
        <time>2021-03-16T16:19:36+01:00</time>
      </trkpt>
      <trkpt lat="43.58838" lon="3.74196">
        <ele>105</ele>
        <time>2021-03-16T16:19:37+01:00</time>
      </trkpt>
      <trkpt lat="43.58835" lon="3.74201">
        <ele>105</ele>
        <time>2021-03-16T16:19:38+01:00</time>
      </trkpt>
      <trkpt lat="43.58832" lon="3.74206">
        <ele>105</ele>
        <time>2021-03-16T16:19:39+01:00</time>
      </trkpt>
      <trkpt lat="43.58829" lon="3.74211">
        <ele>105</ele>
        <time>2021-03-16T16:19:40+01:00</time>
      </trkpt>
      <trkpt lat="43.58785" lon="3.74297">
        <ele>104</ele>
        <time>2021-03-16T16:19:52+01:00</time>
      </trkpt>
      <trkpt lat="43.5878" lon="3.74301">
        <ele>104</ele>
        <time>2021-03-16T16:19:53+01:00</time>
      </trkpt>
      <trkpt lat="43.58776" lon="3.74304">
        <ele>104</ele>
        <time>2021-03-16T16:19:54+01:00</time>
      </trkpt>
      <trkpt lat="43.58771" lon="3.74305">
        <ele>104</ele>
        <time>2021-03-16T16:19:55+01:00</time>
      </trkpt>
      <trkpt lat="43.58766" lon="3.74306">
        <ele>103</ele>
        <time>2021-03-16T16:19:56+01:00</time>
      </trkpt>
      <trkpt lat="43.5876" lon="3.74306">
        <ele>103</ele>
        <time>2021-03-16T16:19:57+01:00</time>
      </trkpt>
      <trkpt lat="43.58723" lon="3.74311">
        <ele>101</ele>
        <time>2021-03-16T16:20:04+01:00</time>
      </trkpt>
      <trkpt lat="43.58718" lon="3.74314">
        <ele>101</ele>
        <time>2021-03-16T16:20:05+01:00</time>
      </trkpt>
      <trkpt lat="43.58712" lon="3.74318">
        <ele>101</ele>
        <time>2021-03-16T16:20:06+01:00</time>
      </trkpt>
      <trkpt lat="43.58708" lon="3.74323">
        <ele>100</ele>
        <time>2021-03-16T16:20:07+01:00</time>
      </trkpt>
      <trkpt lat="43.58703" lon="3.74328">
        <ele>100</ele>
        <time>2021-03-16T16:20:08+01:00</time>
      </trkpt>
      <trkpt lat="43.58699" lon="3.74333">
        <ele>100</ele>
        <time>2021-03-16T16:20:09+01:00</time>
      </trkpt>
      <trkpt lat="43.58658" lon="3.74411">
        <ele>97</ele>
        <time>2021-03-16T16:20:23+01:00</time>
      </trkpt>
      <trkpt lat="43.5865" lon="3.74438">
        <ele>96</ele>
        <time>2021-03-16T16:20:28+01:00</time>
      </trkpt>
      <trkpt lat="43.58649" lon="3.74444">
        <ele>96</ele>
        <time>2021-03-16T16:20:29+01:00</time>
      </trkpt>
      <trkpt lat="43.58649" lon="3.74449">
        <ele>97</ele>
        <time>2021-03-16T16:20:30+01:00</time>
      </trkpt>
      <trkpt lat="43.58649" lon="3.74453">
        <ele>97</ele>
        <time>2021-03-16T16:20:31+01:00</time>
      </trkpt>
      <trkpt lat="43.58649" lon="3.74457">
        <ele>97</ele>
        <time>2021-03-16T16:20:32+01:00</time>
      </trkpt>
      <trkpt lat="43.5865" lon="3.74486">
        <ele>97</ele>
        <time>2021-03-16T16:20:38+01:00</time>
      </trkpt>
      <trkpt lat="43.58662" lon="3.74594">
        <ele>96</ele>
        <time>2021-03-16T16:20:53+01:00</time>
      </trkpt>
      <trkpt lat="43.58661" lon="3.74601">
        <ele>96</ele>
        <time>2021-03-16T16:20:54+01:00</time>
      </trkpt>
      <trkpt lat="43.5866" lon="3.74608">
        <ele>96</ele>
        <time>2021-03-16T16:20:55+01:00</time>
      </trkpt>
      <trkpt lat="43.58658" lon="3.74613">
        <ele>95</ele>
        <time>2021-03-16T16:20:56+01:00</time>
      </trkpt>
      <trkpt lat="43.58657" lon="3.74618">
        <ele>96</ele>
        <time>2021-03-16T16:20:57+01:00</time>
      </trkpt>
      <trkpt lat="43.58656" lon="3.74622">
        <ele>96</ele>
        <time>2021-03-16T16:20:58+01:00</time>
      </trkpt>
      <trkpt lat="43.58631" lon="3.74674">
        <ele>96</ele>
        <time>2021-03-16T16:21:15+01:00</time>
      </trkpt>
      <trkpt lat="43.58615" lon="3.74703">
        <ele>96</ele>
        <time>2021-03-16T16:21:23+01:00</time>
      </trkpt>
      <trkpt lat="43.58613" lon="3.74709">
        <ele>97</ele>
        <time>2021-03-16T16:21:24+01:00</time>
      </trkpt>
      <trkpt lat="43.5858" lon="3.74806">
        <ele>94</ele>
        <time>2021-03-16T16:21:37+01:00</time>
      </trkpt>
      <trkpt lat="43.58568" lon="3.74829">
        <ele>93</ele>
        <time>2021-03-16T16:21:40+01:00</time>
      </trkpt>
      <trkpt lat="43.58563" lon="3.74834">
        <ele>93</ele>
        <time>2021-03-16T16:21:41+01:00</time>
      </trkpt>
      <trkpt lat="43.58558" lon="3.7484">
        <ele>93</ele>
        <time>2021-03-16T16:21:42+01:00</time>
      </trkpt>
      <trkpt lat="43.58556" lon="3.74848">
        <ele>93</ele>
        <time>2021-03-16T16:21:43+01:00</time>
      </trkpt>
      <trkpt lat="43.58554" lon="3.74855">
        <ele>93</ele>
        <time>2021-03-16T16:21:44+01:00</time>
      </trkpt>
      <trkpt lat="43.58552" lon="3.74863">
        <ele>93</ele>
        <time>2021-03-16T16:21:45+01:00</time>
      </trkpt>
      <trkpt lat="43.58513" lon="3.74963">
        <ele>90</ele>
        <time>2021-03-16T16:22:01+01:00</time>
      </trkpt>
      <trkpt lat="43.58467" lon="3.75079">
        <ele>88</ele>
        <time>2021-03-16T16:22:19+01:00</time>
      </trkpt>
      <trkpt lat="43.58438" lon="3.75149">
        <ele>83</ele>
        <time>2021-03-16T16:22:27+01:00</time>
      </trkpt>
      <trkpt lat="43.5843" lon="3.75188">
        <ele>79</ele>
        <time>2021-03-16T16:22:31+01:00</time>
      </trkpt>
      <trkpt lat="43.58426" lon="3.75223">
        <ele>76</ele>
        <time>2021-03-16T16:22:35+01:00</time>
      </trkpt>
      <trkpt lat="43.58422" lon="3.75259">
        <ele>71</ele>
        <time>2021-03-16T16:22:39+01:00</time>
      </trkpt>
      <trkpt lat="43.5842" lon="3.75285">
        <ele>68</ele>
        <time>2021-03-16T16:22:43+01:00</time>
      </trkpt>
      <trkpt lat="43.58421" lon="3.75304">
        <ele>67</ele>
        <time>2021-03-16T16:22:47+01:00</time>
      </trkpt>
      <trkpt lat="43.58419" lon="3.75322">
        <ele>65</ele>
        <time>2021-03-16T16:22:51+01:00</time>
      </trkpt>
      <trkpt lat="43.58415" lon="3.75324">
        <ele>64</ele>
        <time>2021-03-16T16:22:52+01:00</time>
      </trkpt>
      <trkpt lat="43.5841" lon="3.75325">
        <ele>64</ele>
        <time>2021-03-16T16:22:53+01:00</time>
      </trkpt>
      <trkpt lat="43.58405" lon="3.75322">
        <ele>63</ele>
        <time>2021-03-16T16:22:54+01:00</time>
      </trkpt>
      <trkpt lat="43.58401" lon="3.75317">
        <ele>63</ele>
        <time>2021-03-16T16:22:55+01:00</time>
      </trkpt>
      <trkpt lat="43.58397" lon="3.75312">
        <ele>63</ele>
        <time>2021-03-16T16:22:56+01:00</time>
      </trkpt>
      <trkpt lat="43.58394" lon="3.75307">
        <ele>63</ele>
        <time>2021-03-16T16:22:57+01:00</time>
      </trkpt>
      <trkpt lat="43.58352" lon="3.75242">
        <ele>62</ele>
        <time>2021-03-16T16:23:10+01:00</time>
      </trkpt>
      <trkpt lat="43.5832" lon="3.75195">
        <ele>61</ele>
        <time>2021-03-16T16:23:20+01:00</time>
      </trkpt>
      <trkpt lat="43.58315" lon="3.75191">
        <ele>61</ele>
        <time>2021-03-16T16:23:21+01:00</time>
      </trkpt>
      <trkpt lat="43.5831" lon="3.75189">
        <ele>60</ele>
        <time>2021-03-16T16:23:22+01:00</time>
      </trkpt>
      <trkpt lat="43.58304" lon="3.75187">
        <ele>59</ele>
        <time>2021-03-16T16:23:23+01:00</time>
      </trkpt>
      <trkpt lat="43.58298" lon="3.75187">
        <ele>59</ele>
        <time>2021-03-16T16:23:24+01:00</time>
      </trkpt>
      <trkpt lat="43.58291" lon="3.75187">
        <ele>59</ele>
        <time>2021-03-16T16:23:25+01:00</time>
      </trkpt>
      <trkpt lat="43.58285" lon="3.7519">
        <ele>58</ele>
        <time>2021-03-16T16:23:26+01:00</time>
      </trkpt>
      <trkpt lat="43.58279" lon="3.75195">
        <ele>58</ele>
        <time>2021-03-16T16:23:27+01:00</time>
      </trkpt>
      <trkpt lat="43.58273" lon="3.752">
        <ele>58</ele>
        <time>2021-03-16T16:23:28+01:00</time>
      </trkpt>
      <trkpt lat="43.58246" lon="3.75223">
        <ele>56</ele>
        <time>2021-03-16T16:23:35+01:00</time>
      </trkpt>
      <trkpt lat="43.58213" lon="3.75262">
        <ele>54</ele>
        <time>2021-03-16T16:23:47+01:00</time>
      </trkpt>
      <trkpt lat="43.58186" lon="3.7531">
        <ele>53</ele>
        <time>2021-03-16T16:23:55+01:00</time>
      </trkpt>
      <trkpt lat="43.58183" lon="3.75317">
        <ele>52</ele>
        <time>2021-03-16T16:23:56+01:00</time>
      </trkpt>
      <trkpt lat="43.58182" lon="3.75325">
        <ele>52</ele>
        <time>2021-03-16T16:23:57+01:00</time>
      </trkpt>
      <trkpt lat="43.58181" lon="3.75333">
        <ele>52</ele>
        <time>2021-03-16T16:23:58+01:00</time>
      </trkpt>
      <trkpt lat="43.58181" lon="3.75341">
        <ele>52</ele>
        <time>2021-03-16T16:23:59+01:00</time>
      </trkpt>
      <trkpt lat="43.5818" lon="3.7535">
        <ele>52</ele>
        <time>2021-03-16T16:24:00+01:00</time>
      </trkpt>
      <trkpt lat="43.58173" lon="3.75464">
        <ele>50</ele>
        <time>2021-03-16T16:24:14+01:00</time>
      </trkpt>
      <trkpt lat="43.58174" lon="3.75472">
        <ele>50</ele>
        <time>2021-03-16T16:24:15+01:00</time>
      </trkpt>
      <trkpt lat="43.58177" lon="3.75479">
        <ele>50</ele>
        <time>2021-03-16T16:24:16+01:00</time>
      </trkpt>
      <trkpt lat="43.58179" lon="3.75486">
        <ele>50</ele>
        <time>2021-03-16T16:24:17+01:00</time>
      </trkpt>
      <trkpt lat="43.58182" lon="3.75493">
        <ele>49</ele>
        <time>2021-03-16T16:24:18+01:00</time>
      </trkpt>
      <trkpt lat="43.58185" lon="3.755">
        <ele>49</ele>
        <time>2021-03-16T16:24:19+01:00</time>
      </trkpt>
      <trkpt lat="43.58236" lon="3.75625">
        <ele>48</ele>
        <time>2021-03-16T16:24:39+01:00</time>
      </trkpt>
      <trkpt lat="43.58251" lon="3.75711">
        <ele>48</ele>
        <time>2021-03-16T16:24:55+01:00</time>
      </trkpt>
      <trkpt lat="43.58247" lon="3.75723">
        <ele>48</ele>
        <time>2021-03-16T16:24:58+01:00</time>
      </trkpt>
      <trkpt lat="43.58244" lon="3.75726">
        <ele>48</ele>
        <time>2021-03-16T16:24:59+01:00</time>
      </trkpt>
      <trkpt lat="43.5824" lon="3.75727">
        <ele>48</ele>
        <time>2021-03-16T16:25:00+01:00</time>
      </trkpt>
      <trkpt lat="43.58237" lon="3.75727">
        <ele>48</ele>
        <time>2021-03-16T16:25:01+01:00</time>
      </trkpt>
      <trkpt lat="43.58233" lon="3.75728">
        <ele>47</ele>
        <time>2021-03-16T16:25:02+01:00</time>
      </trkpt>
      <trkpt lat="43.58229" lon="3.75729">
        <ele>47</ele>
        <time>2021-03-16T16:25:03+01:00</time>
      </trkpt>
      <trkpt lat="43.58225" lon="3.7573">
        <ele>47</ele>
        <time>2021-03-16T16:25:04+01:00</time>
      </trkpt>
      <trkpt lat="43.58221" lon="3.75732">
        <ele>47</ele>
        <time>2021-03-16T16:25:05+01:00</time>
      </trkpt>
      <trkpt lat="43.58217" lon="3.75734">
        <ele>47</ele>
        <time>2021-03-16T16:25:06+01:00</time>
      </trkpt>
      <trkpt lat="43.58205" lon="3.75739">
        <ele>47</ele>
        <time>2021-03-16T16:25:09+01:00</time>
      </trkpt>
      <trkpt lat="43.58196" lon="3.75745">
        <ele>47</ele>
        <time>2021-03-16T16:25:11+01:00</time>
      </trkpt>
      <trkpt lat="43.58105" lon="3.75833">
        <ele>45</ele>
        <time>2021-03-16T16:25:32+01:00</time>
      </trkpt>
      <trkpt lat="43.58075" lon="3.75864">
        <ele>45</ele>
        <time>2021-03-16T16:25:39+01:00</time>
      </trkpt>
      <trkpt lat="43.58071" lon="3.75868">
        <ele>45</ele>
        <time>2021-03-16T16:25:40+01:00</time>
      </trkpt>
      <trkpt lat="43.58067" lon="3.75873">
        <ele>45</ele>
        <time>2021-03-16T16:25:41+01:00</time>
      </trkpt>
      <trkpt lat="43.58063" lon="3.75877">
        <ele>45</ele>
        <time>2021-03-16T16:25:42+01:00</time>
      </trkpt>
      <trkpt lat="43.58059" lon="3.75881">
        <ele>45</ele>
        <time>2021-03-16T16:25:43+01:00</time>
      </trkpt>
      <trkpt lat="43.57988" lon="3.75959">
        <ele>43</ele>
        <time>2021-03-16T16:25:58+01:00</time>
      </trkpt>
      <trkpt lat="43.57932" lon="3.76022">
        <ele>41</ele>
        <time>2021-03-16T16:26:08+01:00</time>
      </trkpt>
      <trkpt lat="43.5793" lon="3.7603">
        <ele>41</ele>
        <time>2021-03-16T16:26:09+01:00</time>
      </trkpt>
      <trkpt lat="43.57931" lon="3.76039">
        <ele>41</ele>
        <time>2021-03-16T16:26:10+01:00</time>
      </trkpt>
      <trkpt lat="43.57935" lon="3.76047">
        <ele>41</ele>
        <time>2021-03-16T16:26:11+01:00</time>
      </trkpt>
      <trkpt lat="43.57939" lon="3.76053">
        <ele>41</ele>
        <time>2021-03-16T16:26:12+01:00</time>
      </trkpt>
      <trkpt lat="43.57944" lon="3.7606">
        <ele>41</ele>
        <time>2021-03-16T16:26:13+01:00</time>
      </trkpt>
      <trkpt lat="43.57978" lon="3.761">
        <ele>41</ele>
        <time>2021-03-16T16:26:20+01:00</time>
      </trkpt>
      <trkpt lat="43.57981" lon="3.76107">
        <ele>41</ele>
        <time>2021-03-16T16:26:21+01:00</time>
      </trkpt>
      <trkpt lat="43.57982" lon="3.76115">
        <ele>41</ele>
        <time>2021-03-16T16:26:22+01:00</time>
      </trkpt>
      <trkpt lat="43.57987" lon="3.76136">
        <ele>41</ele>
        <time>2021-03-16T16:26:25+01:00</time>
      </trkpt>
      <trkpt lat="43.57997" lon="3.76145">
        <ele>41</ele>
        <time>2021-03-16T16:26:32+01:00</time>
      </trkpt>
      <trkpt lat="43.57997" lon="3.76145">
        <ele>41</ele>
        <time>2021-03-16T16:26:35+01:00</time>
      </trkpt>
    </trkseg>
  </trk>
</gpx>